<?xml version="1.0" encoding="UTF-8" standalone="no" ?>
<gpx xmlns="http://www.topografix.com/GPX/1/1" xmlns:xsi="http://www.w3.org/2001/XMLSchema-instance" xsi:schemaLocation="http://www.topografix.com/GPX/1/1 http://www.topografix.com/GPX/1/1/gpx.xsd" version="1.1" creator="VisuGPX - https://www.visugpx.com">
  <metadata>
    <name>Balades et randos - Ecurie AMOEDO</name>
  </metadata>
  <trk>
    <name><![CDATA[Balade des 2 Gués]]></name>
    <trkseg>
      <trkpt lat="47.33141" lon="0.4691">
        <ele>41</ele>
        <time>2000-01-01T11:00:00Z</time>
      </trkpt>
      <trkpt lat="47.33141" lon="0.4691">
        <ele>41</ele>
        <time>2000-01-01T11:00:00Z</time>
      </trkpt>
      <trkpt lat="47.33077" lon="0.46959">
        <ele>38</ele>
        <time>2000-01-01T11:00:36Z</time>
      </trkpt>
      <trkpt lat="47.33027" lon="0.46981">
        <ele>38</ele>
        <time>2000-01-01T11:01:02Z</time>
      </trkpt>
      <trkpt lat="47.32977" lon="0.47003">
        <ele>39</ele>
        <time>2000-01-01T11:01:29Z</time>
      </trkpt>
      <trkpt lat="47.32842" lon="0.46918">
        <ele>40</ele>
        <time>2000-01-01T11:02:42Z</time>
      </trkpt>
      <trkpt lat="47.32838" lon="0.46915">
        <ele>40</ele>
        <time>2000-01-01T11:02:44Z</time>
      </trkpt>
      <trkpt lat="47.32897" lon="0.46703">
        <ele>40</ele>
        <time>2000-01-01T11:04:03Z</time>
      </trkpt>
      <trkpt lat="47.32896" lon="0.46675">
        <ele>40</ele>
        <time>2000-01-01T11:04:12Z</time>
      </trkpt>
      <trkpt lat="47.32796" lon="0.46567">
        <ele>38</ele>
        <time>2000-01-01T11:05:14Z</time>
      </trkpt>
      <trkpt lat="47.32765" lon="0.46544">
        <ele>38</ele>
        <time>2000-01-01T11:05:32Z</time>
      </trkpt>
      <trkpt lat="47.32727" lon="0.46445">
        <ele>39</ele>
        <time>2000-01-01T11:06:10Z</time>
      </trkpt>
      <trkpt lat="47.32644" lon="0.46537">
        <ele>38</ele>
        <time>2000-01-01T11:07:02Z</time>
      </trkpt>
      <trkpt lat="47.32539" lon="0.4643">
        <ele>38</ele>
        <time>2000-01-01T11:08:06Z</time>
      </trkpt>
      <trkpt lat="47.32473" lon="0.46362">
        <ele>38</ele>
        <time>2000-01-01T11:08:47Z</time>
      </trkpt>
      <trkpt lat="47.32449" lon="0.46338">
        <ele>38</ele>
        <time>2000-01-01T11:09:01Z</time>
      </trkpt>
      <trkpt lat="47.32369" lon="0.46188">
        <ele>40</ele>
        <time>2000-01-01T11:10:06Z</time>
      </trkpt>
      <trkpt lat="47.3232" lon="0.46086">
        <ele>42</ele>
        <time>2000-01-01T11:10:48Z</time>
      </trkpt>
      <trkpt lat="47.32272" lon="0.4599">
        <ele>42</ele>
        <time>2000-01-01T11:11:29Z</time>
      </trkpt>
      <trkpt lat="47.32225" lon="0.45893">
        <ele>44</ele>
        <time>2000-01-01T11:12:09Z</time>
      </trkpt>
      <trkpt lat="47.32177" lon="0.45797">
        <ele>46</ele>
        <time>2000-01-01T11:12:50Z</time>
      </trkpt>
      <trkpt lat="47.32147" lon="0.45692">
        <ele>47</ele>
        <time>2000-01-01T11:13:29Z</time>
      </trkpt>
      <trkpt lat="47.32161" lon="0.45658">
        <ele>48</ele>
        <time>2000-01-01T11:13:42Z</time>
      </trkpt>
      <trkpt lat="47.32083" lon="0.45507">
        <ele>42</ele>
        <time>2000-01-01T11:14:47Z</time>
      </trkpt>
      <trkpt lat="47.32041" lon="0.45391">
        <ele>40</ele>
        <time>2000-01-01T11:15:32Z</time>
      </trkpt>
      <trkpt lat="47.32003" lon="0.45286">
        <ele>39</ele>
        <time>2000-01-01T11:16:12Z</time>
      </trkpt>
      <trkpt lat="47.31969" lon="0.45177">
        <ele>40</ele>
        <time>2000-01-01T11:16:53Z</time>
      </trkpt>
      <trkpt lat="47.31935" lon="0.45069">
        <ele>41</ele>
        <time>2000-01-01T11:17:33Z</time>
      </trkpt>
      <trkpt lat="47.31901" lon="0.44961">
        <ele>40</ele>
        <time>2000-01-01T11:18:14Z</time>
      </trkpt>
      <trkpt lat="47.31879" lon="0.44892">
        <ele>38</ele>
        <time>2000-01-01T11:18:40Z</time>
      </trkpt>
      <trkpt lat="47.31776" lon="0.44946">
        <ele>43</ele>
        <time>2000-01-01T11:19:35Z</time>
      </trkpt>
      <trkpt lat="47.31745" lon="0.44962">
        <ele>44</ele>
        <time>2000-01-01T11:19:51Z</time>
      </trkpt>
      <trkpt lat="47.31688" lon="0.45133">
        <ele>44</ele>
        <time>2000-01-01T11:20:56Z</time>
      </trkpt>
      <trkpt lat="47.31652" lon="0.4524">
        <ele>42</ele>
        <time>2000-01-01T11:21:36Z</time>
      </trkpt>
      <trkpt lat="47.3162" lon="0.45336">
        <ele>41</ele>
        <time>2000-01-01T11:22:13Z</time>
      </trkpt>
      <trkpt lat="47.31591" lon="0.45435">
        <ele>40</ele>
        <time>2000-01-01T11:22:50Z</time>
      </trkpt>
      <trkpt lat="47.31504" lon="0.45496">
        <ele>40</ele>
        <time>2000-01-01T11:23:38Z</time>
      </trkpt>
      <trkpt lat="47.31503" lon="0.45497">
        <ele>40</ele>
        <time>2000-01-01T11:23:39Z</time>
      </trkpt>
      <trkpt lat="47.31461" lon="0.45457">
        <ele>42</ele>
        <time>2000-01-01T11:24:04Z</time>
      </trkpt>
      <trkpt lat="47.31418" lon="0.45448">
        <ele>42</ele>
        <time>2000-01-01T11:24:25Z</time>
      </trkpt>
      <trkpt lat="47.31426" lon="0.45495">
        <ele>44</ele>
        <time>2000-01-01T11:24:41Z</time>
      </trkpt>
      <trkpt lat="47.31432" lon="0.45542">
        <ele>48</ele>
        <time>2000-01-01T11:24:58Z</time>
      </trkpt>
      <trkpt lat="47.31429" lon="0.45572">
        <ele>52</ele>
        <time>2000-01-01T11:25:08Z</time>
      </trkpt>
      <trkpt lat="47.31463" lon="0.45693">
        <ele>62</ele>
        <time>2000-01-01T11:25:53Z</time>
      </trkpt>
      <trkpt lat="47.31451" lon="0.45763">
        <ele>66</ele>
        <time>2000-01-01T11:26:18Z</time>
      </trkpt>
      <trkpt lat="47.31459" lon="0.45825">
        <ele>66</ele>
        <time>2000-01-01T11:26:39Z</time>
      </trkpt>
      <trkpt lat="47.31487" lon="0.45888">
        <ele>66</ele>
        <time>2000-01-01T11:27:05Z</time>
      </trkpt>
      <trkpt lat="47.31494" lon="0.45943">
        <ele>66</ele>
        <time>2000-01-01T11:27:24Z</time>
      </trkpt>
      <trkpt lat="47.31483" lon="0.46001">
        <ele>67</ele>
        <time>2000-01-01T11:27:44Z</time>
      </trkpt>
      <trkpt lat="47.31472" lon="0.46085">
        <ele>69</ele>
        <time>2000-01-01T11:28:13Z</time>
      </trkpt>
      <trkpt lat="47.31511" lon="0.46162">
        <ele>70</ele>
        <time>2000-01-01T11:28:46Z</time>
      </trkpt>
      <trkpt lat="47.31528" lon="0.46211">
        <ele>72</ele>
        <time>2000-01-01T11:29:05Z</time>
      </trkpt>
      <trkpt lat="47.31595" lon="0.4634">
        <ele>78</ele>
        <time>2000-01-01T11:30:00Z</time>
      </trkpt>
      <trkpt lat="47.31681" lon="0.4648">
        <ele>77</ele>
        <time>2000-01-01T11:31:04Z</time>
      </trkpt>
      <trkpt lat="47.31736" lon="0.46568">
        <ele>77</ele>
        <time>2000-01-01T11:31:45Z</time>
      </trkpt>
      <trkpt lat="47.31751" lon="0.46593">
        <ele>76</ele>
        <time>2000-01-01T11:31:56Z</time>
      </trkpt>
      <trkpt lat="47.31836" lon="0.46755">
        <ele>76</ele>
        <time>2000-01-01T11:33:06Z</time>
      </trkpt>
      <trkpt lat="47.31886" lon="0.46849">
        <ele>75</ele>
        <time>2000-01-01T11:33:46Z</time>
      </trkpt>
      <trkpt lat="47.31889" lon="0.46855">
        <ele>75</ele>
        <time>2000-01-01T11:33:49Z</time>
      </trkpt>
      <trkpt lat="47.31983" lon="0.46913">
        <ele>73</ele>
        <time>2000-01-01T11:34:40Z</time>
      </trkpt>
      <trkpt lat="47.3209" lon="0.46971">
        <ele>66</ele>
        <time>2000-01-01T11:35:37Z</time>
      </trkpt>
      <trkpt lat="47.32168" lon="0.47024">
        <ele>63</ele>
        <time>2000-01-01T11:36:20Z</time>
      </trkpt>
      <trkpt lat="47.32213" lon="0.47121">
        <ele>63</ele>
        <time>2000-01-01T11:37:00Z</time>
      </trkpt>
      <trkpt lat="47.32251" lon="0.47166">
        <ele>62</ele>
        <time>2000-01-01T11:37:24Z</time>
      </trkpt>
      <trkpt lat="47.32277" lon="0.4723">
        <ele>58</ele>
        <time>2000-01-01T11:37:50Z</time>
      </trkpt>
      <trkpt lat="47.32279" lon="0.47265">
        <ele>56</ele>
        <time>2000-01-01T11:38:02Z</time>
      </trkpt>
      <trkpt lat="47.32251" lon="0.47333">
        <ele>52</ele>
        <time>2000-01-01T11:38:29Z</time>
      </trkpt>
      <trkpt lat="47.32239" lon="0.47357">
        <ele>50</ele>
        <time>2000-01-01T11:38:39Z</time>
      </trkpt>
      <trkpt lat="47.3214" lon="0.4734">
        <ele>54</ele>
        <time>2000-01-01T11:39:29Z</time>
      </trkpt>
      <trkpt lat="47.32196" lon="0.47499">
        <ele>47</ele>
        <time>2000-01-01T11:40:30Z</time>
      </trkpt>
      <trkpt lat="47.32115" lon="0.47533">
        <ele>49</ele>
        <time>2000-01-01T11:41:12Z</time>
      </trkpt>
      <trkpt lat="47.32114" lon="0.47533">
        <ele>49</ele>
        <time>2000-01-01T11:41:13Z</time>
      </trkpt>
      <trkpt lat="47.32071" lon="0.47587">
        <ele>50</ele>
        <time>2000-01-01T11:41:41Z</time>
      </trkpt>
      <trkpt lat="47.32035" lon="0.47621">
        <ele>52</ele>
        <time>2000-01-01T11:42:02Z</time>
      </trkpt>
      <trkpt lat="47.32033" lon="0.47673">
        <ele>53</ele>
        <time>2000-01-01T11:42:20Z</time>
      </trkpt>
      <trkpt lat="47.3201" lon="0.47794">
        <ele>56</ele>
        <time>2000-01-01T11:43:03Z</time>
      </trkpt>
      <trkpt lat="47.31966" lon="0.47805">
        <ele>52</ele>
        <time>2000-01-01T11:43:25Z</time>
      </trkpt>
      <trkpt lat="47.31875" lon="0.4784">
        <ele>56</ele>
        <time>2000-01-01T11:44:12Z</time>
      </trkpt>
      <trkpt lat="47.31878" lon="0.47861">
        <ele>56</ele>
        <time>2000-01-01T11:44:19Z</time>
      </trkpt>
      <trkpt lat="47.31889" lon="0.47971">
        <ele>61</ele>
        <time>2000-01-01T11:44:57Z</time>
      </trkpt>
      <trkpt lat="47.31874" lon="0.48027">
        <ele>63</ele>
        <time>2000-01-01T11:45:18Z</time>
      </trkpt>
      <trkpt lat="47.31872" lon="0.48134">
        <ele>62</ele>
        <time>2000-01-01T11:45:54Z</time>
      </trkpt>
      <trkpt lat="47.31884" lon="0.48177">
        <ele>63</ele>
        <time>2000-01-01T11:46:10Z</time>
      </trkpt>
      <trkpt lat="47.31923" lon="0.48245">
        <ele>62</ele>
        <time>2000-01-01T11:46:40Z</time>
      </trkpt>
      <trkpt lat="47.31955" lon="0.4831">
        <ele>66</ele>
        <time>2000-01-01T11:47:08Z</time>
      </trkpt>
      <trkpt lat="47.31953" lon="0.48366">
        <ele>64</ele>
        <time>2000-01-01T11:47:27Z</time>
      </trkpt>
      <trkpt lat="47.31962" lon="0.48454">
        <ele>62</ele>
        <time>2000-01-01T11:47:57Z</time>
      </trkpt>
      <trkpt lat="47.31977" lon="0.48494">
        <ele>62</ele>
        <time>2000-01-01T11:48:13Z</time>
      </trkpt>
      <trkpt lat="47.32003" lon="0.48544">
        <ele>67</ele>
        <time>2000-01-01T11:48:34Z</time>
      </trkpt>
      <trkpt lat="47.32028" lon="0.48567">
        <ele>68</ele>
        <time>2000-01-01T11:48:49Z</time>
      </trkpt>
      <trkpt lat="47.32037" lon="0.48651">
        <ele>65</ele>
        <time>2000-01-01T11:49:18Z</time>
      </trkpt>
      <trkpt lat="47.3212" lon="0.48653">
        <ele>75</ele>
        <time>2000-01-01T11:49:59Z</time>
      </trkpt>
      <trkpt lat="47.32144" lon="0.48653">
        <ele>76</ele>
        <time>2000-01-01T11:50:12Z</time>
      </trkpt>
      <trkpt lat="47.32213" lon="0.48627">
        <ele>81</ele>
        <time>2000-01-01T11:50:47Z</time>
      </trkpt>
      <trkpt lat="47.32236" lon="0.48578">
        <ele>81</ele>
        <time>2000-01-01T11:51:08Z</time>
      </trkpt>
      <trkpt lat="47.32262" lon="0.48542">
        <ele>80</ele>
        <time>2000-01-01T11:51:26Z</time>
      </trkpt>
      <trkpt lat="47.32404" lon="0.48621">
        <ele>80</ele>
        <time>2000-01-01T11:52:41Z</time>
      </trkpt>
      <trkpt lat="47.3248" lon="0.48663">
        <ele>82</ele>
        <time>2000-01-01T11:53:22Z</time>
      </trkpt>
      <trkpt lat="47.32519" lon="0.48684">
        <ele>82</ele>
        <time>2000-01-01T11:53:43Z</time>
      </trkpt>
      <trkpt lat="47.32629" lon="0.48757">
        <ele>79</ele>
        <time>2000-01-01T11:54:43Z</time>
      </trkpt>
      <trkpt lat="47.32702" lon="0.48806">
        <ele>80</ele>
        <time>2000-01-01T11:55:24Z</time>
      </trkpt>
      <trkpt lat="47.32728" lon="0.48823">
        <ele>80</ele>
        <time>2000-01-01T11:55:37Z</time>
      </trkpt>
      <trkpt lat="47.32766" lon="0.48733">
        <ele>81</ele>
        <time>2000-01-01T11:56:13Z</time>
      </trkpt>
      <trkpt lat="47.32799" lon="0.48559">
        <ele>81</ele>
        <time>2000-01-01T11:57:15Z</time>
      </trkpt>
      <trkpt lat="47.32778" lon="0.48544">
        <ele>80</ele>
        <time>2000-01-01T11:57:26Z</time>
      </trkpt>
      <trkpt lat="47.32749" lon="0.48478">
        <ele>78</ele>
        <time>2000-01-01T11:57:53Z</time>
      </trkpt>
      <trkpt lat="47.32707" lon="0.48353">
        <ele>77</ele>
        <time>2000-01-01T11:58:41Z</time>
      </trkpt>
      <trkpt lat="47.32702" lon="0.48341">
        <ele>77</ele>
        <time>2000-01-01T11:58:45Z</time>
      </trkpt>
      <trkpt lat="47.32692" lon="0.48302">
        <ele>75</ele>
        <time>2000-01-01T11:59:00Z</time>
      </trkpt>
      <trkpt lat="47.32695" lon="0.48262">
        <ele>75</ele>
        <time>2000-01-01T11:59:13Z</time>
      </trkpt>
      <trkpt lat="47.3272" lon="0.48193">
        <ele>72</ele>
        <time>2000-01-01T11:59:40Z</time>
      </trkpt>
      <trkpt lat="47.32777" lon="0.48101">
        <ele>54</ele>
        <time>2000-01-01T12:00:23Z</time>
      </trkpt>
      <trkpt lat="47.32795" lon="0.48138">
        <ele>53</ele>
        <time>2000-01-01T12:00:38Z</time>
      </trkpt>
      <trkpt lat="47.32819" lon="0.48108">
        <ele>49</ele>
        <time>2000-01-01T12:00:54Z</time>
      </trkpt>
      <trkpt lat="47.32935" lon="0.48001">
        <ele>43</ele>
        <time>2000-01-01T12:02:03Z</time>
      </trkpt>
      <trkpt lat="47.32946" lon="0.47985">
        <ele>44</ele>
        <time>2000-01-01T12:02:11Z</time>
      </trkpt>
      <trkpt lat="47.32937" lon="0.47942">
        <ele>44</ele>
        <time>2000-01-01T12:02:26Z</time>
      </trkpt>
      <trkpt lat="47.32928" lon="0.47871">
        <ele>45</ele>
        <time>2000-01-01T12:02:50Z</time>
      </trkpt>
      <trkpt lat="47.32923" lon="0.47825">
        <ele>44</ele>
        <time>2000-01-01T12:03:06Z</time>
      </trkpt>
      <trkpt lat="47.32932" lon="0.47732">
        <ele>42</ele>
        <time>2000-01-01T12:03:38Z</time>
      </trkpt>
      <trkpt lat="47.32907" lon="0.4752">
        <ele>43</ele>
        <time>2000-01-01T12:04:52Z</time>
      </trkpt>
      <trkpt lat="47.32907" lon="0.47518">
        <ele>43</ele>
        <time>2000-01-01T12:04:52Z</time>
      </trkpt>
      <trkpt lat="47.32903" lon="0.4731">
        <ele>43</ele>
        <time>2000-01-01T12:06:03Z</time>
      </trkpt>
      <trkpt lat="47.3292" lon="0.47313">
        <ele>42</ele>
        <time>2000-01-01T12:06:11Z</time>
      </trkpt>
      <trkpt lat="47.32972" lon="0.47276">
        <ele>41</ele>
        <time>2000-01-01T12:06:40Z</time>
      </trkpt>
      <trkpt lat="47.32984" lon="0.47234">
        <ele>41</ele>
        <time>2000-01-01T12:06:56Z</time>
      </trkpt>
      <trkpt lat="47.32937" lon="0.47113">
        <ele>40</ele>
        <time>2000-01-01T12:07:43Z</time>
      </trkpt>
      <trkpt lat="47.32925" lon="0.47072">
        <ele>40</ele>
        <time>2000-01-01T12:07:58Z</time>
      </trkpt>
      <trkpt lat="47.32931" lon="0.47047">
        <ele>40</ele>
        <time>2000-01-01T12:08:07Z</time>
      </trkpt>
      <trkpt lat="47.32942" lon="0.47027">
        <ele>40</ele>
        <time>2000-01-01T12:08:16Z</time>
      </trkpt>
      <trkpt lat="47.32997" lon="0.47003">
        <ele>38</ele>
        <time>2000-01-01T12:08:45Z</time>
      </trkpt>
      <trkpt lat="47.33067" lon="0.46973">
        <ele>38</ele>
        <time>2000-01-01T12:09:21Z</time>
      </trkpt>
      <trkpt lat="47.33142" lon="0.46923">
        <ele>40</ele>
        <time>2000-01-01T12:10:02Z</time>
      </trkpt>
    </trkseg>
  </trk>
  <trk>
    <name><![CDATA[La chatonnière]]></name>
    <trkseg>
      <trkpt lat="47.3314" lon="0.46912">
        <ele>41</ele>
        <time>2019-08-08T17:14:40.000Z</time>
      </trkpt>
      <trkpt lat="47.3314" lon="0.46912">
        <ele>41</ele>
        <time>2019-08-08T17:14:40.000Z</time>
      </trkpt>
      <trkpt lat="47.33077" lon="0.46959">
        <ele>38</ele>
        <time>2019-08-08T17:15:15.324Z</time>
      </trkpt>
      <trkpt lat="47.32977" lon="0.47002">
        <ele>39</ele>
        <time>2019-08-08T17:16:07.443Z</time>
      </trkpt>
      <trkpt lat="47.32969" lon="0.46993">
        <ele>39</ele>
        <time>2019-08-08T17:16:12.477Z</time>
      </trkpt>
      <trkpt lat="47.32838" lon="0.46915">
        <ele>40</ele>
        <time>2019-08-08T17:17:23.163Z</time>
      </trkpt>
      <trkpt lat="47.32872" lon="0.46814">
        <ele>40</ele>
        <time>2019-08-08T17:18:01.410Z</time>
      </trkpt>
      <trkpt lat="47.32902" lon="0.46706">
        <ele>40</ele>
        <time>2019-08-08T17:18:40.995Z</time>
      </trkpt>
      <trkpt lat="47.329" lon="0.46678">
        <ele>40</ele>
        <time>2019-08-08T17:18:50.544Z</time>
      </trkpt>
      <trkpt lat="47.32851" lon="0.46611">
        <ele>39</ele>
        <time>2019-08-08T17:19:23.973Z</time>
      </trkpt>
      <trkpt lat="47.32812" lon="0.46573">
        <ele>38</ele>
        <time>2019-08-08T17:19:47.359Z</time>
      </trkpt>
      <trkpt lat="47.32799" lon="0.46565">
        <ele>38</ele>
        <time>2019-08-08T17:19:54.407Z</time>
      </trkpt>
      <trkpt lat="47.32759" lon="0.46537">
        <ele>38</ele>
        <time>2019-08-08T17:20:16.561Z</time>
      </trkpt>
      <trkpt lat="47.32743" lon="0.46495">
        <ele>39</ele>
        <time>2019-08-08T17:20:32.901Z</time>
      </trkpt>
      <trkpt lat="47.32724" lon="0.46444">
        <ele>39</ele>
        <time>2019-08-08T17:20:52.639Z</time>
      </trkpt>
      <trkpt lat="47.3278" lon="0.46374">
        <ele>39</ele>
        <time>2019-08-08T17:21:29.365Z</time>
      </trkpt>
      <trkpt lat="47.32684" lon="0.46241">
        <ele>38</ele>
        <time>2019-08-08T17:22:35.261Z</time>
      </trkpt>
      <trkpt lat="47.32358" lon="0.45782">
        <ele>44</ele>
        <time>2019-08-08T17:26:20.751Z</time>
      </trkpt>
      <trkpt lat="47.32265" lon="0.45507">
        <ele>45</ele>
        <time>2019-08-08T17:28:04.991Z</time>
      </trkpt>
      <trkpt lat="47.32184" lon="0.45241">
        <ele>40</ele>
        <time>2019-08-08T17:29:43.902Z</time>
      </trkpt>
      <trkpt lat="47.3207" lon="0.44812">
        <ele>38</ele>
        <time>2019-08-08T17:32:20.200Z</time>
      </trkpt>
      <trkpt lat="47.31879" lon="0.44892">
        <ele>38</ele>
        <time>2019-08-08T17:33:59.550Z</time>
      </trkpt>
      <trkpt lat="47.31781" lon="0.44513">
        <ele>39</ele>
        <time>2019-08-08T17:36:17.148Z</time>
      </trkpt>
      <trkpt lat="47.31785" lon="0.44479">
        <ele>39</ele>
        <time>2019-08-08T17:36:28.854Z</time>
      </trkpt>
      <trkpt lat="47.31745" lon="0.44294">
        <ele>39</ele>
        <time>2019-08-08T17:37:34.725Z</time>
      </trkpt>
      <trkpt lat="47.31708" lon="0.4414">
        <ele>39</ele>
        <time>2019-08-08T17:38:30.149Z</time>
      </trkpt>
      <trkpt lat="47.31639" lon="0.43812">
        <ele>38</ele>
        <time>2019-08-08T17:40:26.649Z</time>
      </trkpt>
      <trkpt lat="47.3162" lon="0.43752">
        <ele>38</ele>
        <time>2019-08-08T17:40:49.114Z</time>
      </trkpt>
      <trkpt lat="47.31586" lon="0.43645">
        <ele>38</ele>
        <time>2019-08-08T17:41:29.201Z</time>
      </trkpt>
      <trkpt lat="47.31586" lon="0.436">
        <ele>38</ele>
        <time>2019-08-08T17:41:44.467Z</time>
      </trkpt>
      <trkpt lat="47.31618" lon="0.43518">
        <ele>37</ele>
        <time>2019-08-08T17:42:16.563Z</time>
      </trkpt>
      <trkpt lat="47.31607" lon="0.43436">
        <ele>37</ele>
        <time>2019-08-08T17:42:44.919Z</time>
      </trkpt>
      <trkpt lat="47.31556" lon="0.43387">
        <ele>37</ele>
        <time>2019-08-08T17:43:15.375Z</time>
      </trkpt>
      <trkpt lat="47.31538" lon="0.43367">
        <ele>37</ele>
        <time>2019-08-08T17:43:26.651Z</time>
      </trkpt>
      <trkpt lat="47.31482" lon="0.43224">
        <ele>38</ele>
        <time>2019-08-08T17:44:22.673Z</time>
      </trkpt>
      <trkpt lat="47.3142" lon="0.42941">
        <ele>38</ele>
        <time>2019-08-08T17:46:03.567Z</time>
      </trkpt>
      <trkpt lat="47.31402" lon="0.42952">
        <ele>38</ele>
        <time>2019-08-08T17:46:13.316Z</time>
      </trkpt>
      <trkpt lat="47.31388" lon="0.4292">
        <ele>38</ele>
        <time>2019-08-08T17:46:26.236Z</time>
      </trkpt>
      <trkpt lat="47.31354" lon="0.42872">
        <ele>39</ele>
        <time>2019-08-08T17:46:49.786Z</time>
      </trkpt>
      <trkpt lat="47.31315" lon="0.42815">
        <ele>39</ele>
        <time>2019-08-08T17:47:17.259Z</time>
      </trkpt>
      <trkpt lat="47.31308" lon="0.42764">
        <ele>39</ele>
        <time>2019-08-08T17:47:34.912Z</time>
      </trkpt>
      <trkpt lat="47.31299" lon="0.42724">
        <ele>39</ele>
        <time>2019-08-08T17:47:49.210Z</time>
      </trkpt>
      <trkpt lat="47.31274" lon="0.42687">
        <ele>39</ele>
        <time>2019-08-08T17:48:06.931Z</time>
      </trkpt>
      <trkpt lat="47.31234" lon="0.42589">
        <ele>38</ele>
        <time>2019-08-08T17:48:45.738Z</time>
      </trkpt>
      <trkpt lat="47.3125" lon="0.42567">
        <ele>38</ele>
        <time>2019-08-08T17:48:56.683Z</time>
      </trkpt>
      <trkpt lat="47.31234" lon="0.42531">
        <ele>38</ele>
        <time>2019-08-08T17:49:11.286Z</time>
      </trkpt>
      <trkpt lat="47.31202" lon="0.42506">
        <ele>38</ele>
        <time>2019-08-08T17:49:29.406Z</time>
      </trkpt>
      <trkpt lat="47.31174" lon="0.42494">
        <ele>37</ele>
        <time>2019-08-08T17:49:43.996Z</time>
      </trkpt>
      <trkpt lat="47.31137" lon="0.42457">
        <ele>38</ele>
        <time>2019-08-08T17:50:06.364Z</time>
      </trkpt>
      <trkpt lat="47.31111" lon="0.42414">
        <ele>39</ele>
        <time>2019-08-08T17:50:25.911Z</time>
      </trkpt>
      <trkpt lat="47.30985" lon="0.42311">
        <ele>38</ele>
        <time>2019-08-08T17:51:37.995Z</time>
      </trkpt>
      <trkpt lat="47.30843" lon="0.42171">
        <ele>38</ele>
        <time>2019-08-08T17:53:03.463Z</time>
      </trkpt>
      <trkpt lat="47.30794" lon="0.42301">
        <ele>38</ele>
        <time>2019-08-08T17:53:53.927Z</time>
      </trkpt>
      <trkpt lat="47.30758" lon="0.42507">
        <ele>39</ele>
        <time>2019-08-08T17:55:06.104Z</time>
      </trkpt>
      <trkpt lat="47.30763" lon="0.42636">
        <ele>38</ele>
        <time>2019-08-08T17:55:49.943Z</time>
      </trkpt>
      <trkpt lat="47.30709" lon="0.42626">
        <ele>38</ele>
        <time>2019-08-08T17:56:17.176Z</time>
      </trkpt>
      <trkpt lat="47.30565" lon="0.42503">
        <ele>39</ele>
        <time>2019-08-08T17:57:40.444Z</time>
      </trkpt>
      <trkpt lat="47.30434" lon="0.41941">
        <ele>39</ele>
        <time>2019-08-08T18:01:02.084Z</time>
      </trkpt>
      <trkpt lat="47.30347" lon="0.418">
        <ele>38</ele>
        <time>2019-08-08T18:02:06.768Z</time>
      </trkpt>
      <trkpt lat="47.30306" lon="0.41662">
        <ele>38</ele>
        <time>2019-08-08T18:02:57.890Z</time>
      </trkpt>
      <trkpt lat="47.29969" lon="0.41924">
        <ele>43</ele>
        <time>2019-08-08T18:06:08.518Z</time>
      </trkpt>
      <trkpt lat="47.29879" lon="0.41682">
        <ele>42</ele>
        <time>2019-08-08T18:07:42.176Z</time>
      </trkpt>
      <trkpt lat="47.29848" lon="0.41685">
        <ele>43</ele>
        <time>2019-08-08T18:07:57.721Z</time>
      </trkpt>
      <trkpt lat="47.29826" lon="0.41726">
        <ele>45</ele>
        <time>2019-08-08T18:08:15.462Z</time>
      </trkpt>
      <trkpt lat="47.29806" lon="0.41744">
        <ele>46</ele>
        <time>2019-08-08T18:08:27.186Z</time>
      </trkpt>
      <trkpt lat="47.29787" lon="0.41717">
        <ele>46</ele>
        <time>2019-08-08T18:08:40.390Z</time>
      </trkpt>
      <trkpt lat="47.29774" lon="0.41681">
        <ele>46</ele>
        <time>2019-08-08T18:08:54.230Z</time>
      </trkpt>
      <trkpt lat="47.29746" lon="0.41664">
        <ele>47</ele>
        <time>2019-08-08T18:09:09.382Z</time>
      </trkpt>
      <trkpt lat="47.29742" lon="0.4166">
        <ele>47</ele>
        <time>2019-08-08T18:09:11.800Z</time>
      </trkpt>
      <trkpt lat="47.29743" lon="0.41602">
        <ele>48</ele>
        <time>2019-08-08T18:09:31.489Z</time>
      </trkpt>
      <trkpt lat="47.29727" lon="0.41596">
        <ele>48</ele>
        <time>2019-08-08T18:09:39.750Z</time>
      </trkpt>
      <trkpt lat="47.29708" lon="0.41544">
        <ele>49</ele>
        <time>2019-08-08T18:09:59.794Z</time>
      </trkpt>
      <trkpt lat="47.29661" lon="0.4147">
        <ele>51</ele>
        <time>2019-08-08T18:10:34.199Z</time>
      </trkpt>
      <trkpt lat="47.29565" lon="0.41314">
        <ele>51</ele>
        <time>2019-08-08T18:11:45.684Z</time>
      </trkpt>
      <trkpt lat="47.29174" lon="0.4154">
        <ele>80</ele>
        <time>2019-08-08T18:15:15.828Z</time>
      </trkpt>
      <trkpt lat="47.2905" lon="0.41507">
        <ele>89</ele>
        <time>2019-08-08T18:16:18.878Z</time>
      </trkpt>
      <trkpt lat="47.28886" lon="0.41528">
        <ele>92</ele>
        <time>2019-08-08T18:17:41.249Z</time>
      </trkpt>
      <trkpt lat="47.28647" lon="0.41619">
        <ele>87</ele>
        <time>2019-08-08T18:19:44.763Z</time>
      </trkpt>
      <trkpt lat="47.2844" lon="0.41731">
        <ele>83</ele>
        <time>2019-08-08T18:21:35.097Z</time>
      </trkpt>
      <trkpt lat="47.28432" lon="0.41881">
        <ele>83</ele>
        <time>2019-08-08T18:22:26.170Z</time>
      </trkpt>
      <trkpt lat="47.27975" lon="0.41847">
        <ele>82</ele>
        <time>2019-08-08T18:26:15.133Z</time>
      </trkpt>
      <trkpt lat="47.27978" lon="0.4195">
        <ele>78</ele>
        <time>2019-08-08T18:26:50.130Z</time>
      </trkpt>
      <trkpt lat="47.27968" lon="0.42019">
        <ele>76</ele>
        <time>2019-08-08T18:27:14.082Z</time>
      </trkpt>
      <trkpt lat="47.27949" lon="0.42076">
        <ele>76</ele>
        <time>2019-08-08T18:27:35.641Z</time>
      </trkpt>
      <trkpt lat="47.27814" lon="0.42053">
        <ele>71</ele>
        <time>2019-08-08T18:28:43.642Z</time>
      </trkpt>
      <trkpt lat="47.27803" lon="0.42175">
        <ele>72</ele>
        <time>2019-08-08T18:29:25.422Z</time>
      </trkpt>
      <trkpt lat="47.27768" lon="0.42259">
        <ele>73</ele>
        <time>2019-08-08T18:29:58.887Z</time>
      </trkpt>
      <trkpt lat="47.27763" lon="0.42322">
        <ele>72</ele>
        <time>2019-08-08T18:30:20.420Z</time>
      </trkpt>
      <trkpt lat="47.27732" lon="0.42436">
        <ele>67</ele>
        <time>2019-08-08T18:31:02.114Z</time>
      </trkpt>
      <trkpt lat="47.27711" lon="0.42471">
        <ele>68</ele>
        <time>2019-08-08T18:31:17.976Z</time>
      </trkpt>
      <trkpt lat="47.27754" lon="0.42508">
        <ele>71</ele>
        <time>2019-08-08T18:31:42.890Z</time>
      </trkpt>
      <trkpt lat="47.27849" lon="0.42565">
        <ele>76</ele>
        <time>2019-08-08T18:32:34.213Z</time>
      </trkpt>
      <trkpt lat="47.2791" lon="0.42574">
        <ele>77</ele>
        <time>2019-08-08T18:33:04.889Z</time>
      </trkpt>
      <trkpt lat="47.27933" lon="0.42579">
        <ele>80</ele>
        <time>2019-08-08T18:33:16.522Z</time>
      </trkpt>
      <trkpt lat="47.27996" lon="0.42642">
        <ele>80</ele>
        <time>2019-08-08T18:33:54.616Z</time>
      </trkpt>
      <trkpt lat="47.28044" lon="0.42675">
        <ele>80</ele>
        <time>2019-08-08T18:34:21.118Z</time>
      </trkpt>
      <trkpt lat="47.2818" lon="0.42666">
        <ele>86</ele>
        <time>2019-08-08T18:35:29.238Z</time>
      </trkpt>
      <trkpt lat="47.28227" lon="0.42686">
        <ele>86</ele>
        <time>2019-08-08T18:35:53.716Z</time>
      </trkpt>
      <trkpt lat="47.28316" lon="0.42772">
        <ele>86</ele>
        <time>2019-08-08T18:36:46.965Z</time>
      </trkpt>
      <trkpt lat="47.28442" lon="0.42958">
        <ele>86</ele>
        <time>2019-08-08T18:38:16.190Z</time>
      </trkpt>
      <trkpt lat="47.28471" lon="0.42974">
        <ele>86</ele>
        <time>2019-08-08T18:38:31.684Z</time>
      </trkpt>
      <trkpt lat="47.28551" lon="0.42841">
        <ele>90</ele>
        <time>2019-08-08T18:39:32.020Z</time>
      </trkpt>
      <trkpt lat="47.28641" lon="0.42758">
        <ele>92</ele>
        <time>2019-08-08T18:40:25.140Z</time>
      </trkpt>
      <trkpt lat="47.28656" lon="0.42738">
        <ele>91</ele>
        <time>2019-08-08T18:40:35.260Z</time>
      </trkpt>
      <trkpt lat="47.28705" lon="0.42712">
        <ele>91</ele>
        <time>2019-08-08T18:41:01.318Z</time>
      </trkpt>
      <trkpt lat="47.28794" lon="0.42692">
        <ele>90</ele>
        <time>2019-08-08T18:41:46.366Z</time>
      </trkpt>
      <trkpt lat="47.28941" lon="0.4245">
        <ele>88</ele>
        <time>2019-08-08T18:43:36.624Z</time>
      </trkpt>
      <trkpt lat="47.29031" lon="0.42555">
        <ele>88</ele>
        <time>2019-08-08T18:44:34.053Z</time>
      </trkpt>
      <trkpt lat="47.29052" lon="0.42658">
        <ele>90</ele>
        <time>2019-08-08T18:45:10.556Z</time>
      </trkpt>
      <trkpt lat="47.292" lon="0.42812">
        <ele>89</ele>
        <time>2019-08-08T18:46:41.198Z</time>
      </trkpt>
      <trkpt lat="47.2943" lon="0.43066">
        <ele>87</ele>
        <time>2019-08-08T18:49:04.989Z</time>
      </trkpt>
      <trkpt lat="47.29482" lon="0.43027">
        <ele>87</ele>
        <time>2019-08-08T18:49:34.181Z</time>
      </trkpt>
      <trkpt lat="47.29602" lon="0.43336">
        <ele>85</ele>
        <time>2019-08-08T18:51:35.019Z</time>
      </trkpt>
      <trkpt lat="47.29794" lon="0.43315">
        <ele>85</ele>
        <time>2019-08-08T18:53:11.355Z</time>
      </trkpt>
      <trkpt lat="47.2987" lon="0.43164">
        <ele>81</ele>
        <time>2019-08-08T18:54:15.166Z</time>
      </trkpt>
      <trkpt lat="47.29977" lon="0.43087">
        <ele>74</ele>
        <time>2019-08-08T18:55:14.742Z</time>
      </trkpt>
      <trkpt lat="47.30073" lon="0.4301">
        <ele>63</ele>
        <time>2019-08-08T18:56:09.425Z</time>
      </trkpt>
      <trkpt lat="47.3014" lon="0.42881">
        <ele>55</ele>
        <time>2019-08-08T18:57:04.562Z</time>
      </trkpt>
      <trkpt lat="47.30268" lon="0.42774">
        <ele>47</ele>
        <time>2019-08-08T18:58:18.185Z</time>
      </trkpt>
      <trkpt lat="47.30489" lon="0.42602">
        <ele>39</ele>
        <time>2019-08-08T19:00:23.224Z</time>
      </trkpt>
      <trkpt lat="47.30564" lon="0.42501">
        <ele>39</ele>
        <time>2019-08-08T19:01:14.045Z</time>
      </trkpt>
      <trkpt lat="47.30766" lon="0.42686">
        <ele>38</ele>
        <time>2019-08-08T19:03:13.026Z</time>
      </trkpt>
      <trkpt lat="47.30813" lon="0.42757">
        <ele>39</ele>
        <time>2019-08-08T19:03:46.692Z</time>
      </trkpt>
      <trkpt lat="47.30963" lon="0.43147">
        <ele>42</ele>
        <time>2019-08-08T19:06:18.816Z</time>
      </trkpt>
      <trkpt lat="47.30966" lon="0.43248">
        <ele>41</ele>
        <time>2019-08-08T19:06:53.116Z</time>
      </trkpt>
      <trkpt lat="47.30955" lon="0.43304">
        <ele>40</ele>
        <time>2019-08-08T19:07:12.897Z</time>
      </trkpt>
      <trkpt lat="47.30948" lon="0.43578">
        <ele>39</ele>
        <time>2019-08-08T19:08:45.924Z</time>
      </trkpt>
      <trkpt lat="47.31034" lon="0.43767">
        <ele>39</ele>
        <time>2019-08-08T19:10:03.148Z</time>
      </trkpt>
      <trkpt lat="47.31095" lon="0.43799">
        <ele>38</ele>
        <time>2019-08-08T19:10:35.544Z</time>
      </trkpt>
      <trkpt lat="47.31262" lon="0.43965">
        <ele>39</ele>
        <time>2019-08-08T19:12:16.313Z</time>
      </trkpt>
      <trkpt lat="47.31315" lon="0.44025">
        <ele>39</ele>
        <time>2019-08-08T19:12:49.744Z</time>
      </trkpt>
      <trkpt lat="47.31369" lon="0.44306">
        <ele>39</ele>
        <time>2019-08-08T19:14:28.828Z</time>
      </trkpt>
      <trkpt lat="47.31393" lon="0.44387">
        <ele>40</ele>
        <time>2019-08-08T19:14:58.817Z</time>
      </trkpt>
      <trkpt lat="47.31492" lon="0.44493">
        <ele>40</ele>
        <time>2019-08-08T19:16:00.030Z</time>
      </trkpt>
      <trkpt lat="47.31628" lon="0.44716">
        <ele>42</ele>
        <time>2019-08-08T19:17:41.784Z</time>
      </trkpt>
      <trkpt lat="47.31632" lon="0.44776">
        <ele>42</ele>
        <time>2019-08-08T19:18:02.236Z</time>
      </trkpt>
      <trkpt lat="47.31598" lon="0.45042">
        <ele>42</ele>
        <time>2019-08-08T19:19:34.061Z</time>
      </trkpt>
      <trkpt lat="47.3153" lon="0.45246">
        <ele>40</ele>
        <time>2019-08-08T19:20:51.177Z</time>
      </trkpt>
      <trkpt lat="47.31527" lon="0.45359">
        <ele>40</ele>
        <time>2019-08-08T19:21:29.540Z</time>
      </trkpt>
      <trkpt lat="47.3153" lon="0.45473">
        <ele>40</ele>
        <time>2019-08-08T19:22:08.242Z</time>
      </trkpt>
      <trkpt lat="47.31565" lon="0.45458">
        <ele>40</ele>
        <time>2019-08-08T19:22:26.479Z</time>
      </trkpt>
      <trkpt lat="47.31614" lon="0.45368">
        <ele>41</ele>
        <time>2019-08-08T19:23:05.636Z</time>
      </trkpt>
      <trkpt lat="47.31687" lon="0.45181">
        <ele>43</ele>
        <time>2019-08-08T19:24:18.837Z</time>
      </trkpt>
      <trkpt lat="47.31747" lon="0.44975">
        <ele>44</ele>
        <time>2019-08-08T19:25:34.894Z</time>
      </trkpt>
      <trkpt lat="47.3184" lon="0.4528">
        <ele>43</ele>
        <time>2019-08-08T19:27:28.340Z</time>
      </trkpt>
      <trkpt lat="47.31993" lon="0.45795">
        <ele>40</ele>
        <time>2019-08-08T19:30:39.073Z</time>
      </trkpt>
      <trkpt lat="47.32103" lon="0.45741">
        <ele>45</ele>
        <time>2019-08-08T19:31:37.082Z</time>
      </trkpt>
      <trkpt lat="47.32151" lon="0.45782">
        <ele>45</ele>
        <time>2019-08-08T19:32:04.836Z</time>
      </trkpt>
      <trkpt lat="47.32175" lon="0.45785">
        <ele>46</ele>
        <time>2019-08-08T19:32:16.888Z</time>
      </trkpt>
      <trkpt lat="47.32177" lon="0.45797">
        <ele>46</ele>
        <time>2019-08-08T19:32:21.080Z</time>
      </trkpt>
      <trkpt lat="47.32225" lon="0.45893">
        <ele>44</ele>
        <time>2019-08-08T19:33:01.542Z</time>
      </trkpt>
      <trkpt lat="47.32272" lon="0.4599">
        <ele>42</ele>
        <time>2019-08-08T19:33:41.984Z</time>
      </trkpt>
      <trkpt lat="47.3232" lon="0.46086">
        <ele>42</ele>
        <time>2019-08-08T19:34:22.446Z</time>
      </trkpt>
      <trkpt lat="47.32369" lon="0.46188">
        <ele>40</ele>
        <time>2019-08-08T19:35:04.850Z</time>
      </trkpt>
      <trkpt lat="47.32449" lon="0.46338">
        <ele>38</ele>
        <time>2019-08-08T19:36:09.587Z</time>
      </trkpt>
      <trkpt lat="47.32473" lon="0.46362">
        <ele>38</ele>
        <time>2019-08-08T19:36:24.095Z</time>
      </trkpt>
      <trkpt lat="47.32539" lon="0.4643">
        <ele>38</ele>
        <time>2019-08-08T19:37:04.376Z</time>
      </trkpt>
      <trkpt lat="47.32644" lon="0.46537">
        <ele>38</ele>
        <time>2019-08-08T19:38:08.231Z</time>
      </trkpt>
      <trkpt lat="47.32721" lon="0.46449">
        <ele>39</ele>
        <time>2019-08-08T19:38:56.968Z</time>
      </trkpt>
      <trkpt lat="47.32755" lon="0.46542">
        <ele>38</ele>
        <time>2019-08-08T19:39:32.805Z</time>
      </trkpt>
      <trkpt lat="47.32809" lon="0.4658">
        <ele>38</ele>
        <time>2019-08-08T19:40:02.742Z</time>
      </trkpt>
      <trkpt lat="47.32847" lon="0.46616">
        <ele>39</ele>
        <time>2019-08-08T19:40:25.339Z</time>
      </trkpt>
      <trkpt lat="47.32894" lon="0.4668">
        <ele>40</ele>
        <time>2019-08-08T19:40:57.342Z</time>
      </trkpt>
      <trkpt lat="47.32896" lon="0.46706">
        <ele>40</ele>
        <time>2019-08-08T19:41:06.217Z</time>
      </trkpt>
      <trkpt lat="47.32868" lon="0.46812">
        <ele>40</ele>
        <time>2019-08-08T19:41:44.801Z</time>
      </trkpt>
      <trkpt lat="47.32833" lon="0.46913">
        <ele>40</ele>
        <time>2019-08-08T19:42:23.273Z</time>
      </trkpt>
      <trkpt lat="47.32838" lon="0.46924">
        <ele>40</ele>
        <time>2019-08-08T19:42:27.765Z</time>
      </trkpt>
      <trkpt lat="47.32908" lon="0.46968">
        <ele>40</ele>
        <time>2019-08-08T19:43:05.838Z</time>
      </trkpt>
      <trkpt lat="47.32966" lon="0.46999">
        <ele>39</ele>
        <time>2019-08-08T19:43:36.706Z</time>
      </trkpt>
      <trkpt lat="47.32977" lon="0.4701">
        <ele>39</ele>
        <time>2019-08-08T19:43:43.355Z</time>
      </trkpt>
      <trkpt lat="47.33078" lon="0.46964">
        <ele>38</ele>
        <time>2019-08-08T19:44:36.246Z</time>
      </trkpt>
      <trkpt lat="47.33143" lon="0.46919">
        <ele>40</ele>
        <time>2019-08-08T19:45:12.173Z</time>
      </trkpt>
    </trkseg>
  </trk>
  <trk>
    <name><![CDATA[La loire]]></name>
    <trkseg>
      <trkpt lat="47.33144" lon="0.46916">
        <ele>41</ele>
        <time>2000-01-01T11:00:00Z</time>
      </trkpt>
      <trkpt lat="47.33192" lon="0.46868">
        <ele>42</ele>
        <time>2000-01-01T11:00:29Z</time>
      </trkpt>
      <trkpt lat="47.33219" lon="0.4684">
        <ele>41</ele>
        <time>2000-01-01T11:00:46Z</time>
      </trkpt>
      <trkpt lat="47.33242" lon="0.46817">
        <ele>41</ele>
        <time>2000-01-01T11:00:59Z</time>
      </trkpt>
      <trkpt lat="47.33245" lon="0.46776">
        <ele>42</ele>
        <time>2000-01-01T11:01:14Z</time>
      </trkpt>
      <trkpt lat="47.33227" lon="0.46754">
        <ele>42</ele>
        <time>2000-01-01T11:01:25Z</time>
      </trkpt>
      <trkpt lat="47.33179" lon="0.46668">
        <ele>41</ele>
        <time>2000-01-01T11:02:03Z</time>
      </trkpt>
      <trkpt lat="47.33162" lon="0.46631">
        <ele>41</ele>
        <time>2000-01-01T11:02:18Z</time>
      </trkpt>
      <trkpt lat="47.3315" lon="0.46591">
        <ele>41</ele>
        <time>2000-01-01T11:02:33Z</time>
      </trkpt>
      <trkpt lat="47.33115" lon="0.46542">
        <ele>41</ele>
        <time>2000-01-01T11:02:57Z</time>
      </trkpt>
      <trkpt lat="47.33102" lon="0.46525">
        <ele>41</ele>
        <time>2000-01-01T11:03:06Z</time>
      </trkpt>
      <trkpt lat="47.33033" lon="0.46458">
        <ele>42</ele>
        <time>2000-01-01T11:03:48Z</time>
      </trkpt>
      <trkpt lat="47.32996" lon="0.46401">
        <ele>43</ele>
        <time>2000-01-01T11:04:14Z</time>
      </trkpt>
      <trkpt lat="47.3298" lon="0.46374">
        <ele>42</ele>
        <time>2000-01-01T11:04:26Z</time>
      </trkpt>
      <trkpt lat="47.32962" lon="0.46328">
        <ele>41</ele>
        <time>2000-01-01T11:04:45Z</time>
      </trkpt>
      <trkpt lat="47.32949" lon="0.46299">
        <ele>41</ele>
        <time>2000-01-01T11:04:56Z</time>
      </trkpt>
      <trkpt lat="47.32923" lon="0.46253">
        <ele>41</ele>
        <time>2000-01-01T11:05:17Z</time>
      </trkpt>
      <trkpt lat="47.32886" lon="0.46198">
        <ele>40</ele>
        <time>2000-01-01T11:05:43Z</time>
      </trkpt>
      <trkpt lat="47.32827" lon="0.46107">
        <ele>40</ele>
        <time>2000-01-01T11:06:26Z</time>
      </trkpt>
      <trkpt lat="47.32818" lon="0.46097">
        <ele>40</ele>
        <time>2000-01-01T11:06:31Z</time>
      </trkpt>
      <trkpt lat="47.32794" lon="0.4606">
        <ele>40</ele>
        <time>2000-01-01T11:06:49Z</time>
      </trkpt>
      <trkpt lat="47.32771" lon="0.4604">
        <ele>41</ele>
        <time>2000-01-01T11:07:02Z</time>
      </trkpt>
      <trkpt lat="47.32749" lon="0.46024">
        <ele>41</ele>
        <time>2000-01-01T11:07:15Z</time>
      </trkpt>
      <trkpt lat="47.32726" lon="0.46021">
        <ele>41</ele>
        <time>2000-01-01T11:07:26Z</time>
      </trkpt>
      <trkpt lat="47.327" lon="0.46013">
        <ele>41</ele>
        <time>2000-01-01T11:07:39Z</time>
      </trkpt>
      <trkpt lat="47.32663" lon="0.45962">
        <ele>41</ele>
        <time>2000-01-01T11:08:05Z</time>
      </trkpt>
      <trkpt lat="47.32603" lon="0.45861">
        <ele>41</ele>
        <time>2000-01-01T11:08:50Z</time>
      </trkpt>
      <trkpt lat="47.32553" lon="0.45781">
        <ele>41</ele>
        <time>2000-01-01T11:09:27Z</time>
      </trkpt>
      <trkpt lat="47.32507" lon="0.45685">
        <ele>41</ele>
        <time>2000-01-01T11:10:07Z</time>
      </trkpt>
      <trkpt lat="47.32479" lon="0.45586">
        <ele>42</ele>
        <time>2000-01-01T11:10:44Z</time>
      </trkpt>
      <trkpt lat="47.32456" lon="0.45491">
        <ele>41</ele>
        <time>2000-01-01T11:11:18Z</time>
      </trkpt>
      <trkpt lat="47.32428" lon="0.45374">
        <ele>40</ele>
        <time>2000-01-01T11:12:00Z</time>
      </trkpt>
      <trkpt lat="47.32433" lon="0.4536">
        <ele>40</ele>
        <time>2000-01-01T11:12:06Z</time>
      </trkpt>
      <trkpt lat="47.32429" lon="0.45332">
        <ele>39</ele>
        <time>2000-01-01T11:12:15Z</time>
      </trkpt>
      <trkpt lat="47.32429" lon="0.45312">
        <ele>39</ele>
        <time>2000-01-01T11:12:22Z</time>
      </trkpt>
      <trkpt lat="47.32427" lon="0.45296">
        <ele>39</ele>
        <time>2000-01-01T11:12:28Z</time>
      </trkpt>
      <trkpt lat="47.32347" lon="0.44997">
        <ele>39</ele>
        <time>2000-01-01T11:14:17Z</time>
      </trkpt>
      <trkpt lat="47.32294" lon="0.44799">
        <ele>39</ele>
        <time>2000-01-01T11:15:29Z</time>
      </trkpt>
      <trkpt lat="47.32259" lon="0.44667">
        <ele>37</ele>
        <time>2000-01-01T11:16:18Z</time>
      </trkpt>
      <trkpt lat="47.32243" lon="0.44616">
        <ele>37</ele>
        <time>2000-01-01T11:16:37Z</time>
      </trkpt>
      <trkpt lat="47.32237" lon="0.44584">
        <ele>36</ele>
        <time>2000-01-01T11:16:48Z</time>
      </trkpt>
      <trkpt lat="47.32232" lon="0.44533">
        <ele>39</ele>
        <time>2000-01-01T11:17:05Z</time>
      </trkpt>
      <trkpt lat="47.32231" lon="0.44471">
        <ele>40</ele>
        <time>2000-01-01T11:17:27Z</time>
      </trkpt>
      <trkpt lat="47.32221" lon="0.44404">
        <ele>40</ele>
        <time>2000-01-01T11:17:50Z</time>
      </trkpt>
      <trkpt lat="47.32212" lon="0.44361">
        <ele>40</ele>
        <time>2000-01-01T11:18:05Z</time>
      </trkpt>
      <trkpt lat="47.32202" lon="0.44299">
        <ele>39</ele>
        <time>2000-01-01T11:18:27Z</time>
      </trkpt>
      <trkpt lat="47.32195" lon="0.44266">
        <ele>39</ele>
        <time>2000-01-01T11:18:38Z</time>
      </trkpt>
      <trkpt lat="47.3216" lon="0.44152">
        <ele>38</ele>
        <time>2000-01-01T11:19:21Z</time>
      </trkpt>
      <trkpt lat="47.32129" lon="0.44059">
        <ele>39</ele>
        <time>2000-01-01T11:19:56Z</time>
      </trkpt>
      <trkpt lat="47.32096" lon="0.43957">
        <ele>39</ele>
        <time>2000-01-01T11:20:35Z</time>
      </trkpt>
      <trkpt lat="47.32091" lon="0.4395">
        <ele>39</ele>
        <time>2000-01-01T11:20:38Z</time>
      </trkpt>
      <trkpt lat="47.32089" lon="0.44005">
        <ele>41</ele>
        <time>2000-01-01T11:20:57Z</time>
      </trkpt>
      <trkpt lat="47.32161" lon="0.44256">
        <ele>41</ele>
        <time>2000-01-01T11:22:30Z</time>
      </trkpt>
      <trkpt lat="47.32122" lon="0.44289">
        <ele>40</ele>
        <time>2000-01-01T11:22:53Z</time>
      </trkpt>
      <trkpt lat="47.32092" lon="0.44362">
        <ele>40</ele>
        <time>2000-01-01T11:23:22Z</time>
      </trkpt>
      <trkpt lat="47.31985" lon="0.44428">
        <ele>37</ele>
        <time>2000-01-01T11:24:19Z</time>
      </trkpt>
      <trkpt lat="47.3207" lon="0.44812">
        <ele>38</ele>
        <time>2000-01-01T11:26:37Z</time>
      </trkpt>
      <trkpt lat="47.32184" lon="0.45241">
        <ele>40</ele>
        <time>2000-01-01T11:29:14Z</time>
      </trkpt>
      <trkpt lat="47.32265" lon="0.45507">
        <ele>45</ele>
        <time>2000-01-01T11:30:53Z</time>
      </trkpt>
      <trkpt lat="47.32358" lon="0.45782">
        <ele>44</ele>
        <time>2000-01-01T11:32:37Z</time>
      </trkpt>
      <trkpt lat="47.32684" lon="0.46241">
        <ele>38</ele>
        <time>2000-01-01T11:36:23Z</time>
      </trkpt>
      <trkpt lat="47.3278" lon="0.46374">
        <ele>39</ele>
        <time>2000-01-01T11:37:29Z</time>
      </trkpt>
      <trkpt lat="47.32724" lon="0.46444">
        <ele>39</ele>
        <time>2000-01-01T11:38:06Z</time>
      </trkpt>
      <trkpt lat="47.32743" lon="0.46495">
        <ele>39</ele>
        <time>2000-01-01T11:38:25Z</time>
      </trkpt>
      <trkpt lat="47.32759" lon="0.46537">
        <ele>38</ele>
        <time>2000-01-01T11:38:42Z</time>
      </trkpt>
      <trkpt lat="47.32799" lon="0.46565">
        <ele>38</ele>
        <time>2000-01-01T11:39:04Z</time>
      </trkpt>
      <trkpt lat="47.32812" lon="0.46573">
        <ele>38</ele>
        <time>2000-01-01T11:39:11Z</time>
      </trkpt>
      <trkpt lat="47.32851" lon="0.46611">
        <ele>39</ele>
        <time>2000-01-01T11:39:34Z</time>
      </trkpt>
      <trkpt lat="47.329" lon="0.46678">
        <ele>40</ele>
        <time>2000-01-01T11:40:08Z</time>
      </trkpt>
      <trkpt lat="47.32902" lon="0.46706">
        <ele>40</ele>
        <time>2000-01-01T11:40:18Z</time>
      </trkpt>
      <trkpt lat="47.32872" lon="0.46814">
        <ele>40</ele>
        <time>2000-01-01T11:40:57Z</time>
      </trkpt>
      <trkpt lat="47.32838" lon="0.46915">
        <ele>40</ele>
        <time>2000-01-01T11:41:35Z</time>
      </trkpt>
      <trkpt lat="47.32969" lon="0.46993">
        <ele>39</ele>
        <time>2000-01-01T11:42:47Z</time>
      </trkpt>
      <trkpt lat="47.32977" lon="0.47002">
        <ele>39</ele>
        <time>2000-01-01T11:42:51Z</time>
      </trkpt>
      <trkpt lat="47.33077" lon="0.46959">
        <ele>38</ele>
        <time>2000-01-01T11:43:43Z</time>
      </trkpt>
      <trkpt lat="47.33136" lon="0.46919">
        <ele>40</ele>
        <time>2000-01-01T11:44:16Z</time>
      </trkpt>
    </trkseg>
  </trk>
  <trk>
    <name><![CDATA[La chatonnière par la vallée Picard]]></name>
    <trkseg>
      <trkpt lat="47.33145" lon="0.46934">
        <ele>40</ele>
      </trkpt>
      <trkpt lat="47.33039" lon="0.4699">
        <ele>38</ele>
      </trkpt>
      <trkpt lat="47.32944" lon="0.4703">
        <ele>40</ele>
      </trkpt>
      <trkpt lat="47.32926" lon="0.4707">
        <ele>40</ele>
      </trkpt>
      <trkpt lat="47.32937" lon="0.47124">
        <ele>40</ele>
      </trkpt>
      <trkpt lat="47.32872" lon="0.47082">
        <ele>41</ele>
      </trkpt>
      <trkpt lat="47.32824" lon="0.47053">
        <ele>41</ele>
      </trkpt>
      <trkpt lat="47.32813" lon="0.47032">
        <ele>41</ele>
      </trkpt>
      <trkpt lat="47.32792" lon="0.47037">
        <ele>41</ele>
      </trkpt>
      <trkpt lat="47.32772" lon="0.47047">
        <ele>41</ele>
      </trkpt>
      <trkpt lat="47.32744" lon="0.47063">
        <ele>42</ele>
      </trkpt>
      <trkpt lat="47.32719" lon="0.47067">
        <ele>42</ele>
      </trkpt>
      <trkpt lat="47.32694" lon="0.4707">
        <ele>42</ele>
      </trkpt>
      <trkpt lat="47.32669" lon="0.47071">
        <ele>43</ele>
      </trkpt>
      <trkpt lat="47.32639" lon="0.47062">
        <ele>43</ele>
      </trkpt>
      <trkpt lat="47.32574" lon="0.46913">
        <ele>44</ele>
      </trkpt>
      <trkpt lat="47.32557" lon="0.46896">
        <ele>43</ele>
      </trkpt>
      <trkpt lat="47.32529" lon="0.46855">
        <ele>42</ele>
      </trkpt>
      <trkpt lat="47.32518" lon="0.46831">
        <ele>41</ele>
      </trkpt>
      <trkpt lat="47.32492" lon="0.46784">
        <ele>41</ele>
      </trkpt>
      <trkpt lat="47.32459" lon="0.46748">
        <ele>41</ele>
      </trkpt>
      <trkpt lat="47.32417" lon="0.46717">
        <ele>42</ele>
      </trkpt>
      <trkpt lat="47.32382" lon="0.46688">
        <ele>43</ele>
      </trkpt>
      <trkpt lat="47.32358" lon="0.46649">
        <ele>42</ele>
      </trkpt>
      <trkpt lat="47.3234" lon="0.46619">
        <ele>42</ele>
      </trkpt>
      <trkpt lat="47.32313" lon="0.46578">
        <ele>41</ele>
      </trkpt>
      <trkpt lat="47.32269" lon="0.46529">
        <ele>41</ele>
      </trkpt>
      <trkpt lat="47.32233" lon="0.46477">
        <ele>43</ele>
      </trkpt>
      <trkpt lat="47.3221" lon="0.46447">
        <ele>43</ele>
      </trkpt>
      <trkpt lat="47.32199" lon="0.46431">
        <ele>43</ele>
      </trkpt>
      <trkpt lat="47.32153" lon="0.46373">
        <ele>44</ele>
      </trkpt>
      <trkpt lat="47.32112" lon="0.46328">
        <ele>46</ele>
      </trkpt>
      <trkpt lat="47.32092" lon="0.46306">
        <ele>46</ele>
      </trkpt>
      <trkpt lat="47.32087" lon="0.46302">
        <ele>46</ele>
      </trkpt>
      <trkpt lat="47.32072" lon="0.46285">
        <ele>47</ele>
      </trkpt>
      <trkpt lat="47.32048" lon="0.46261">
        <ele>47</ele>
      </trkpt>
      <trkpt lat="47.32034" lon="0.46248">
        <ele>47</ele>
      </trkpt>
      <trkpt lat="47.32021" lon="0.4623">
        <ele>47</ele>
      </trkpt>
      <trkpt lat="47.32008" lon="0.46212">
        <ele>47</ele>
      </trkpt>
      <trkpt lat="47.31997" lon="0.46189">
        <ele>46</ele>
      </trkpt>
      <trkpt lat="47.3198" lon="0.46148">
        <ele>45</ele>
      </trkpt>
      <trkpt lat="47.31946" lon="0.46084">
        <ele>44</ele>
      </trkpt>
      <trkpt lat="47.31923" lon="0.46042">
        <ele>42</ele>
      </trkpt>
      <trkpt lat="47.31911" lon="0.46024">
        <ele>43</ele>
      </trkpt>
      <trkpt lat="47.31895" lon="0.46014">
        <ele>43</ele>
      </trkpt>
      <trkpt lat="47.31874" lon="0.46009">
        <ele>44</ele>
      </trkpt>
      <trkpt lat="47.31845" lon="0.45947">
        <ele>42</ele>
      </trkpt>
      <trkpt lat="47.31833" lon="0.45921">
        <ele>42</ele>
      </trkpt>
      <trkpt lat="47.31827" lon="0.4589">
        <ele>42</ele>
      </trkpt>
      <trkpt lat="47.31807" lon="0.4586">
        <ele>42</ele>
      </trkpt>
      <trkpt lat="47.31794" lon="0.4582">
        <ele>41</ele>
      </trkpt>
      <trkpt lat="47.31781" lon="0.4576">
        <ele>41</ele>
      </trkpt>
      <trkpt lat="47.31765" lon="0.45721">
        <ele>42</ele>
      </trkpt>
      <trkpt lat="47.31742" lon="0.45678">
        <ele>43</ele>
      </trkpt>
      <trkpt lat="47.3172" lon="0.45631">
        <ele>44</ele>
      </trkpt>
      <trkpt lat="47.31704" lon="0.45585">
        <ele>44</ele>
      </trkpt>
      <trkpt lat="47.31656" lon="0.45501">
        <ele>42</ele>
      </trkpt>
      <trkpt lat="47.31629" lon="0.4546">
        <ele>41</ele>
      </trkpt>
      <trkpt lat="47.31621" lon="0.45439">
        <ele>40</ele>
      </trkpt>
      <trkpt lat="47.31616" lon="0.45404">
        <ele>40</ele>
      </trkpt>
      <trkpt lat="47.31613" lon="0.45361">
        <ele>41</ele>
      </trkpt>
      <trkpt lat="47.31595" lon="0.45421">
        <ele>40</ele>
      </trkpt>
      <trkpt lat="47.31562" lon="0.45459">
        <ele>40</ele>
      </trkpt>
      <trkpt lat="47.31525" lon="0.4548">
        <ele>40</ele>
      </trkpt>
      <trkpt lat="47.31533" lon="0.45436">
        <ele>40</ele>
      </trkpt>
      <trkpt lat="47.31532" lon="0.45372">
        <ele>40</ele>
      </trkpt>
      <trkpt lat="47.31526" lon="0.4531">
        <ele>41</ele>
      </trkpt>
      <trkpt lat="47.31531" lon="0.45254">
        <ele>41</ele>
      </trkpt>
      <trkpt lat="47.31547" lon="0.4521">
        <ele>41</ele>
      </trkpt>
      <trkpt lat="47.31557" lon="0.45186">
        <ele>41</ele>
      </trkpt>
      <trkpt lat="47.31574" lon="0.45129">
        <ele>40</ele>
      </trkpt>
      <trkpt lat="47.31597" lon="0.45062">
        <ele>42</ele>
      </trkpt>
      <trkpt lat="47.31609" lon="0.45002">
        <ele>42</ele>
      </trkpt>
      <trkpt lat="47.3161" lon="0.44932">
        <ele>42</ele>
      </trkpt>
      <trkpt lat="47.31624" lon="0.44846">
        <ele>42</ele>
      </trkpt>
      <trkpt lat="47.3163" lon="0.44798">
        <ele>42</ele>
      </trkpt>
      <trkpt lat="47.31639" lon="0.44739">
        <ele>42</ele>
      </trkpt>
      <trkpt lat="47.31616" lon="0.44675">
        <ele>41</ele>
      </trkpt>
      <trkpt lat="47.31589" lon="0.44622">
        <ele>41</ele>
      </trkpt>
      <trkpt lat="47.31562" lon="0.44575">
        <ele>40</ele>
      </trkpt>
      <trkpt lat="47.31421" lon="0.44416">
        <ele>41</ele>
      </trkpt>
      <trkpt lat="47.314" lon="0.44381">
        <ele>40</ele>
      </trkpt>
      <trkpt lat="47.31377" lon="0.44338">
        <ele>39</ele>
      </trkpt>
      <trkpt lat="47.31357" lon="0.44236">
        <ele>39</ele>
      </trkpt>
      <trkpt lat="47.3134" lon="0.44127">
        <ele>41</ele>
      </trkpt>
      <trkpt lat="47.31327" lon="0.44058">
        <ele>40</ele>
      </trkpt>
      <trkpt lat="47.31313" lon="0.44019">
        <ele>39</ele>
      </trkpt>
      <trkpt lat="47.31246" lon="0.43945">
        <ele>39</ele>
      </trkpt>
      <trkpt lat="47.31197" lon="0.43899">
        <ele>39</ele>
      </trkpt>
      <trkpt lat="47.31177" lon="0.43882">
        <ele>39</ele>
      </trkpt>
      <trkpt lat="47.3116" lon="0.43867">
        <ele>38</ele>
      </trkpt>
      <trkpt lat="47.31144" lon="0.4385">
        <ele>38</ele>
      </trkpt>
      <trkpt lat="47.31126" lon="0.43834">
        <ele>38</ele>
      </trkpt>
      <trkpt lat="47.31112" lon="0.43816">
        <ele>38</ele>
      </trkpt>
      <trkpt lat="47.31094" lon="0.43803">
        <ele>38</ele>
      </trkpt>
      <trkpt lat="47.31067" lon="0.43784">
        <ele>39</ele>
      </trkpt>
      <trkpt lat="47.31048" lon="0.43777">
        <ele>39</ele>
      </trkpt>
      <trkpt lat="47.31029" lon="0.43784">
        <ele>39</ele>
      </trkpt>
      <trkpt lat="47.3101" lon="0.43795">
        <ele>39</ele>
      </trkpt>
      <trkpt lat="47.30992" lon="0.4381">
        <ele>38</ele>
      </trkpt>
      <trkpt lat="47.30965" lon="0.43823">
        <ele>38</ele>
      </trkpt>
      <trkpt lat="47.30947" lon="0.43832">
        <ele>38</ele>
      </trkpt>
      <trkpt lat="47.30929" lon="0.43841">
        <ele>37</ele>
      </trkpt>
      <trkpt lat="47.3091" lon="0.43851">
        <ele>37</ele>
      </trkpt>
      <trkpt lat="47.30892" lon="0.43867">
        <ele>38</ele>
      </trkpt>
      <trkpt lat="47.30874" lon="0.43878">
        <ele>38</ele>
      </trkpt>
      <trkpt lat="47.30861" lon="0.43899">
        <ele>38</ele>
      </trkpt>
      <trkpt lat="47.30849" lon="0.43923">
        <ele>39</ele>
      </trkpt>
      <trkpt lat="47.30833" lon="0.43939">
        <ele>41</ele>
      </trkpt>
      <trkpt lat="47.30817" lon="0.43953">
        <ele>42</ele>
      </trkpt>
      <trkpt lat="47.30802" lon="0.43974">
        <ele>42</ele>
      </trkpt>
      <trkpt lat="47.30786" lon="0.43992">
        <ele>43</ele>
      </trkpt>
      <trkpt lat="47.30767" lon="0.44023">
        <ele>46</ele>
      </trkpt>
      <trkpt lat="47.30752" lon="0.44038">
        <ele>46</ele>
      </trkpt>
      <trkpt lat="47.30737" lon="0.44058">
        <ele>48</ele>
      </trkpt>
      <trkpt lat="47.3072" lon="0.44075">
        <ele>48</ele>
      </trkpt>
      <trkpt lat="47.30702" lon="0.44098">
        <ele>51</ele>
      </trkpt>
      <trkpt lat="47.30686" lon="0.44116">
        <ele>52</ele>
      </trkpt>
      <trkpt lat="47.30675" lon="0.44142">
        <ele>53</ele>
      </trkpt>
      <trkpt lat="47.30699" lon="0.44163">
        <ele>53</ele>
      </trkpt>
      <trkpt lat="47.30727" lon="0.44192">
        <ele>56</ele>
      </trkpt>
      <trkpt lat="47.30759" lon="0.44235">
        <ele>55</ele>
      </trkpt>
      <trkpt lat="47.30787" lon="0.4428">
        <ele>56</ele>
      </trkpt>
      <trkpt lat="47.30809" lon="0.44339">
        <ele>56</ele>
      </trkpt>
      <trkpt lat="47.30829" lon="0.44397">
        <ele>55</ele>
      </trkpt>
      <trkpt lat="47.30848" lon="0.44452">
        <ele>52</ele>
      </trkpt>
      <trkpt lat="47.30868" lon="0.44509">
        <ele>52</ele>
      </trkpt>
      <trkpt lat="47.30886" lon="0.44571">
        <ele>52</ele>
      </trkpt>
      <trkpt lat="47.30888" lon="0.4461">
        <ele>53</ele>
      </trkpt>
      <trkpt lat="47.3087" lon="0.44626">
        <ele>54</ele>
      </trkpt>
      <trkpt lat="47.30857" lon="0.44647">
        <ele>55</ele>
      </trkpt>
      <trkpt lat="47.30838" lon="0.44657">
        <ele>56</ele>
      </trkpt>
      <trkpt lat="47.30804" lon="0.44693">
        <ele>62</ele>
      </trkpt>
      <trkpt lat="47.30787" lon="0.44711">
        <ele>63</ele>
      </trkpt>
      <trkpt lat="47.30772" lon="0.44726">
        <ele>64</ele>
      </trkpt>
      <trkpt lat="47.30753" lon="0.4472">
        <ele>64</ele>
      </trkpt>
      <trkpt lat="47.30733" lon="0.44728">
        <ele>65</ele>
      </trkpt>
      <trkpt lat="47.30715" lon="0.44738">
        <ele>66</ele>
      </trkpt>
      <trkpt lat="47.30697" lon="0.44745">
        <ele>66</ele>
      </trkpt>
      <trkpt lat="47.30677" lon="0.44753">
        <ele>68</ele>
      </trkpt>
      <trkpt lat="47.3066" lon="0.44762">
        <ele>69</ele>
      </trkpt>
      <trkpt lat="47.30641" lon="0.44772">
        <ele>71</ele>
      </trkpt>
      <trkpt lat="47.3062" lon="0.44776">
        <ele>72</ele>
      </trkpt>
      <trkpt lat="47.30601" lon="0.44785">
        <ele>73</ele>
      </trkpt>
      <trkpt lat="47.3058" lon="0.44787">
        <ele>73</ele>
      </trkpt>
      <trkpt lat="47.30554" lon="0.44811">
        <ele>74</ele>
      </trkpt>
      <trkpt lat="47.30536" lon="0.44824">
        <ele>74</ele>
      </trkpt>
      <trkpt lat="47.30517" lon="0.44827">
        <ele>73</ele>
      </trkpt>
      <trkpt lat="47.30498" lon="0.44827">
        <ele>73</ele>
      </trkpt>
      <trkpt lat="47.30484" lon="0.44847">
        <ele>75</ele>
      </trkpt>
      <trkpt lat="47.3047" lon="0.44868">
        <ele>76</ele>
      </trkpt>
      <trkpt lat="47.30458" lon="0.44893">
        <ele>76</ele>
      </trkpt>
      <trkpt lat="47.30439" lon="0.44897">
        <ele>75</ele>
      </trkpt>
      <trkpt lat="47.3042" lon="0.44908">
        <ele>75</ele>
      </trkpt>
      <trkpt lat="47.30401" lon="0.44922">
        <ele>75</ele>
      </trkpt>
      <trkpt lat="47.30381" lon="0.44923">
        <ele>76</ele>
      </trkpt>
      <trkpt lat="47.30364" lon="0.44932">
        <ele>76</ele>
      </trkpt>
      <trkpt lat="47.30338" lon="0.44951">
        <ele>77</ele>
      </trkpt>
      <trkpt lat="47.30322" lon="0.44966">
        <ele>78</ele>
      </trkpt>
      <trkpt lat="47.30305" lon="0.44982">
        <ele>78</ele>
      </trkpt>
      <trkpt lat="47.30285" lon="0.4499">
        <ele>79</ele>
      </trkpt>
      <trkpt lat="47.30266" lon="0.45">
        <ele>80</ele>
      </trkpt>
      <trkpt lat="47.30247" lon="0.45005">
        <ele>80</ele>
      </trkpt>
      <trkpt lat="47.30226" lon="0.45013">
        <ele>81</ele>
      </trkpt>
      <trkpt lat="47.30207" lon="0.45023">
        <ele>81</ele>
      </trkpt>
      <trkpt lat="47.30189" lon="0.45035">
        <ele>82</ele>
      </trkpt>
      <trkpt lat="47.3017" lon="0.45047">
        <ele>82</ele>
      </trkpt>
      <trkpt lat="47.30151" lon="0.45053">
        <ele>82</ele>
      </trkpt>
      <trkpt lat="47.30131" lon="0.45064">
        <ele>83</ele>
      </trkpt>
      <trkpt lat="47.3012" lon="0.45086">
        <ele>84</ele>
      </trkpt>
      <trkpt lat="47.30105" lon="0.45106">
        <ele>84</ele>
      </trkpt>
      <trkpt lat="47.30093" lon="0.45131">
        <ele>84</ele>
      </trkpt>
      <trkpt lat="47.30082" lon="0.45156">
        <ele>86</ele>
      </trkpt>
      <trkpt lat="47.30071" lon="0.45179">
        <ele>87</ele>
      </trkpt>
      <trkpt lat="47.30059" lon="0.45202">
        <ele>88</ele>
      </trkpt>
      <trkpt lat="47.3006" lon="0.45231">
        <ele>88</ele>
      </trkpt>
      <trkpt lat="47.30079" lon="0.45238">
        <ele>88</ele>
      </trkpt>
      <trkpt lat="47.30098" lon="0.45232">
        <ele>88</ele>
      </trkpt>
      <trkpt lat="47.30117" lon="0.45228">
        <ele>88</ele>
      </trkpt>
      <trkpt lat="47.30135" lon="0.45222">
        <ele>88</ele>
      </trkpt>
      <trkpt lat="47.30153" lon="0.4521">
        <ele>87</ele>
      </trkpt>
      <trkpt lat="47.30171" lon="0.45199">
        <ele>87</ele>
      </trkpt>
      <trkpt lat="47.3019" lon="0.4519">
        <ele>87</ele>
      </trkpt>
      <trkpt lat="47.30209" lon="0.45185">
        <ele>87</ele>
      </trkpt>
      <trkpt lat="47.30228" lon="0.45184">
        <ele>88</ele>
      </trkpt>
      <trkpt lat="47.30247" lon="0.45179">
        <ele>87</ele>
      </trkpt>
      <trkpt lat="47.30267" lon="0.4518">
        <ele>87</ele>
      </trkpt>
      <trkpt lat="47.30286" lon="0.45182">
        <ele>87</ele>
      </trkpt>
      <trkpt lat="47.30305" lon="0.45177">
        <ele>87</ele>
      </trkpt>
      <trkpt lat="47.30324" lon="0.4517">
        <ele>87</ele>
      </trkpt>
      <trkpt lat="47.30344" lon="0.45162">
        <ele>86</ele>
      </trkpt>
      <trkpt lat="47.30361" lon="0.4515">
        <ele>86</ele>
      </trkpt>
      <trkpt lat="47.30377" lon="0.45133">
        <ele>85</ele>
      </trkpt>
      <trkpt lat="47.30393" lon="0.45121">
        <ele>85</ele>
      </trkpt>
      <trkpt lat="47.30411" lon="0.45114">
        <ele>85</ele>
      </trkpt>
      <trkpt lat="47.30429" lon="0.45102">
        <ele>85</ele>
      </trkpt>
      <trkpt lat="47.30446" lon="0.45089">
        <ele>85</ele>
      </trkpt>
      <trkpt lat="47.30463" lon="0.45075">
        <ele>85</ele>
      </trkpt>
      <trkpt lat="47.30482" lon="0.45062">
        <ele>85</ele>
      </trkpt>
      <trkpt lat="47.30498" lon="0.4505">
        <ele>85</ele>
      </trkpt>
      <trkpt lat="47.30516" lon="0.45035">
        <ele>85</ele>
      </trkpt>
      <trkpt lat="47.30535" lon="0.45023">
        <ele>85</ele>
      </trkpt>
      <trkpt lat="47.30554" lon="0.45015">
        <ele>84</ele>
      </trkpt>
      <trkpt lat="47.3056" lon="0.45041">
        <ele>84</ele>
      </trkpt>
      <trkpt lat="47.30576" lon="0.45093">
        <ele>83</ele>
      </trkpt>
      <trkpt lat="47.30594" lon="0.45149">
        <ele>83</ele>
      </trkpt>
      <trkpt lat="47.30606" lon="0.45192">
        <ele>82</ele>
      </trkpt>
      <trkpt lat="47.30618" lon="0.45233">
        <ele>82</ele>
      </trkpt>
      <trkpt lat="47.30638" lon="0.45287">
        <ele>81</ele>
      </trkpt>
      <trkpt lat="47.30652" lon="0.45329">
        <ele>81</ele>
      </trkpt>
      <trkpt lat="47.30678" lon="0.45382">
        <ele>79</ele>
      </trkpt>
      <trkpt lat="47.30711" lon="0.45422">
        <ele>78</ele>
      </trkpt>
      <trkpt lat="47.30736" lon="0.45473">
        <ele>77</ele>
      </trkpt>
      <trkpt lat="47.30728" lon="0.4554">
        <ele>76</ele>
      </trkpt>
      <trkpt lat="47.30723" lon="0.45608">
        <ele>76</ele>
      </trkpt>
      <trkpt lat="47.30716" lon="0.45676">
        <ele>78</ele>
      </trkpt>
      <trkpt lat="47.30698" lon="0.45734">
        <ele>79</ele>
      </trkpt>
      <trkpt lat="47.30656" lon="0.45767">
        <ele>81</ele>
      </trkpt>
      <trkpt lat="47.30621" lon="0.45791">
        <ele>82</ele>
      </trkpt>
      <trkpt lat="47.3058" lon="0.45818">
        <ele>84</ele>
      </trkpt>
      <trkpt lat="47.3054" lon="0.45848">
        <ele>85</ele>
      </trkpt>
      <trkpt lat="47.30502" lon="0.45873">
        <ele>85</ele>
      </trkpt>
      <trkpt lat="47.30463" lon="0.45907">
        <ele>85</ele>
      </trkpt>
      <trkpt lat="47.30425" lon="0.45947">
        <ele>83</ele>
      </trkpt>
      <trkpt lat="47.3037" lon="0.46003">
        <ele>82</ele>
      </trkpt>
      <trkpt lat="47.30322" lon="0.46042">
        <ele>83</ele>
      </trkpt>
      <trkpt lat="47.30265" lon="0.4608">
        <ele>84</ele>
      </trkpt>
      <trkpt lat="47.30226" lon="0.46104">
        <ele>85</ele>
      </trkpt>
      <trkpt lat="47.3021" lon="0.46115">
        <ele>85</ele>
      </trkpt>
      <trkpt lat="47.30193" lon="0.46131">
        <ele>86</ele>
      </trkpt>
      <trkpt lat="47.30195" lon="0.46159">
        <ele>86</ele>
      </trkpt>
      <trkpt lat="47.30197" lon="0.46187">
        <ele>86</ele>
      </trkpt>
      <trkpt lat="47.302" lon="0.46216">
        <ele>85</ele>
      </trkpt>
      <trkpt lat="47.30203" lon="0.46245">
        <ele>85</ele>
      </trkpt>
      <trkpt lat="47.30205" lon="0.46272">
        <ele>85</ele>
      </trkpt>
      <trkpt lat="47.30209" lon="0.463">
        <ele>85</ele>
      </trkpt>
      <trkpt lat="47.30208" lon="0.46329">
        <ele>86</ele>
      </trkpt>
      <trkpt lat="47.30198" lon="0.46352">
        <ele>87</ele>
      </trkpt>
      <trkpt lat="47.3018" lon="0.46345">
        <ele>87</ele>
      </trkpt>
      <trkpt lat="47.30151" lon="0.46336">
        <ele>88</ele>
      </trkpt>
      <trkpt lat="47.30117" lon="0.46325">
        <ele>88</ele>
      </trkpt>
      <trkpt lat="47.30099" lon="0.46312">
        <ele>88</ele>
      </trkpt>
      <trkpt lat="47.30081" lon="0.463">
        <ele>88</ele>
      </trkpt>
      <trkpt lat="47.30057" lon="0.46282">
        <ele>88</ele>
      </trkpt>
      <trkpt lat="47.30045" lon="0.46261">
        <ele>88</ele>
      </trkpt>
      <trkpt lat="47.30036" lon="0.46236">
        <ele>88</ele>
      </trkpt>
      <trkpt lat="47.30024" lon="0.46214">
        <ele>88</ele>
      </trkpt>
      <trkpt lat="47.29996" lon="0.46206">
        <ele>90</ele>
      </trkpt>
      <trkpt lat="47.2997" lon="0.46203">
        <ele>91</ele>
      </trkpt>
      <trkpt lat="47.29944" lon="0.46208">
        <ele>92</ele>
      </trkpt>
      <trkpt lat="47.29918" lon="0.46196">
        <ele>93</ele>
      </trkpt>
      <trkpt lat="47.29906" lon="0.46174">
        <ele>95</ele>
      </trkpt>
      <trkpt lat="47.2988" lon="0.46145">
        <ele>94</ele>
      </trkpt>
      <trkpt lat="47.29839" lon="0.4612">
        <ele>94</ele>
      </trkpt>
      <trkpt lat="47.29818" lon="0.4611">
        <ele>95</ele>
      </trkpt>
      <trkpt lat="47.29791" lon="0.46095">
        <ele>95</ele>
      </trkpt>
      <trkpt lat="47.29762" lon="0.46074">
        <ele>95</ele>
      </trkpt>
      <trkpt lat="47.2973" lon="0.46057">
        <ele>96</ele>
      </trkpt>
      <trkpt lat="47.29703" lon="0.46044">
        <ele>96</ele>
      </trkpt>
      <trkpt lat="47.29664" lon="0.45997">
        <ele>97</ele>
      </trkpt>
      <trkpt lat="47.29646" lon="0.45951">
        <ele>97</ele>
      </trkpt>
      <trkpt lat="47.2964" lon="0.45908">
        <ele>97</ele>
      </trkpt>
      <trkpt lat="47.29627" lon="0.45868">
        <ele>97</ele>
      </trkpt>
      <trkpt lat="47.29597" lon="0.45805">
        <ele>95</ele>
      </trkpt>
      <trkpt lat="47.2957" lon="0.45757">
        <ele>94</ele>
      </trkpt>
      <trkpt lat="47.29524" lon="0.45719">
        <ele>93</ele>
      </trkpt>
      <trkpt lat="47.29487" lon="0.45686">
        <ele>93</ele>
      </trkpt>
      <trkpt lat="47.29469" lon="0.45659">
        <ele>94</ele>
      </trkpt>
      <trkpt lat="47.2945" lon="0.45654">
        <ele>94</ele>
      </trkpt>
      <trkpt lat="47.29438" lon="0.45678">
        <ele>95</ele>
      </trkpt>
      <trkpt lat="47.29428" lon="0.45703">
        <ele>95</ele>
      </trkpt>
      <trkpt lat="47.29416" lon="0.45727">
        <ele>96</ele>
      </trkpt>
      <trkpt lat="47.29405" lon="0.45752">
        <ele>97</ele>
      </trkpt>
      <trkpt lat="47.29396" lon="0.45776">
        <ele>97</ele>
      </trkpt>
      <trkpt lat="47.29377" lon="0.45791">
        <ele>97</ele>
      </trkpt>
      <trkpt lat="47.29362" lon="0.45811">
        <ele>97</ele>
      </trkpt>
      <trkpt lat="47.29348" lon="0.45831">
        <ele>97</ele>
      </trkpt>
      <trkpt lat="47.29333" lon="0.45849">
        <ele>95</ele>
      </trkpt>
      <trkpt lat="47.29319" lon="0.45868">
        <ele>94</ele>
      </trkpt>
      <trkpt lat="47.29303" lon="0.45882">
        <ele>93</ele>
      </trkpt>
      <trkpt lat="47.29288" lon="0.45897">
        <ele>92</ele>
      </trkpt>
      <trkpt lat="47.29259" lon="0.4589">
        <ele>92</ele>
      </trkpt>
      <trkpt lat="47.29227" lon="0.45817">
        <ele>91</ele>
      </trkpt>
      <trkpt lat="47.29198" lon="0.45754">
        <ele>91</ele>
      </trkpt>
      <trkpt lat="47.29194" lon="0.45709">
        <ele>92</ele>
      </trkpt>
      <trkpt lat="47.29188" lon="0.45659">
        <ele>92</ele>
      </trkpt>
      <trkpt lat="47.29169" lon="0.45602">
        <ele>94</ele>
      </trkpt>
      <trkpt lat="47.29168" lon="0.45574">
        <ele>94</ele>
      </trkpt>
      <trkpt lat="47.29157" lon="0.45543">
        <ele>92</ele>
      </trkpt>
      <trkpt lat="47.29139" lon="0.45538">
        <ele>91</ele>
      </trkpt>
      <trkpt lat="47.2912" lon="0.45534">
        <ele>91</ele>
      </trkpt>
      <trkpt lat="47.29105" lon="0.45497">
        <ele>90</ele>
      </trkpt>
      <trkpt lat="47.29092" lon="0.45445">
        <ele>90</ele>
      </trkpt>
      <trkpt lat="47.29087" lon="0.45416">
        <ele>90</ele>
      </trkpt>
      <trkpt lat="47.29079" lon="0.45391">
        <ele>91</ele>
      </trkpt>
      <trkpt lat="47.2907" lon="0.45367">
        <ele>91</ele>
      </trkpt>
      <trkpt lat="47.29051" lon="0.45366">
        <ele>91</ele>
      </trkpt>
      <trkpt lat="47.29031" lon="0.45373">
        <ele>92</ele>
      </trkpt>
      <trkpt lat="47.28987" lon="0.45391">
        <ele>93</ele>
      </trkpt>
      <trkpt lat="47.28944" lon="0.45406">
        <ele>93</ele>
      </trkpt>
      <trkpt lat="47.28899" lon="0.45426">
        <ele>92</ele>
      </trkpt>
      <trkpt lat="47.28894" lon="0.45493">
        <ele>91</ele>
      </trkpt>
      <trkpt lat="47.28896" lon="0.45562">
        <ele>90</ele>
      </trkpt>
      <trkpt lat="47.28866" lon="0.45598">
        <ele>90</ele>
      </trkpt>
      <trkpt lat="47.28829" lon="0.45625">
        <ele>90</ele>
      </trkpt>
      <trkpt lat="47.28785" lon="0.45638">
        <ele>90</ele>
      </trkpt>
      <trkpt lat="47.28773" lon="0.45595">
        <ele>90</ele>
      </trkpt>
      <trkpt lat="47.28751" lon="0.45539">
        <ele>90</ele>
      </trkpt>
      <trkpt lat="47.28732" lon="0.45498">
        <ele>90</ele>
      </trkpt>
      <trkpt lat="47.28727" lon="0.45453">
        <ele>90</ele>
      </trkpt>
      <trkpt lat="47.28713" lon="0.45417">
        <ele>90</ele>
      </trkpt>
      <trkpt lat="47.28709" lon="0.45364">
        <ele>90</ele>
      </trkpt>
      <trkpt lat="47.28691" lon="0.45331">
        <ele>90</ele>
      </trkpt>
      <trkpt lat="47.28691" lon="0.45265">
        <ele>90</ele>
      </trkpt>
      <trkpt lat="47.28695" lon="0.45197">
        <ele>91</ele>
      </trkpt>
      <trkpt lat="47.28694" lon="0.45145">
        <ele>91</ele>
      </trkpt>
      <trkpt lat="47.28695" lon="0.45116">
        <ele>91</ele>
      </trkpt>
      <trkpt lat="47.28686" lon="0.45085">
        <ele>91</ele>
      </trkpt>
      <trkpt lat="47.28675" lon="0.4505">
        <ele>91</ele>
      </trkpt>
      <trkpt lat="47.28668" lon="0.45021">
        <ele>91</ele>
      </trkpt>
      <trkpt lat="47.28659" lon="0.44995">
        <ele>91</ele>
      </trkpt>
      <trkpt lat="47.2865" lon="0.44967">
        <ele>92</ele>
      </trkpt>
      <trkpt lat="47.28642" lon="0.44942">
        <ele>92</ele>
      </trkpt>
      <trkpt lat="47.28636" lon="0.44913">
        <ele>93</ele>
      </trkpt>
      <trkpt lat="47.28635" lon="0.44885">
        <ele>93</ele>
      </trkpt>
      <trkpt lat="47.28631" lon="0.44855">
        <ele>93</ele>
      </trkpt>
      <trkpt lat="47.28628" lon="0.44826">
        <ele>92</ele>
      </trkpt>
      <trkpt lat="47.28629" lon="0.44798">
        <ele>91</ele>
      </trkpt>
      <trkpt lat="47.28628" lon="0.44753">
        <ele>91</ele>
      </trkpt>
      <trkpt lat="47.28618" lon="0.44729">
        <ele>89</ele>
      </trkpt>
      <trkpt lat="47.28622" lon="0.44755">
        <ele>91</ele>
      </trkpt>
      <trkpt lat="47.28618" lon="0.44729">
        <ele>89</ele>
      </trkpt>
      <trkpt lat="47.28614" lon="0.44691">
        <ele>88</ele>
      </trkpt>
      <trkpt lat="47.28612" lon="0.44662">
        <ele>87</ele>
      </trkpt>
      <trkpt lat="47.28608" lon="0.44618">
        <ele>86</ele>
      </trkpt>
      <trkpt lat="47.28604" lon="0.4459">
        <ele>85</ele>
      </trkpt>
      <trkpt lat="47.28598" lon="0.44565">
        <ele>84</ele>
      </trkpt>
      <trkpt lat="47.28592" lon="0.44536">
        <ele>84</ele>
      </trkpt>
      <trkpt lat="47.28585" lon="0.44508">
        <ele>83</ele>
      </trkpt>
      <trkpt lat="47.28579" lon="0.44482">
        <ele>83</ele>
      </trkpt>
      <trkpt lat="47.28576" lon="0.4445">
        <ele>83</ele>
      </trkpt>
      <trkpt lat="47.28577" lon="0.44422">
        <ele>83</ele>
      </trkpt>
      <trkpt lat="47.28574" lon="0.44392">
        <ele>83</ele>
      </trkpt>
      <trkpt lat="47.28556" lon="0.44353">
        <ele>83</ele>
      </trkpt>
      <trkpt lat="47.2854" lon="0.44338">
        <ele>83</ele>
      </trkpt>
      <trkpt lat="47.28525" lon="0.44318">
        <ele>83</ele>
      </trkpt>
      <trkpt lat="47.28515" lon="0.44276">
        <ele>82</ele>
      </trkpt>
      <trkpt lat="47.28504" lon="0.44252">
        <ele>82</ele>
      </trkpt>
      <trkpt lat="47.2848" lon="0.44221">
        <ele>83</ele>
      </trkpt>
      <trkpt lat="47.28472" lon="0.44188">
        <ele>83</ele>
      </trkpt>
      <trkpt lat="47.28468" lon="0.4416">
        <ele>82</ele>
      </trkpt>
      <trkpt lat="47.28465" lon="0.44133">
        <ele>82</ele>
      </trkpt>
      <trkpt lat="47.28441" lon="0.44111">
        <ele>82</ele>
      </trkpt>
      <trkpt lat="47.28421" lon="0.4411">
        <ele>83</ele>
      </trkpt>
      <trkpt lat="47.28402" lon="0.44107">
        <ele>84</ele>
      </trkpt>
      <trkpt lat="47.28388" lon="0.44087">
        <ele>84</ele>
      </trkpt>
      <trkpt lat="47.28381" lon="0.44063">
        <ele>83</ele>
      </trkpt>
      <trkpt lat="47.28372" lon="0.44038">
        <ele>83</ele>
      </trkpt>
      <trkpt lat="47.28355" lon="0.44015">
        <ele>83</ele>
      </trkpt>
      <trkpt lat="47.28335" lon="0.43985">
        <ele>83</ele>
      </trkpt>
      <trkpt lat="47.28322" lon="0.43965">
        <ele>84</ele>
      </trkpt>
      <trkpt lat="47.28309" lon="0.43943">
        <ele>84</ele>
      </trkpt>
      <trkpt lat="47.28296" lon="0.43921">
        <ele>85</ele>
      </trkpt>
      <trkpt lat="47.28286" lon="0.43895">
        <ele>85</ele>
      </trkpt>
      <trkpt lat="47.2828" lon="0.43867">
        <ele>85</ele>
      </trkpt>
      <trkpt lat="47.28284" lon="0.43841">
        <ele>85</ele>
      </trkpt>
      <trkpt lat="47.28271" lon="0.43819">
        <ele>85</ele>
      </trkpt>
      <trkpt lat="47.28256" lon="0.43782">
        <ele>85</ele>
      </trkpt>
      <trkpt lat="47.28237" lon="0.43723">
        <ele>87</ele>
      </trkpt>
      <trkpt lat="47.2823" lon="0.4366">
        <ele>84</ele>
      </trkpt>
      <trkpt lat="47.28226" lon="0.43596">
        <ele>81</ele>
      </trkpt>
      <trkpt lat="47.28218" lon="0.43539">
        <ele>79</ele>
      </trkpt>
      <trkpt lat="47.28202" lon="0.43504">
        <ele>79</ele>
      </trkpt>
      <trkpt lat="47.28194" lon="0.43477">
        <ele>78</ele>
      </trkpt>
      <trkpt lat="47.28183" lon="0.43454">
        <ele>77</ele>
      </trkpt>
      <trkpt lat="47.28182" lon="0.43423">
        <ele>76</ele>
      </trkpt>
      <trkpt lat="47.28195" lon="0.43397">
        <ele>77</ele>
      </trkpt>
      <trkpt lat="47.28211" lon="0.4336">
        <ele>78</ele>
      </trkpt>
      <trkpt lat="47.28222" lon="0.43338">
        <ele>79</ele>
      </trkpt>
      <trkpt lat="47.28232" lon="0.43314">
        <ele>81</ele>
      </trkpt>
      <trkpt lat="47.28246" lon="0.43293">
        <ele>81</ele>
      </trkpt>
      <trkpt lat="47.28257" lon="0.43271">
        <ele>84</ele>
      </trkpt>
      <trkpt lat="47.28269" lon="0.4325">
        <ele>85</ele>
      </trkpt>
      <trkpt lat="47.28299" lon="0.43129">
        <ele>85</ele>
      </trkpt>
      <trkpt lat="47.2829" lon="0.43108">
        <ele>84</ele>
      </trkpt>
      <trkpt lat="47.28304" lon="0.43063">
        <ele>84</ele>
      </trkpt>
      <trkpt lat="47.28342" lon="0.42957">
        <ele>85</ele>
      </trkpt>
      <trkpt lat="47.28358" lon="0.42934">
        <ele>85</ele>
      </trkpt>
      <trkpt lat="47.28379" lon="0.42942">
        <ele>85</ele>
      </trkpt>
      <trkpt lat="47.28435" lon="0.4296">
        <ele>86</ele>
      </trkpt>
      <trkpt lat="47.2842" lon="0.42915">
        <ele>86</ele>
      </trkpt>
      <trkpt lat="47.28397" lon="0.42881">
        <ele>86</ele>
      </trkpt>
      <trkpt lat="47.28357" lon="0.42835">
        <ele>86</ele>
      </trkpt>
      <trkpt lat="47.28315" lon="0.4278">
        <ele>86</ele>
      </trkpt>
      <trkpt lat="47.28271" lon="0.42724">
        <ele>86</ele>
      </trkpt>
      <trkpt lat="47.28229" lon="0.42685">
        <ele>86</ele>
      </trkpt>
      <trkpt lat="47.28188" lon="0.42664">
        <ele>86</ele>
      </trkpt>
      <trkpt lat="47.28141" lon="0.4267">
        <ele>83</ele>
      </trkpt>
      <trkpt lat="47.28088" lon="0.42674">
        <ele>81</ele>
      </trkpt>
      <trkpt lat="47.28039" lon="0.42671">
        <ele>80</ele>
      </trkpt>
      <trkpt lat="47.27973" lon="0.4263">
        <ele>80</ele>
      </trkpt>
      <trkpt lat="47.27912" lon="0.42573">
        <ele>77</ele>
      </trkpt>
      <trkpt lat="47.27851" lon="0.42563">
        <ele>76</ele>
      </trkpt>
      <trkpt lat="47.27783" lon="0.42528">
        <ele>73</ele>
      </trkpt>
      <trkpt lat="47.27729" lon="0.42486">
        <ele>68</ele>
      </trkpt>
      <trkpt lat="47.27718" lon="0.42454">
        <ele>67</ele>
      </trkpt>
      <trkpt lat="47.2773" lon="0.42432">
        <ele>67</ele>
      </trkpt>
      <trkpt lat="47.27741" lon="0.42409">
        <ele>67</ele>
      </trkpt>
      <trkpt lat="47.2775" lon="0.42382">
        <ele>67</ele>
      </trkpt>
      <trkpt lat="47.27757" lon="0.42355">
        <ele>71</ele>
      </trkpt>
      <trkpt lat="47.27765" lon="0.4233">
        <ele>72</ele>
      </trkpt>
      <trkpt lat="47.27771" lon="0.42302">
        <ele>74</ele>
      </trkpt>
      <trkpt lat="47.27774" lon="0.42275">
        <ele>74</ele>
      </trkpt>
      <trkpt lat="47.27778" lon="0.42248">
        <ele>72</ele>
      </trkpt>
      <trkpt lat="47.27782" lon="0.4222">
        <ele>72</ele>
      </trkpt>
      <trkpt lat="47.27792" lon="0.42198">
        <ele>72</ele>
      </trkpt>
      <trkpt lat="47.27805" lon="0.42177">
        <ele>72</ele>
      </trkpt>
      <trkpt lat="47.2781" lon="0.42151">
        <ele>70</ele>
      </trkpt>
      <trkpt lat="47.27815" lon="0.42124">
        <ele>70</ele>
      </trkpt>
      <trkpt lat="47.27816" lon="0.42095">
        <ele>70</ele>
      </trkpt>
      <trkpt lat="47.2782" lon="0.42068">
        <ele>71</ele>
      </trkpt>
      <trkpt lat="47.27836" lon="0.42054">
        <ele>74</ele>
      </trkpt>
      <trkpt lat="47.27855" lon="0.42055">
        <ele>74</ele>
      </trkpt>
      <trkpt lat="47.27874" lon="0.42057">
        <ele>75</ele>
      </trkpt>
      <trkpt lat="47.27905" lon="0.42054">
        <ele>76</ele>
      </trkpt>
      <trkpt lat="47.27922" lon="0.42063">
        <ele>76</ele>
      </trkpt>
      <trkpt lat="47.2794" lon="0.42074">
        <ele>76</ele>
      </trkpt>
      <trkpt lat="47.27957" lon="0.42048">
        <ele>76</ele>
      </trkpt>
      <trkpt lat="47.27972" lon="0.42031">
        <ele>76</ele>
      </trkpt>
      <trkpt lat="47.27978" lon="0.42004">
        <ele>76</ele>
      </trkpt>
      <trkpt lat="47.2798" lon="0.41972">
        <ele>78</ele>
      </trkpt>
      <trkpt lat="47.27982" lon="0.41931">
        <ele>79</ele>
      </trkpt>
      <trkpt lat="47.27984" lon="0.41901">
        <ele>80</ele>
      </trkpt>
      <trkpt lat="47.27979" lon="0.41871">
        <ele>81</ele>
      </trkpt>
      <trkpt lat="47.27982" lon="0.41834">
        <ele>82</ele>
      </trkpt>
      <trkpt lat="47.28012" lon="0.41832">
        <ele>83</ele>
      </trkpt>
      <trkpt lat="47.28074" lon="0.41834">
        <ele>80</ele>
      </trkpt>
      <trkpt lat="47.2822" lon="0.41838">
        <ele>80</ele>
      </trkpt>
      <trkpt lat="47.28278" lon="0.41854">
        <ele>82</ele>
      </trkpt>
      <trkpt lat="47.28348" lon="0.41852">
        <ele>83</ele>
      </trkpt>
      <trkpt lat="47.28415" lon="0.41859">
        <ele>82</ele>
      </trkpt>
      <trkpt lat="47.28434" lon="0.4184">
        <ele>83</ele>
      </trkpt>
      <trkpt lat="47.28434" lon="0.41791">
        <ele>83</ele>
      </trkpt>
      <trkpt lat="47.28429" lon="0.41745">
        <ele>82</ele>
      </trkpt>
      <trkpt lat="47.28454" lon="0.41721">
        <ele>83</ele>
      </trkpt>
      <trkpt lat="47.28494" lon="0.41703">
        <ele>83</ele>
      </trkpt>
      <trkpt lat="47.28537" lon="0.41675">
        <ele>84</ele>
      </trkpt>
      <trkpt lat="47.28577" lon="0.41652">
        <ele>85</ele>
      </trkpt>
      <trkpt lat="47.2861" lon="0.41632">
        <ele>87</ele>
      </trkpt>
      <trkpt lat="47.28656" lon="0.41611">
        <ele>87</ele>
      </trkpt>
      <trkpt lat="47.28699" lon="0.41599">
        <ele>89</ele>
      </trkpt>
      <trkpt lat="47.28744" lon="0.41585">
        <ele>89</ele>
      </trkpt>
      <trkpt lat="47.28799" lon="0.41579">
        <ele>91</ele>
      </trkpt>
      <trkpt lat="47.28834" lon="0.41564">
        <ele>91</ele>
      </trkpt>
      <trkpt lat="47.28852" lon="0.41552">
        <ele>92</ele>
      </trkpt>
      <trkpt lat="47.28869" lon="0.41539">
        <ele>92</ele>
      </trkpt>
      <trkpt lat="47.28888" lon="0.41533">
        <ele>92</ele>
      </trkpt>
      <trkpt lat="47.28906" lon="0.41523">
        <ele>92</ele>
      </trkpt>
      <trkpt lat="47.28924" lon="0.41517">
        <ele>91</ele>
      </trkpt>
      <trkpt lat="47.28943" lon="0.4151">
        <ele>91</ele>
      </trkpt>
      <trkpt lat="47.28962" lon="0.41509">
        <ele>91</ele>
      </trkpt>
      <trkpt lat="47.28981" lon="0.41506">
        <ele>90</ele>
      </trkpt>
      <trkpt lat="47.29" lon="0.41507">
        <ele>89</ele>
      </trkpt>
      <trkpt lat="47.29019" lon="0.41506">
        <ele>89</ele>
      </trkpt>
      <trkpt lat="47.29039" lon="0.41506">
        <ele>89</ele>
      </trkpt>
      <trkpt lat="47.29057" lon="0.41508">
        <ele>89</ele>
      </trkpt>
      <trkpt lat="47.29078" lon="0.41507">
        <ele>87</ele>
      </trkpt>
      <trkpt lat="47.29098" lon="0.41512">
        <ele>86</ele>
      </trkpt>
      <trkpt lat="47.29115" lon="0.41516">
        <ele>86</ele>
      </trkpt>
      <trkpt lat="47.29134" lon="0.41526">
        <ele>86</ele>
      </trkpt>
      <trkpt lat="47.29151" lon="0.41537">
        <ele>86</ele>
      </trkpt>
      <trkpt lat="47.29169" lon="0.41541">
        <ele>80</ele>
      </trkpt>
      <trkpt lat="47.29188" lon="0.41535">
        <ele>79</ele>
      </trkpt>
      <trkpt lat="47.29206" lon="0.41523">
        <ele>78</ele>
      </trkpt>
      <trkpt lat="47.29224" lon="0.41512">
        <ele>77</ele>
      </trkpt>
      <trkpt lat="47.29242" lon="0.41502">
        <ele>74</ele>
      </trkpt>
      <trkpt lat="47.2926" lon="0.41492">
        <ele>70</ele>
      </trkpt>
      <trkpt lat="47.29277" lon="0.4148">
        <ele>69</ele>
      </trkpt>
      <trkpt lat="47.29293" lon="0.41467">
        <ele>68</ele>
      </trkpt>
      <trkpt lat="47.29311" lon="0.41455">
        <ele>67</ele>
      </trkpt>
      <trkpt lat="47.29329" lon="0.41444">
        <ele>66</ele>
      </trkpt>
      <trkpt lat="47.29354" lon="0.41429">
        <ele>62</ele>
      </trkpt>
      <trkpt lat="47.29371" lon="0.41416">
        <ele>61</ele>
      </trkpt>
      <trkpt lat="47.2939" lon="0.41404">
        <ele>60</ele>
      </trkpt>
      <trkpt lat="47.29408" lon="0.41392">
        <ele>60</ele>
      </trkpt>
      <trkpt lat="47.29425" lon="0.4138">
        <ele>57</ele>
      </trkpt>
      <trkpt lat="47.29442" lon="0.41368">
        <ele>57</ele>
      </trkpt>
      <trkpt lat="47.29459" lon="0.41354">
        <ele>56</ele>
      </trkpt>
      <trkpt lat="47.29477" lon="0.41345">
        <ele>56</ele>
      </trkpt>
      <trkpt lat="47.29496" lon="0.41339">
        <ele>55</ele>
      </trkpt>
      <trkpt lat="47.29514" lon="0.41328">
        <ele>53</ele>
      </trkpt>
      <trkpt lat="47.29533" lon="0.4132">
        <ele>52</ele>
      </trkpt>
      <trkpt lat="47.29552" lon="0.41312">
        <ele>51</ele>
      </trkpt>
      <trkpt lat="47.29569" lon="0.41318">
        <ele>51</ele>
      </trkpt>
      <trkpt lat="47.29583" lon="0.41338">
        <ele>50</ele>
      </trkpt>
      <trkpt lat="47.29597" lon="0.41356">
        <ele>49</ele>
      </trkpt>
      <trkpt lat="47.2961" lon="0.41378">
        <ele>49</ele>
      </trkpt>
      <trkpt lat="47.29623" lon="0.41408">
        <ele>49</ele>
      </trkpt>
      <trkpt lat="47.29635" lon="0.41433">
        <ele>50</ele>
      </trkpt>
      <trkpt lat="47.29651" lon="0.4145">
        <ele>50</ele>
      </trkpt>
      <trkpt lat="47.29664" lon="0.41473">
        <ele>51</ele>
      </trkpt>
      <trkpt lat="47.29679" lon="0.4149">
        <ele>49</ele>
      </trkpt>
      <trkpt lat="47.29692" lon="0.41512">
        <ele>49</ele>
      </trkpt>
      <trkpt lat="47.29704" lon="0.41533">
        <ele>49</ele>
      </trkpt>
      <trkpt lat="47.29716" lon="0.41557">
        <ele>49</ele>
      </trkpt>
      <trkpt lat="47.29726" lon="0.4158">
        <ele>48</ele>
      </trkpt>
      <trkpt lat="47.29739" lon="0.41601">
        <ele>48</ele>
      </trkpt>
      <trkpt lat="47.29747" lon="0.41628">
        <ele>48</ele>
      </trkpt>
      <trkpt lat="47.2975" lon="0.41657">
        <ele>46</ele>
      </trkpt>
      <trkpt lat="47.29763" lon="0.41677">
        <ele>46</ele>
      </trkpt>
      <trkpt lat="47.29779" lon="0.41693">
        <ele>46</ele>
      </trkpt>
      <trkpt lat="47.29787" lon="0.41717">
        <ele>46</ele>
      </trkpt>
      <trkpt lat="47.29806" lon="0.41744">
        <ele>46</ele>
      </trkpt>
      <trkpt lat="47.29826" lon="0.41726">
        <ele>45</ele>
      </trkpt>
      <trkpt lat="47.29848" lon="0.41685">
        <ele>43</ele>
      </trkpt>
      <trkpt lat="47.29879" lon="0.41682">
        <ele>42</ele>
      </trkpt>
      <trkpt lat="47.29969" lon="0.41924">
        <ele>43</ele>
      </trkpt>
      <trkpt lat="47.30306" lon="0.41662">
        <ele>38</ele>
      </trkpt>
      <trkpt lat="47.30347" lon="0.418">
        <ele>38</ele>
      </trkpt>
      <trkpt lat="47.30434" lon="0.41941">
        <ele>39</ele>
      </trkpt>
      <trkpt lat="47.30465" lon="0.42041">
        <ele>39</ele>
      </trkpt>
      <trkpt lat="47.30512" lon="0.42348">
        <ele>40</ele>
      </trkpt>
      <trkpt lat="47.30554" lon="0.42493">
        <ele>40</ele>
      </trkpt>
      <trkpt lat="47.30735" lon="0.42646">
        <ele>38</ele>
      </trkpt>
      <trkpt lat="47.30762" lon="0.42632">
        <ele>38</ele>
      </trkpt>
      <trkpt lat="47.30758" lon="0.42507">
        <ele>39</ele>
      </trkpt>
      <trkpt lat="47.30794" lon="0.42301">
        <ele>38</ele>
      </trkpt>
      <trkpt lat="47.30843" lon="0.42171">
        <ele>38</ele>
      </trkpt>
      <trkpt lat="47.30985" lon="0.42311">
        <ele>38</ele>
      </trkpt>
      <trkpt lat="47.31111" lon="0.42414">
        <ele>39</ele>
      </trkpt>
      <trkpt lat="47.31137" lon="0.42457">
        <ele>38</ele>
      </trkpt>
      <trkpt lat="47.31174" lon="0.42494">
        <ele>37</ele>
      </trkpt>
      <trkpt lat="47.31202" lon="0.42506">
        <ele>38</ele>
      </trkpt>
      <trkpt lat="47.31234" lon="0.42531">
        <ele>38</ele>
      </trkpt>
      <trkpt lat="47.3125" lon="0.42567">
        <ele>38</ele>
      </trkpt>
      <trkpt lat="47.31234" lon="0.42589">
        <ele>38</ele>
      </trkpt>
      <trkpt lat="47.31274" lon="0.42687">
        <ele>39</ele>
      </trkpt>
      <trkpt lat="47.31299" lon="0.42724">
        <ele>39</ele>
      </trkpt>
      <trkpt lat="47.31308" lon="0.42764">
        <ele>39</ele>
      </trkpt>
      <trkpt lat="47.31315" lon="0.42815">
        <ele>39</ele>
      </trkpt>
      <trkpt lat="47.31388" lon="0.4292">
        <ele>38</ele>
      </trkpt>
      <trkpt lat="47.31402" lon="0.42952">
        <ele>38</ele>
      </trkpt>
      <trkpt lat="47.3142" lon="0.42941">
        <ele>38</ele>
      </trkpt>
      <trkpt lat="47.31482" lon="0.43224">
        <ele>38</ele>
      </trkpt>
      <trkpt lat="47.31538" lon="0.43367">
        <ele>37</ele>
      </trkpt>
      <trkpt lat="47.31556" lon="0.43387">
        <ele>37</ele>
      </trkpt>
      <trkpt lat="47.31607" lon="0.43436">
        <ele>37</ele>
      </trkpt>
      <trkpt lat="47.31618" lon="0.43518">
        <ele>37</ele>
      </trkpt>
      <trkpt lat="47.31586" lon="0.436">
        <ele>38</ele>
      </trkpt>
      <trkpt lat="47.31586" lon="0.43645">
        <ele>38</ele>
      </trkpt>
      <trkpt lat="47.31639" lon="0.43812">
        <ele>38</ele>
      </trkpt>
      <trkpt lat="47.31708" lon="0.4414">
        <ele>39</ele>
      </trkpt>
      <trkpt lat="47.31745" lon="0.44294">
        <ele>39</ele>
      </trkpt>
      <trkpt lat="47.31785" lon="0.44479">
        <ele>39</ele>
      </trkpt>
      <trkpt lat="47.31781" lon="0.44513">
        <ele>39</ele>
      </trkpt>
      <trkpt lat="47.31879" lon="0.44892">
        <ele>38</ele>
      </trkpt>
      <trkpt lat="47.31956" lon="0.4517">
        <ele>41</ele>
      </trkpt>
      <trkpt lat="47.32161" lon="0.45651">
        <ele>47</ele>
      </trkpt>
      <trkpt lat="47.32147" lon="0.45693">
        <ele>47</ele>
      </trkpt>
      <trkpt lat="47.32151" lon="0.45695">
        <ele>47</ele>
      </trkpt>
      <trkpt lat="47.32178" lon="0.45797">
        <ele>46</ele>
      </trkpt>
      <trkpt lat="47.32449" lon="0.46338">
        <ele>38</ele>
      </trkpt>
      <trkpt lat="47.32473" lon="0.46362">
        <ele>38</ele>
      </trkpt>
      <trkpt lat="47.32539" lon="0.4643">
        <ele>38</ele>
      </trkpt>
      <trkpt lat="47.32644" lon="0.46537">
        <ele>38</ele>
      </trkpt>
      <trkpt lat="47.32721" lon="0.46449">
        <ele>39</ele>
      </trkpt>
      <trkpt lat="47.32755" lon="0.46542">
        <ele>38</ele>
      </trkpt>
      <trkpt lat="47.32809" lon="0.4658">
        <ele>38</ele>
      </trkpt>
      <trkpt lat="47.32847" lon="0.46616">
        <ele>39</ele>
      </trkpt>
      <trkpt lat="47.32894" lon="0.4668">
        <ele>40</ele>
      </trkpt>
      <trkpt lat="47.32896" lon="0.46706">
        <ele>40</ele>
      </trkpt>
      <trkpt lat="47.32868" lon="0.46812">
        <ele>40</ele>
      </trkpt>
      <trkpt lat="47.32833" lon="0.46913">
        <ele>40</ele>
      </trkpt>
      <trkpt lat="47.32977" lon="0.47002">
        <ele>39</ele>
      </trkpt>
      <trkpt lat="47.33014" lon="0.46984">
        <ele>38</ele>
      </trkpt>
      <trkpt lat="47.33077" lon="0.46959">
        <ele>38</ele>
      </trkpt>
      <trkpt lat="47.33136" lon="0.46919">
        <ele>40</ele>
      </trkpt>
    </trkseg>
  </trk>
  <trk>
    <name><![CDATA[Marnay]]></name>
    <trkseg>
      <trkpt lat="47.33147" lon="0.46908">
        <ele>41</ele>
        <time>2019-08-09T07:05:26.000Z</time>
      </trkpt>
      <trkpt lat="47.33136" lon="0.46919">
        <ele>40</ele>
        <time>2019-08-09T07:05:32.649Z</time>
      </trkpt>
      <trkpt lat="47.32973" lon="0.47002">
        <ele>39</ele>
        <time>2019-08-09T07:06:58.931Z</time>
      </trkpt>
      <trkpt lat="47.32833" lon="0.46915">
        <ele>40</ele>
        <time>2019-08-09T07:08:14.944Z</time>
      </trkpt>
      <trkpt lat="47.329" lon="0.46683">
        <ele>40</ele>
        <time>2019-08-09T07:09:40.472Z</time>
      </trkpt>
      <trkpt lat="47.32754" lon="0.46533">
        <ele>38</ele>
        <time>2019-08-09T07:11:09.495Z</time>
      </trkpt>
      <trkpt lat="47.32719" lon="0.46439">
        <ele>39</ele>
        <time>2019-08-09T07:11:45.870Z</time>
      </trkpt>
      <trkpt lat="47.3279" lon="0.46374">
        <ele>39</ele>
        <time>2019-08-09T07:12:27.681Z</time>
      </trkpt>
      <trkpt lat="47.32696" lon="0.46255">
        <ele>38</ele>
        <time>2019-08-09T07:13:29.659Z</time>
      </trkpt>
      <trkpt lat="47.32358" lon="0.45782">
        <ele>44</ele>
        <time>2019-08-09T07:17:22.772Z</time>
      </trkpt>
      <trkpt lat="47.32265" lon="0.45507">
        <ele>45</ele>
        <time>2019-08-09T07:19:07.012Z</time>
      </trkpt>
      <trkpt lat="47.32184" lon="0.45241">
        <ele>40</ele>
        <time>2019-08-09T07:20:45.923Z</time>
      </trkpt>
      <trkpt lat="47.3207" lon="0.44812">
        <ele>38</ele>
        <time>2019-08-09T07:23:22.221Z</time>
      </trkpt>
      <trkpt lat="47.31879" lon="0.44892">
        <ele>38</ele>
        <time>2019-08-09T07:25:01.571Z</time>
      </trkpt>
      <trkpt lat="47.31781" lon="0.44513">
        <ele>39</ele>
        <time>2019-08-09T07:27:19.169Z</time>
      </trkpt>
      <trkpt lat="47.31785" lon="0.44479">
        <ele>39</ele>
        <time>2019-08-09T07:27:30.875Z</time>
      </trkpt>
      <trkpt lat="47.31745" lon="0.44294">
        <ele>39</ele>
        <time>2019-08-09T07:28:36.746Z</time>
      </trkpt>
      <trkpt lat="47.31708" lon="0.4414">
        <ele>39</ele>
        <time>2019-08-09T07:29:32.170Z</time>
      </trkpt>
      <trkpt lat="47.31639" lon="0.43812">
        <ele>38</ele>
        <time>2019-08-09T07:31:28.670Z</time>
      </trkpt>
      <trkpt lat="47.3162" lon="0.43752">
        <ele>38</ele>
        <time>2019-08-09T07:31:51.135Z</time>
      </trkpt>
      <trkpt lat="47.31586" lon="0.43645">
        <ele>38</ele>
        <time>2019-08-09T07:32:31.222Z</time>
      </trkpt>
      <trkpt lat="47.31586" lon="0.436">
        <ele>38</ele>
        <time>2019-08-09T07:32:46.488Z</time>
      </trkpt>
      <trkpt lat="47.31618" lon="0.43518">
        <ele>37</ele>
        <time>2019-08-09T07:33:18.584Z</time>
      </trkpt>
      <trkpt lat="47.31607" lon="0.43436">
        <ele>37</ele>
        <time>2019-08-09T07:33:46.940Z</time>
      </trkpt>
      <trkpt lat="47.31556" lon="0.43387">
        <ele>37</ele>
        <time>2019-08-09T07:34:17.396Z</time>
      </trkpt>
      <trkpt lat="47.31538" lon="0.43367">
        <ele>37</ele>
        <time>2019-08-09T07:34:28.672Z</time>
      </trkpt>
      <trkpt lat="47.31482" lon="0.43224">
        <ele>38</ele>
        <time>2019-08-09T07:35:24.694Z</time>
      </trkpt>
      <trkpt lat="47.3142" lon="0.42941">
        <ele>38</ele>
        <time>2019-08-09T07:37:05.588Z</time>
      </trkpt>
      <trkpt lat="47.31402" lon="0.42952">
        <ele>38</ele>
        <time>2019-08-09T07:37:15.337Z</time>
      </trkpt>
      <trkpt lat="47.31315" lon="0.42815">
        <ele>39</ele>
        <time>2019-08-09T07:38:19.018Z</time>
      </trkpt>
      <trkpt lat="47.31308" lon="0.42764">
        <ele>39</ele>
        <time>2019-08-09T07:38:36.671Z</time>
      </trkpt>
      <trkpt lat="47.31299" lon="0.42724">
        <ele>39</ele>
        <time>2019-08-09T07:38:50.969Z</time>
      </trkpt>
      <trkpt lat="47.31274" lon="0.42687">
        <ele>39</ele>
        <time>2019-08-09T07:39:08.690Z</time>
      </trkpt>
      <trkpt lat="47.31234" lon="0.42589">
        <ele>38</ele>
        <time>2019-08-09T07:39:47.497Z</time>
      </trkpt>
      <trkpt lat="47.3125" lon="0.42567">
        <ele>38</ele>
        <time>2019-08-09T07:39:58.442Z</time>
      </trkpt>
      <trkpt lat="47.31234" lon="0.42531">
        <ele>38</ele>
        <time>2019-08-09T07:40:13.045Z</time>
      </trkpt>
      <trkpt lat="47.31202" lon="0.42506">
        <ele>38</ele>
        <time>2019-08-09T07:40:31.165Z</time>
      </trkpt>
      <trkpt lat="47.31174" lon="0.42494">
        <ele>37</ele>
        <time>2019-08-09T07:40:45.755Z</time>
      </trkpt>
      <trkpt lat="47.31137" lon="0.42457">
        <ele>38</ele>
        <time>2019-08-09T07:41:08.123Z</time>
      </trkpt>
      <trkpt lat="47.31111" lon="0.42414">
        <ele>39</ele>
        <time>2019-08-09T07:41:27.670Z</time>
      </trkpt>
      <trkpt lat="47.30985" lon="0.42311">
        <ele>38</ele>
        <time>2019-08-09T07:42:39.754Z</time>
      </trkpt>
      <trkpt lat="47.30843" lon="0.42171">
        <ele>38</ele>
        <time>2019-08-09T07:44:05.222Z</time>
      </trkpt>
      <trkpt lat="47.30792" lon="0.42109">
        <ele>39</ele>
        <time>2019-08-09T07:44:38.294Z</time>
      </trkpt>
      <trkpt lat="47.30716" lon="0.42051">
        <ele>38</ele>
        <time>2019-08-09T07:45:21.113Z</time>
      </trkpt>
      <trkpt lat="47.30694" lon="0.42014">
        <ele>38</ele>
        <time>2019-08-09T07:45:37.810Z</time>
      </trkpt>
      <trkpt lat="47.3067" lon="0.41913">
        <ele>37</ele>
        <time>2019-08-09T07:46:14.122Z</time>
      </trkpt>
      <trkpt lat="47.30624" lon="0.41806">
        <ele>37</ele>
        <time>2019-08-09T07:46:57.108Z</time>
      </trkpt>
      <trkpt lat="47.30559" lon="0.41724">
        <ele>37</ele>
        <time>2019-08-09T07:47:39.909Z</time>
      </trkpt>
      <trkpt lat="47.3047" lon="0.41549">
        <ele>37</ele>
        <time>2019-08-09T07:48:54.132Z</time>
      </trkpt>
      <trkpt lat="47.30422" lon="0.41503">
        <ele>39</ele>
        <time>2019-08-09T07:49:22.776Z</time>
      </trkpt>
      <trkpt lat="47.30374" lon="0.41458">
        <ele>40</ele>
        <time>2019-08-09T07:49:51.237Z</time>
      </trkpt>
      <trkpt lat="47.30357" lon="0.41308">
        <ele>38</ele>
        <time>2019-08-09T07:50:42.840Z</time>
      </trkpt>
      <trkpt lat="47.3028" lon="0.40332">
        <ele>40</ele>
        <time>2019-08-09T07:56:16.245Z</time>
      </trkpt>
      <trkpt lat="47.30209" lon="0.40137">
        <ele>40</ele>
        <time>2019-08-09T07:57:31.347Z</time>
      </trkpt>
      <trkpt lat="47.30129" lon="0.40004">
        <ele>39</ele>
        <time>2019-08-09T07:58:31.672Z</time>
      </trkpt>
      <trkpt lat="47.30103" lon="0.39982">
        <ele>39</ele>
        <time>2019-08-09T07:58:46.671Z</time>
      </trkpt>
      <trkpt lat="47.30042" lon="0.3992">
        <ele>39</ele>
        <time>2019-08-09T07:59:23.742Z</time>
      </trkpt>
      <trkpt lat="47.30039" lon="0.3986">
        <ele>38</ele>
        <time>2019-08-09T07:59:44.157Z</time>
      </trkpt>
      <trkpt lat="47.30026" lon="0.39774">
        <ele>37</ele>
        <time>2019-08-09T08:00:14.056Z</time>
      </trkpt>
      <trkpt lat="47.29913" lon="0.39673">
        <ele>37</ele>
        <time>2019-08-09T08:01:20.175Z</time>
      </trkpt>
      <trkpt lat="47.29826" lon="0.39562">
        <ele>36</ele>
        <time>2019-08-09T08:02:17.742Z</time>
      </trkpt>
      <trkpt lat="47.29746" lon="0.39444">
        <ele>37</ele>
        <time>2019-08-09T08:03:14.362Z</time>
      </trkpt>
      <trkpt lat="47.29689" lon="0.39345">
        <ele>38</ele>
        <time>2019-08-09T08:03:58.432Z</time>
      </trkpt>
      <trkpt lat="47.29677" lon="0.39216">
        <ele>38</ele>
        <time>2019-08-09T08:04:42.619Z</time>
      </trkpt>
      <trkpt lat="47.29599" lon="0.39066">
        <ele>39</ele>
        <time>2019-08-09T08:05:46.763Z</time>
      </trkpt>
      <trkpt lat="47.29583" lon="0.38971">
        <ele>38</ele>
        <time>2019-08-09T08:06:19.982Z</time>
      </trkpt>
      <trkpt lat="47.29562" lon="0.38755">
        <ele>38</ele>
        <time>2019-08-09T08:07:34.034Z</time>
      </trkpt>
      <trkpt lat="47.29475" lon="0.38623">
        <ele>38</ele>
        <time>2019-08-09T08:08:36.499Z</time>
      </trkpt>
      <trkpt lat="47.29472" lon="0.38593">
        <ele>38</ele>
        <time>2019-08-09T08:08:46.790Z</time>
      </trkpt>
      <trkpt lat="47.29465" lon="0.38565">
        <ele>38</ele>
        <time>2019-08-09T08:08:56.917Z</time>
      </trkpt>
      <trkpt lat="47.29456" lon="0.38537">
        <ele>38</ele>
        <time>2019-08-09T08:09:07.432Z</time>
      </trkpt>
      <trkpt lat="47.29447" lon="0.38511">
        <ele>38</ele>
        <time>2019-08-09T08:09:17.338Z</time>
      </trkpt>
      <trkpt lat="47.29438" lon="0.38487">
        <ele>39</ele>
        <time>2019-08-09T08:09:26.645Z</time>
      </trkpt>
      <trkpt lat="47.29429" lon="0.3846">
        <ele>38</ele>
        <time>2019-08-09T08:09:36.855Z</time>
      </trkpt>
      <trkpt lat="47.29426" lon="0.3843">
        <ele>39</ele>
        <time>2019-08-09T08:09:47.146Z</time>
      </trkpt>
      <trkpt lat="47.2944" lon="0.38411">
        <ele>38</ele>
        <time>2019-08-09T08:09:56.667Z</time>
      </trkpt>
      <trkpt lat="47.29453" lon="0.38392">
        <ele>37</ele>
        <time>2019-08-09T08:10:05.826Z</time>
      </trkpt>
      <trkpt lat="47.29455" lon="0.38363">
        <ele>37</ele>
        <time>2019-08-09T08:10:15.718Z</time>
      </trkpt>
      <trkpt lat="47.2945" lon="0.38335">
        <ele>37</ele>
        <time>2019-08-09T08:10:25.544Z</time>
      </trkpt>
      <trkpt lat="47.29446" lon="0.38308">
        <ele>37</ele>
        <time>2019-08-09T08:10:34.923Z</time>
      </trkpt>
      <trkpt lat="47.29441" lon="0.38282">
        <ele>37</ele>
        <time>2019-08-09T08:10:44.094Z</time>
      </trkpt>
      <trkpt lat="47.29434" lon="0.38254">
        <ele>37</ele>
        <time>2019-08-09T08:10:54.221Z</time>
      </trkpt>
      <trkpt lat="47.2943" lon="0.38225">
        <ele>37</ele>
        <time>2019-08-09T08:11:04.264Z</time>
      </trkpt>
      <trkpt lat="47.2943" lon="0.38198">
        <ele>37</ele>
        <time>2019-08-09T08:11:13.427Z</time>
      </trkpt>
      <trkpt lat="47.29407" lon="0.38194">
        <ele>38</ele>
        <time>2019-08-09T08:11:25.015Z</time>
      </trkpt>
      <trkpt lat="47.29388" lon="0.38195">
        <ele>38</ele>
        <time>2019-08-09T08:11:34.528Z</time>
      </trkpt>
      <trkpt lat="47.29368" lon="0.38197">
        <ele>38</ele>
        <time>2019-08-09T08:11:44.559Z</time>
      </trkpt>
      <trkpt lat="47.29348" lon="0.38199">
        <ele>38</ele>
        <time>2019-08-09T08:11:54.590Z</time>
      </trkpt>
      <trkpt lat="47.29331" lon="0.38205">
        <ele>37</ele>
        <time>2019-08-09T08:12:03.337Z</time>
      </trkpt>
      <trkpt lat="47.29312" lon="0.38211">
        <ele>37</ele>
        <time>2019-08-09T08:12:13.060Z</time>
      </trkpt>
      <trkpt lat="47.29293" lon="0.3821">
        <ele>37</ele>
        <time>2019-08-09T08:12:22.573Z</time>
      </trkpt>
      <trkpt lat="47.29273" lon="0.38197">
        <ele>37</ele>
        <time>2019-08-09T08:12:33.510Z</time>
      </trkpt>
      <trkpt lat="47.29257" lon="0.38186">
        <ele>37</ele>
        <time>2019-08-09T08:12:42.344Z</time>
      </trkpt>
      <trkpt lat="47.29241" lon="0.38172">
        <ele>37</ele>
        <time>2019-08-09T08:12:51.654Z</time>
      </trkpt>
      <trkpt lat="47.29226" lon="0.38157">
        <ele>37</ele>
        <time>2019-08-09T08:13:00.723Z</time>
      </trkpt>
      <trkpt lat="47.29209" lon="0.38145">
        <ele>37</ele>
        <time>2019-08-09T08:13:10.154Z</time>
      </trkpt>
      <trkpt lat="47.2919" lon="0.38134">
        <ele>37</ele>
        <time>2019-08-09T08:13:20.368Z</time>
      </trkpt>
      <trkpt lat="47.29171" lon="0.3814">
        <ele>37</ele>
        <time>2019-08-09T08:13:30.091Z</time>
      </trkpt>
      <trkpt lat="47.29155" lon="0.38155">
        <ele>38</ele>
        <time>2019-08-09T08:13:39.579Z</time>
      </trkpt>
      <trkpt lat="47.2914" lon="0.38174">
        <ele>37</ele>
        <time>2019-08-09T08:13:49.474Z</time>
      </trkpt>
      <trkpt lat="47.29124" lon="0.38191">
        <ele>38</ele>
        <time>2019-08-09T08:13:59.342Z</time>
      </trkpt>
      <trkpt lat="47.29111" lon="0.3821">
        <ele>38</ele>
        <time>2019-08-09T08:14:08.501Z</time>
      </trkpt>
      <trkpt lat="47.29099" lon="0.38231">
        <ele>37</ele>
        <time>2019-08-09T08:14:17.820Z</time>
      </trkpt>
      <trkpt lat="47.29083" lon="0.38249">
        <ele>37</ele>
        <time>2019-08-09T08:14:27.891Z</time>
      </trkpt>
      <trkpt lat="47.29063" lon="0.38262">
        <ele>38</ele>
        <time>2019-08-09T08:14:38.828Z</time>
      </trkpt>
      <trkpt lat="47.29041" lon="0.38267">
        <ele>39</ele>
        <time>2019-08-09T08:14:49.966Z</time>
      </trkpt>
      <trkpt lat="47.29024" lon="0.38275">
        <ele>39</ele>
        <time>2019-08-09T08:14:58.895Z</time>
      </trkpt>
      <trkpt lat="47.29004" lon="0.38273">
        <ele>39</ele>
        <time>2019-08-09T08:15:08.926Z</time>
      </trkpt>
      <trkpt lat="47.28986" lon="0.38268">
        <ele>40</ele>
        <time>2019-08-09T08:15:18.091Z</time>
      </trkpt>
      <trkpt lat="47.28968" lon="0.38257">
        <ele>40</ele>
        <time>2019-08-09T08:15:27.841Z</time>
      </trkpt>
      <trkpt lat="47.28954" lon="0.38239">
        <ele>40</ele>
        <time>2019-08-09T08:15:37.136Z</time>
      </trkpt>
      <trkpt lat="47.28937" lon="0.3822">
        <ele>40</ele>
        <time>2019-08-09T08:15:47.810Z</time>
      </trkpt>
      <trkpt lat="47.28921" lon="0.38207">
        <ele>40</ele>
        <time>2019-08-09T08:15:56.951Z</time>
      </trkpt>
      <trkpt lat="47.28904" lon="0.38197">
        <ele>38</ele>
        <time>2019-08-09T08:16:06.110Z</time>
      </trkpt>
      <trkpt lat="47.28887" lon="0.38187">
        <ele>38</ele>
        <time>2019-08-09T08:16:15.269Z</time>
      </trkpt>
      <trkpt lat="47.28867" lon="0.38178">
        <ele>38</ele>
        <time>2019-08-09T08:16:25.732Z</time>
      </trkpt>
      <trkpt lat="47.28848" lon="0.38173">
        <ele>38</ele>
        <time>2019-08-09T08:16:35.389Z</time>
      </trkpt>
      <trkpt lat="47.28827" lon="0.38171">
        <ele>38</ele>
        <time>2019-08-09T08:16:45.919Z</time>
      </trkpt>
      <trkpt lat="47.28809" lon="0.38161">
        <ele>38</ele>
        <time>2019-08-09T08:16:55.544Z</time>
      </trkpt>
      <trkpt lat="47.2879" lon="0.38153">
        <ele>37</ele>
        <time>2019-08-09T08:17:05.431Z</time>
      </trkpt>
      <trkpt lat="47.28772" lon="0.38144">
        <ele>37</ele>
        <time>2019-08-09T08:17:14.942Z</time>
      </trkpt>
      <trkpt lat="47.28754" lon="0.38136">
        <ele>37</ele>
        <time>2019-08-09T08:17:24.349Z</time>
      </trkpt>
      <trkpt lat="47.28736" lon="0.38141">
        <ele>37</ele>
        <time>2019-08-09T08:17:33.514Z</time>
      </trkpt>
      <trkpt lat="47.28725" lon="0.38163">
        <ele>37</ele>
        <time>2019-08-09T08:17:42.791Z</time>
      </trkpt>
      <trkpt lat="47.28712" lon="0.38184">
        <ele>37</ele>
        <time>2019-08-09T08:17:52.441Z</time>
      </trkpt>
      <trkpt lat="47.28704" lon="0.38209">
        <ele>37</ele>
        <time>2019-08-09T08:18:01.823Z</time>
      </trkpt>
      <trkpt lat="47.28692" lon="0.38234">
        <ele>37</ele>
        <time>2019-08-09T08:18:12.218Z</time>
      </trkpt>
      <trkpt lat="47.28679" lon="0.38255">
        <ele>38</ele>
        <time>2019-08-09T08:18:21.868Z</time>
      </trkpt>
      <trkpt lat="47.28665" lon="0.38274">
        <ele>40</ele>
        <time>2019-08-09T08:18:31.390Z</time>
      </trkpt>
      <trkpt lat="47.28663" lon="0.383">
        <ele>40</ele>
        <time>2019-08-09T08:18:40.272Z</time>
      </trkpt>
      <trkpt lat="47.28657" lon="0.38329">
        <ele>40</ele>
        <time>2019-08-09T08:18:50.563Z</time>
      </trkpt>
      <trkpt lat="47.28652" lon="0.38356">
        <ele>40</ele>
        <time>2019-08-09T08:19:00.063Z</time>
      </trkpt>
      <trkpt lat="47.28646" lon="0.38381">
        <ele>40</ele>
        <time>2019-08-09T08:19:09.064Z</time>
      </trkpt>
      <trkpt lat="47.28645" lon="0.38411">
        <ele>40</ele>
        <time>2019-08-09T08:19:19.259Z</time>
      </trkpt>
      <trkpt lat="47.2864" lon="0.38442">
        <ele>40</ele>
        <time>2019-08-09T08:19:30.074Z</time>
      </trkpt>
      <trkpt lat="47.28634" lon="0.38473">
        <ele>40</ele>
        <time>2019-08-09T08:19:41.016Z</time>
      </trkpt>
      <trkpt lat="47.2863" lon="0.38501">
        <ele>40</ele>
        <time>2019-08-09T08:19:50.728Z</time>
      </trkpt>
      <trkpt lat="47.28634" lon="0.38529">
        <ele>40</ele>
        <time>2019-08-09T08:20:00.440Z</time>
      </trkpt>
      <trkpt lat="47.28637" lon="0.38556">
        <ele>40</ele>
        <time>2019-08-09T08:20:09.727Z</time>
      </trkpt>
      <trkpt lat="47.28638" lon="0.38586">
        <ele>39</ele>
        <time>2019-08-09T08:20:19.922Z</time>
      </trkpt>
      <trkpt lat="47.28634" lon="0.38616">
        <ele>39</ele>
        <time>2019-08-09T08:20:30.300Z</time>
      </trkpt>
      <trkpt lat="47.28626" lon="0.38643">
        <ele>39</ele>
        <time>2019-08-09T08:20:40.301Z</time>
      </trkpt>
      <trkpt lat="47.28615" lon="0.38665">
        <ele>39</ele>
        <time>2019-08-09T08:20:49.578Z</time>
      </trkpt>
      <trkpt lat="47.286" lon="0.38683">
        <ele>39</ele>
        <time>2019-08-09T08:20:59.256Z</time>
      </trkpt>
      <trkpt lat="47.28582" lon="0.38695">
        <ele>39</ele>
        <time>2019-08-09T08:21:09.141Z</time>
      </trkpt>
      <trkpt lat="47.28564" lon="0.38703">
        <ele>39</ele>
        <time>2019-08-09T08:21:18.548Z</time>
      </trkpt>
      <trkpt lat="47.28546" lon="0.38714">
        <ele>38</ele>
        <time>2019-08-09T08:21:28.298Z</time>
      </trkpt>
      <trkpt lat="47.28527" lon="0.38717">
        <ele>38</ele>
        <time>2019-08-09T08:21:37.860Z</time>
      </trkpt>
      <trkpt lat="47.28509" lon="0.38722">
        <ele>38</ele>
        <time>2019-08-09T08:21:47.025Z</time>
      </trkpt>
      <trkpt lat="47.28502" lon="0.38747">
        <ele>37</ele>
        <time>2019-08-09T08:21:56.205Z</time>
      </trkpt>
      <trkpt lat="47.28499" lon="0.38776">
        <ele>38</ele>
        <time>2019-08-09T08:22:06.162Z</time>
      </trkpt>
      <trkpt lat="47.28493" lon="0.38802">
        <ele>38</ele>
        <time>2019-08-09T08:22:15.484Z</time>
      </trkpt>
      <trkpt lat="47.28478" lon="0.38819">
        <ele>38</ele>
        <time>2019-08-09T08:22:24.951Z</time>
      </trkpt>
      <trkpt lat="47.2846" lon="0.38826">
        <ele>38</ele>
        <time>2019-08-09T08:22:34.266Z</time>
      </trkpt>
      <trkpt lat="47.28441" lon="0.3883">
        <ele>39</ele>
        <time>2019-08-09T08:22:43.870Z</time>
      </trkpt>
      <trkpt lat="47.28425" lon="0.38817">
        <ele>40</ele>
        <time>2019-08-09T08:22:53.012Z</time>
      </trkpt>
      <trkpt lat="47.28407" lon="0.38811">
        <ele>40</ele>
        <time>2019-08-09T08:23:02.246Z</time>
      </trkpt>
      <trkpt lat="47.2839" lon="0.38799">
        <ele>40</ele>
        <time>2019-08-09T08:23:11.677Z</time>
      </trkpt>
      <trkpt lat="47.28371" lon="0.38796">
        <ele>40</ele>
        <time>2019-08-09T08:23:21.239Z</time>
      </trkpt>
      <trkpt lat="47.2835" lon="0.388">
        <ele>40</ele>
        <time>2019-08-09T08:23:31.834Z</time>
      </trkpt>
      <trkpt lat="47.28339" lon="0.38821">
        <ele>39</ele>
        <time>2019-08-09T08:23:40.840Z</time>
      </trkpt>
      <trkpt lat="47.28339" lon="0.38848">
        <ele>39</ele>
        <time>2019-08-09T08:23:50.005Z</time>
      </trkpt>
      <trkpt lat="47.28346" lon="0.38874">
        <ele>39</ele>
        <time>2019-08-09T08:23:59.500Z</time>
      </trkpt>
      <trkpt lat="47.2835" lon="0.38902">
        <ele>39</ele>
        <time>2019-08-09T08:24:09.213Z</time>
      </trkpt>
      <trkpt lat="47.28356" lon="0.38927">
        <ele>38</ele>
        <time>2019-08-09T08:24:18.214Z</time>
      </trkpt>
      <trkpt lat="47.28363" lon="0.38952">
        <ele>38</ele>
        <time>2019-08-09T08:24:27.394Z</time>
      </trkpt>
      <trkpt lat="47.28372" lon="0.38976">
        <ele>38</ele>
        <time>2019-08-09T08:24:36.702Z</time>
      </trkpt>
      <trkpt lat="47.28385" lon="0.38999">
        <ele>38</ele>
        <time>2019-08-09T08:24:46.864Z</time>
      </trkpt>
      <trkpt lat="47.28401" lon="0.39017">
        <ele>38</ele>
        <time>2019-08-09T08:24:56.935Z</time>
      </trkpt>
      <trkpt lat="47.28416" lon="0.39032">
        <ele>38</ele>
        <time>2019-08-09T08:25:06.005Z</time>
      </trkpt>
      <trkpt lat="47.28433" lon="0.3905">
        <ele>38</ele>
        <time>2019-08-09T08:25:16.478Z</time>
      </trkpt>
      <trkpt lat="47.28447" lon="0.39068">
        <ele>38</ele>
        <time>2019-08-09T08:25:25.773Z</time>
      </trkpt>
      <trkpt lat="47.28467" lon="0.39079">
        <ele>38</ele>
        <time>2019-08-09T08:25:36.454Z</time>
      </trkpt>
      <trkpt lat="47.28499" lon="0.39092">
        <ele>39</ele>
        <time>2019-08-09T08:25:53.063Z</time>
      </trkpt>
      <trkpt lat="47.28526" lon="0.39099">
        <ele>39</ele>
        <time>2019-08-09T08:26:06.781Z</time>
      </trkpt>
      <trkpt lat="47.28544" lon="0.39109">
        <ele>39</ele>
        <time>2019-08-09T08:26:16.406Z</time>
      </trkpt>
      <trkpt lat="47.28564" lon="0.39118">
        <ele>39</ele>
        <time>2019-08-09T08:26:26.869Z</time>
      </trkpt>
      <trkpt lat="47.28581" lon="0.39129">
        <ele>39</ele>
        <time>2019-08-09T08:26:36.159Z</time>
      </trkpt>
      <trkpt lat="47.28599" lon="0.39141">
        <ele>39</ele>
        <time>2019-08-09T08:26:46.044Z</time>
      </trkpt>
      <trkpt lat="47.28616" lon="0.39156">
        <ele>38</ele>
        <time>2019-08-09T08:26:55.958Z</time>
      </trkpt>
      <trkpt lat="47.28627" lon="0.39181">
        <ele>38</ele>
        <time>2019-08-09T08:27:06.072Z</time>
      </trkpt>
      <trkpt lat="47.28643" lon="0.39195">
        <ele>37</ele>
        <time>2019-08-09T08:27:15.382Z</time>
      </trkpt>
      <trkpt lat="47.2866" lon="0.39211">
        <ele>37</ele>
        <time>2019-08-09T08:27:25.474Z</time>
      </trkpt>
      <trkpt lat="47.28676" lon="0.39224">
        <ele>36</ele>
        <time>2019-08-09T08:27:34.615Z</time>
      </trkpt>
      <trkpt lat="47.28691" lon="0.3924">
        <ele>36</ele>
        <time>2019-08-09T08:27:43.879Z</time>
      </trkpt>
      <trkpt lat="47.28708" lon="0.39254">
        <ele>37</ele>
        <time>2019-08-09T08:27:53.623Z</time>
      </trkpt>
      <trkpt lat="47.28725" lon="0.39266">
        <ele>37</ele>
        <time>2019-08-09T08:28:03.054Z</time>
      </trkpt>
      <trkpt lat="47.28755" lon="0.39294">
        <ele>37</ele>
        <time>2019-08-09T08:28:20.821Z</time>
      </trkpt>
      <trkpt lat="47.28784" lon="0.3931">
        <ele>37</ele>
        <time>2019-08-09T08:28:36.315Z</time>
      </trkpt>
      <trkpt lat="47.28797" lon="0.39333">
        <ele>37</ele>
        <time>2019-08-09T08:28:46.476Z</time>
      </trkpt>
      <trkpt lat="47.2881" lon="0.39355">
        <ele>38</ele>
        <time>2019-08-09T08:28:56.379Z</time>
      </trkpt>
      <trkpt lat="47.28823" lon="0.39374">
        <ele>38</ele>
        <time>2019-08-09T08:29:05.539Z</time>
      </trkpt>
      <trkpt lat="47.28837" lon="0.39389">
        <ele>37</ele>
        <time>2019-08-09T08:29:14.199Z</time>
      </trkpt>
      <trkpt lat="47.28854" lon="0.39408">
        <ele>37</ele>
        <time>2019-08-09T08:29:24.874Z</time>
      </trkpt>
      <trkpt lat="47.2885" lon="0.39435">
        <ele>37</ele>
        <time>2019-08-09T08:29:34.254Z</time>
      </trkpt>
      <trkpt lat="47.28834" lon="0.39458">
        <ele>38</ele>
        <time>2019-08-09T08:29:45.436Z</time>
      </trkpt>
      <trkpt lat="47.28824" lon="0.39481">
        <ele>39</ele>
        <time>2019-08-09T08:29:54.708Z</time>
      </trkpt>
      <trkpt lat="47.28811" lon="0.39501">
        <ele>40</ele>
        <time>2019-08-09T08:30:04.110Z</time>
      </trkpt>
      <trkpt lat="47.28803" lon="0.39526">
        <ele>41</ele>
        <time>2019-08-09T08:30:13.492Z</time>
      </trkpt>
      <trkpt lat="47.28792" lon="0.39549">
        <ele>41</ele>
        <time>2019-08-09T08:30:23.044Z</time>
      </trkpt>
      <trkpt lat="47.2878" lon="0.3957">
        <ele>42</ele>
        <time>2019-08-09T08:30:32.364Z</time>
      </trkpt>
      <trkpt lat="47.2877" lon="0.39596">
        <ele>43</ele>
        <time>2019-08-09T08:30:42.509Z</time>
      </trkpt>
      <trkpt lat="47.28758" lon="0.3962">
        <ele>43</ele>
        <time>2019-08-09T08:30:52.629Z</time>
      </trkpt>
      <trkpt lat="47.28745" lon="0.3965">
        <ele>45</ele>
        <time>2019-08-09T08:31:04.712Z</time>
      </trkpt>
      <trkpt lat="47.28725" lon="0.39702">
        <ele>47</ele>
        <time>2019-08-09T08:31:25.001Z</time>
      </trkpt>
      <trkpt lat="47.28681" lon="0.39803">
        <ele>51</ele>
        <time>2019-08-09T08:32:05.743Z</time>
      </trkpt>
      <trkpt lat="47.28769" lon="0.39889">
        <ele>51</ele>
        <time>2019-08-09T08:32:58.573Z</time>
      </trkpt>
      <trkpt lat="47.28763" lon="0.39909">
        <ele>52</ele>
        <time>2019-08-09T08:33:05.996Z</time>
      </trkpt>
      <trkpt lat="47.28664" lon="0.40187">
        <ele>71</ele>
        <time>2019-08-09T08:34:52.567Z</time>
      </trkpt>
      <trkpt lat="47.28677" lon="0.40197">
        <ele>69</ele>
        <time>2019-08-09T08:34:59.904Z</time>
      </trkpt>
      <trkpt lat="47.28684" lon="0.40203">
        <ele>69</ele>
        <time>2019-08-09T08:35:03.956Z</time>
      </trkpt>
      <trkpt lat="47.2874" lon="0.40274">
        <ele>70</ele>
        <time>2019-08-09T08:35:40.914Z</time>
      </trkpt>
      <trkpt lat="47.28802" lon="0.40189">
        <ele>63</ele>
        <time>2019-08-09T08:36:23.279Z</time>
      </trkpt>
      <trkpt lat="47.28882" lon="0.40193">
        <ele>58</ele>
        <time>2019-08-09T08:37:03.332Z</time>
      </trkpt>
      <trkpt lat="47.28929" lon="0.40179">
        <ele>54</ele>
        <time>2019-08-09T08:37:27.325Z</time>
      </trkpt>
      <trkpt lat="47.28957" lon="0.40158">
        <ele>52</ele>
        <time>2019-08-09T08:37:43.044Z</time>
      </trkpt>
      <trkpt lat="47.28982" lon="0.40137">
        <ele>51</ele>
        <time>2019-08-09T08:37:57.441Z</time>
      </trkpt>
      <trkpt lat="47.29022" lon="0.401">
        <ele>47</ele>
        <time>2019-08-09T08:38:21.069Z</time>
      </trkpt>
      <trkpt lat="47.29063" lon="0.40173">
        <ele>48</ele>
        <time>2019-08-09T08:38:53.236Z</time>
      </trkpt>
      <trkpt lat="47.29082" lon="0.40258">
        <ele>50</ele>
        <time>2019-08-09T08:39:23.611Z</time>
      </trkpt>
      <trkpt lat="47.29094" lon="0.40343">
        <ele>51</ele>
        <time>2019-08-09T08:39:53.078Z</time>
      </trkpt>
      <trkpt lat="47.29114" lon="0.40421">
        <ele>51</ele>
        <time>2019-08-09T08:40:21.379Z</time>
      </trkpt>
      <trkpt lat="47.29161" lon="0.4051">
        <ele>52</ele>
        <time>2019-08-09T08:40:59.661Z</time>
      </trkpt>
      <trkpt lat="47.29163" lon="0.40537">
        <ele>53</ele>
        <time>2019-08-09T08:41:08.879Z</time>
      </trkpt>
      <trkpt lat="47.29173" lon="0.40564">
        <ele>51</ele>
        <time>2019-08-09T08:41:19.320Z</time>
      </trkpt>
      <trkpt lat="47.29181" lon="0.40591">
        <ele>52</ele>
        <time>2019-08-09T08:41:29.320Z</time>
      </trkpt>
      <trkpt lat="47.29191" lon="0.40617">
        <ele>52</ele>
        <time>2019-08-09T08:41:39.464Z</time>
      </trkpt>
      <trkpt lat="47.292" lon="0.40644">
        <ele>52</ele>
        <time>2019-08-09T08:41:49.674Z</time>
      </trkpt>
      <trkpt lat="47.29207" lon="0.40669">
        <ele>53</ele>
        <time>2019-08-09T08:41:58.853Z</time>
      </trkpt>
      <trkpt lat="47.29216" lon="0.40692">
        <ele>53</ele>
        <time>2019-08-09T08:42:07.865Z</time>
      </trkpt>
      <trkpt lat="47.29226" lon="0.40719">
        <ele>54</ele>
        <time>2019-08-09T08:42:18.306Z</time>
      </trkpt>
      <trkpt lat="47.29235" lon="0.40744">
        <ele>54</ele>
        <time>2019-08-09T08:42:27.912Z</time>
      </trkpt>
      <trkpt lat="47.29243" lon="0.40768">
        <ele>54</ele>
        <time>2019-08-09T08:42:36.988Z</time>
      </trkpt>
      <trkpt lat="47.29253" lon="0.40791">
        <ele>51</ele>
        <time>2019-08-09T08:42:46.260Z</time>
      </trkpt>
      <trkpt lat="47.29264" lon="0.40814">
        <ele>51</ele>
        <time>2019-08-09T08:42:55.811Z</time>
      </trkpt>
      <trkpt lat="47.29273" lon="0.40838">
        <ele>52</ele>
        <time>2019-08-09T08:43:05.118Z</time>
      </trkpt>
      <trkpt lat="47.29284" lon="0.4086">
        <ele>52</ele>
        <time>2019-08-09T08:43:14.394Z</time>
      </trkpt>
      <trkpt lat="47.29294" lon="0.40883">
        <ele>52</ele>
        <time>2019-08-09T08:43:23.666Z</time>
      </trkpt>
      <trkpt lat="47.29307" lon="0.40903">
        <ele>52</ele>
        <time>2019-08-09T08:43:33.067Z</time>
      </trkpt>
      <trkpt lat="47.29324" lon="0.40892">
        <ele>51</ele>
        <time>2019-08-09T08:43:42.357Z</time>
      </trkpt>
      <trkpt lat="47.2934" lon="0.4088">
        <ele>49</ele>
        <time>2019-08-09T08:43:51.339Z</time>
      </trkpt>
      <trkpt lat="47.29353" lon="0.40902">
        <ele>49</ele>
        <time>2019-08-09T08:44:01.241Z</time>
      </trkpt>
      <trkpt lat="47.29363" lon="0.40929">
        <ele>50</ele>
        <time>2019-08-09T08:44:11.681Z</time>
      </trkpt>
      <trkpt lat="47.29375" lon="0.40953">
        <ele>50</ele>
        <time>2019-08-09T08:44:21.800Z</time>
      </trkpt>
      <trkpt lat="47.29388" lon="0.40976">
        <ele>50</ele>
        <time>2019-08-09T08:44:31.961Z</time>
      </trkpt>
      <trkpt lat="47.29398" lon="0.40999">
        <ele>50</ele>
        <time>2019-08-09T08:44:41.233Z</time>
      </trkpt>
      <trkpt lat="47.29411" lon="0.41019">
        <ele>51</ele>
        <time>2019-08-09T08:44:50.634Z</time>
      </trkpt>
      <trkpt lat="47.29423" lon="0.4104">
        <ele>49</ele>
        <time>2019-08-09T08:44:59.953Z</time>
      </trkpt>
      <trkpt lat="47.29437" lon="0.41059">
        <ele>49</ele>
        <time>2019-08-09T08:45:09.474Z</time>
      </trkpt>
      <trkpt lat="47.2945" lon="0.41078">
        <ele>49</ele>
        <time>2019-08-09T08:45:18.633Z</time>
      </trkpt>
      <trkpt lat="47.29463" lon="0.41101">
        <ele>50</ele>
        <time>2019-08-09T08:45:28.794Z</time>
      </trkpt>
      <trkpt lat="47.29473" lon="0.41124">
        <ele>50</ele>
        <time>2019-08-09T08:45:38.066Z</time>
      </trkpt>
      <trkpt lat="47.29485" lon="0.41146">
        <ele>50</ele>
        <time>2019-08-09T08:45:47.647Z</time>
      </trkpt>
      <trkpt lat="47.29494" lon="0.4117">
        <ele>50</ele>
        <time>2019-08-09T08:45:56.954Z</time>
      </trkpt>
      <trkpt lat="47.29504" lon="0.41195">
        <ele>49</ele>
        <time>2019-08-09T08:46:06.804Z</time>
      </trkpt>
      <trkpt lat="47.29512" lon="0.41219">
        <ele>50</ele>
        <time>2019-08-09T08:46:15.879Z</time>
      </trkpt>
      <trkpt lat="47.29522" lon="0.41243">
        <ele>50</ele>
        <time>2019-08-09T08:46:25.438Z</time>
      </trkpt>
      <trkpt lat="47.29535" lon="0.41265">
        <ele>51</ele>
        <time>2019-08-09T08:46:35.340Z</time>
      </trkpt>
      <trkpt lat="47.29545" lon="0.41289">
        <ele>51</ele>
        <time>2019-08-09T08:46:44.899Z</time>
      </trkpt>
      <trkpt lat="47.29565" lon="0.41314">
        <ele>51</ele>
        <time>2019-08-09T08:46:58.019Z</time>
      </trkpt>
      <trkpt lat="47.29601" lon="0.41375">
        <ele>50</ele>
        <time>2019-08-09T08:47:25.460Z</time>
      </trkpt>
      <trkpt lat="47.29629" lon="0.41429">
        <ele>51</ele>
        <time>2019-08-09T08:47:48.528Z</time>
      </trkpt>
      <trkpt lat="47.29727" lon="0.41596">
        <ele>48</ele>
        <time>2019-08-09T08:49:03.471Z</time>
      </trkpt>
      <trkpt lat="47.29743" lon="0.41602">
        <ele>48</ele>
        <time>2019-08-09T08:49:11.732Z</time>
      </trkpt>
      <trkpt lat="47.29742" lon="0.4166">
        <ele>47</ele>
        <time>2019-08-09T08:49:31.421Z</time>
      </trkpt>
      <trkpt lat="47.29774" lon="0.41681">
        <ele>46</ele>
        <time>2019-08-09T08:49:48.947Z</time>
      </trkpt>
      <trkpt lat="47.29787" lon="0.41717">
        <ele>46</ele>
        <time>2019-08-09T08:50:02.787Z</time>
      </trkpt>
      <trkpt lat="47.29806" lon="0.41744">
        <ele>46</ele>
        <time>2019-08-09T08:50:15.991Z</time>
      </trkpt>
      <trkpt lat="47.29826" lon="0.41726">
        <ele>45</ele>
        <time>2019-08-09T08:50:27.715Z</time>
      </trkpt>
      <trkpt lat="47.29848" lon="0.41685">
        <ele>43</ele>
        <time>2019-08-09T08:50:45.456Z</time>
      </trkpt>
      <trkpt lat="47.29879" lon="0.41682">
        <ele>42</ele>
        <time>2019-08-09T08:51:01.001Z</time>
      </trkpt>
      <trkpt lat="47.29969" lon="0.41924">
        <ele>43</ele>
        <time>2019-08-09T08:52:34.659Z</time>
      </trkpt>
      <trkpt lat="47.30306" lon="0.41662">
        <ele>38</ele>
        <time>2019-08-09T08:55:45.287Z</time>
      </trkpt>
      <trkpt lat="47.30347" lon="0.418">
        <ele>38</ele>
        <time>2019-08-09T08:56:36.409Z</time>
      </trkpt>
      <trkpt lat="47.30434" lon="0.41941">
        <ele>39</ele>
        <time>2019-08-09T08:57:41.093Z</time>
      </trkpt>
      <trkpt lat="47.30564" lon="0.42501">
        <ele>39</ele>
        <time>2019-08-09T09:01:01.929Z</time>
      </trkpt>
      <trkpt lat="47.30766" lon="0.42686">
        <ele>38</ele>
        <time>2019-08-09T09:03:00.910Z</time>
      </trkpt>
      <trkpt lat="47.30813" lon="0.42757">
        <ele>39</ele>
        <time>2019-08-09T09:03:34.576Z</time>
      </trkpt>
      <trkpt lat="47.30963" lon="0.43147">
        <ele>42</ele>
        <time>2019-08-09T09:06:06.700Z</time>
      </trkpt>
      <trkpt lat="47.30966" lon="0.43248">
        <ele>41</ele>
        <time>2019-08-09T09:06:41.000Z</time>
      </trkpt>
      <trkpt lat="47.30955" lon="0.43304">
        <ele>40</ele>
        <time>2019-08-09T09:07:00.781Z</time>
      </trkpt>
      <trkpt lat="47.30948" lon="0.43578">
        <ele>39</ele>
        <time>2019-08-09T09:08:33.808Z</time>
      </trkpt>
      <trkpt lat="47.31034" lon="0.43767">
        <ele>39</ele>
        <time>2019-08-09T09:09:51.032Z</time>
      </trkpt>
      <trkpt lat="47.31095" lon="0.43799">
        <ele>38</ele>
        <time>2019-08-09T09:10:23.428Z</time>
      </trkpt>
      <trkpt lat="47.31262" lon="0.43965">
        <ele>39</ele>
        <time>2019-08-09T09:12:04.197Z</time>
      </trkpt>
      <trkpt lat="47.31315" lon="0.44025">
        <ele>39</ele>
        <time>2019-08-09T09:12:37.628Z</time>
      </trkpt>
      <trkpt lat="47.31369" lon="0.44306">
        <ele>39</ele>
        <time>2019-08-09T09:14:16.712Z</time>
      </trkpt>
      <trkpt lat="47.31393" lon="0.44387">
        <ele>40</ele>
        <time>2019-08-09T09:14:46.701Z</time>
      </trkpt>
      <trkpt lat="47.31492" lon="0.44493">
        <ele>40</ele>
        <time>2019-08-09T09:15:47.914Z</time>
      </trkpt>
      <trkpt lat="47.31628" lon="0.44716">
        <ele>42</ele>
        <time>2019-08-09T09:17:29.668Z</time>
      </trkpt>
      <trkpt lat="47.31632" lon="0.44776">
        <ele>42</ele>
        <time>2019-08-09T09:17:50.120Z</time>
      </trkpt>
      <trkpt lat="47.31598" lon="0.45042">
        <ele>42</ele>
        <time>2019-08-09T09:19:21.945Z</time>
      </trkpt>
      <trkpt lat="47.3153" lon="0.45246">
        <ele>40</ele>
        <time>2019-08-09T09:20:39.061Z</time>
      </trkpt>
      <trkpt lat="47.31527" lon="0.45359">
        <ele>40</ele>
        <time>2019-08-09T09:21:17.424Z</time>
      </trkpt>
      <trkpt lat="47.3153" lon="0.45473">
        <ele>40</ele>
        <time>2019-08-09T09:21:56.126Z</time>
      </trkpt>
      <trkpt lat="47.31563" lon="0.45459">
        <ele>40</ele>
        <time>2019-08-09T09:22:13.308Z</time>
      </trkpt>
      <trkpt lat="47.31614" lon="0.45368">
        <ele>41</ele>
        <time>2019-08-09T09:22:53.361Z</time>
      </trkpt>
      <trkpt lat="47.31624" lon="0.45441">
        <ele>40</ele>
        <time>2019-08-09T09:23:18.625Z</time>
      </trkpt>
      <trkpt lat="47.31704" lon="0.45585">
        <ele>44</ele>
        <time>2019-08-09T09:24:21.781Z</time>
      </trkpt>
      <trkpt lat="47.3172" lon="0.45631">
        <ele>44</ele>
        <time>2019-08-09T09:24:39.319Z</time>
      </trkpt>
      <trkpt lat="47.31742" lon="0.45678">
        <ele>43</ele>
        <time>2019-08-09T09:24:58.694Z</time>
      </trkpt>
      <trkpt lat="47.31765" lon="0.45721">
        <ele>42</ele>
        <time>2019-08-09T09:25:17.274Z</time>
      </trkpt>
      <trkpt lat="47.31781" lon="0.4576">
        <ele>41</ele>
        <time>2019-08-09T09:25:32.738Z</time>
      </trkpt>
      <trkpt lat="47.31794" lon="0.4582">
        <ele>41</ele>
        <time>2019-08-09T09:25:54.105Z</time>
      </trkpt>
      <trkpt lat="47.31807" lon="0.4586">
        <ele>42</ele>
        <time>2019-08-09T09:26:09.152Z</time>
      </trkpt>
      <trkpt lat="47.31827" lon="0.4589">
        <ele>42</ele>
        <time>2019-08-09T09:26:23.425Z</time>
      </trkpt>
      <trkpt lat="47.31833" lon="0.45921">
        <ele>42</ele>
        <time>2019-08-09T09:26:34.361Z</time>
      </trkpt>
      <trkpt lat="47.31845" lon="0.45947">
        <ele>42</ele>
        <time>2019-08-09T09:26:45.031Z</time>
      </trkpt>
      <trkpt lat="47.31874" lon="0.46009">
        <ele>44</ele>
        <time>2019-08-09T09:27:10.583Z</time>
      </trkpt>
      <trkpt lat="47.31895" lon="0.46014">
        <ele>43</ele>
        <time>2019-08-09T09:27:21.227Z</time>
      </trkpt>
      <trkpt lat="47.31911" lon="0.46024">
        <ele>43</ele>
        <time>2019-08-09T09:27:29.922Z</time>
      </trkpt>
      <trkpt lat="47.31923" lon="0.46042">
        <ele>42</ele>
        <time>2019-08-09T09:27:38.486Z</time>
      </trkpt>
      <trkpt lat="47.31946" lon="0.46084">
        <ele>44</ele>
        <time>2019-08-09T09:27:56.801Z</time>
      </trkpt>
      <trkpt lat="47.3198" lon="0.46148">
        <ele>45</ele>
        <time>2019-08-09T09:28:24.382Z</time>
      </trkpt>
      <trkpt lat="47.31997" lon="0.46189">
        <ele>46</ele>
        <time>2019-08-09T09:28:40.685Z</time>
      </trkpt>
      <trkpt lat="47.32008" lon="0.46212">
        <ele>47</ele>
        <time>2019-08-09T09:28:50.233Z</time>
      </trkpt>
      <trkpt lat="47.32021" lon="0.4623">
        <ele>47</ele>
        <time>2019-08-09T09:28:59.155Z</time>
      </trkpt>
      <trkpt lat="47.32034" lon="0.46248">
        <ele>47</ele>
        <time>2019-08-09T09:29:08.077Z</time>
      </trkpt>
      <trkpt lat="47.32048" lon="0.46261">
        <ele>47</ele>
        <time>2019-08-09T09:29:16.355Z</time>
      </trkpt>
      <trkpt lat="47.32072" lon="0.46285">
        <ele>47</ele>
        <time>2019-08-09T09:29:30.863Z</time>
      </trkpt>
      <trkpt lat="47.32087" lon="0.46302">
        <ele>46</ele>
        <time>2019-08-09T09:29:40.328Z</time>
      </trkpt>
      <trkpt lat="47.32092" lon="0.46306">
        <ele>46</ele>
        <time>2019-08-09T09:29:43.174Z</time>
      </trkpt>
      <trkpt lat="47.32112" lon="0.46328">
        <ele>46</ele>
        <time>2019-08-09T09:29:55.658Z</time>
      </trkpt>
      <trkpt lat="47.32153" lon="0.46373">
        <ele>44</ele>
        <time>2019-08-09T09:30:21.229Z</time>
      </trkpt>
      <trkpt lat="47.32199" lon="0.46431">
        <ele>43</ele>
        <time>2019-08-09T09:30:51.508Z</time>
      </trkpt>
      <trkpt lat="47.3221" lon="0.46447">
        <ele>43</ele>
        <time>2019-08-09T09:30:59.238Z</time>
      </trkpt>
      <trkpt lat="47.32233" lon="0.46477">
        <ele>43</ele>
        <time>2019-08-09T09:31:14.600Z</time>
      </trkpt>
      <trkpt lat="47.32269" lon="0.46529">
        <ele>41</ele>
        <time>2019-08-09T09:31:39.811Z</time>
      </trkpt>
      <trkpt lat="47.32313" lon="0.46578">
        <ele>41</ele>
        <time>2019-08-09T09:32:07.397Z</time>
      </trkpt>
      <trkpt lat="47.3234" lon="0.46619">
        <ele>42</ele>
        <time>2019-08-09T09:32:26.786Z</time>
      </trkpt>
      <trkpt lat="47.32358" lon="0.46649">
        <ele>42</ele>
        <time>2019-08-09T09:32:40.375Z</time>
      </trkpt>
      <trkpt lat="47.32382" lon="0.46688">
        <ele>43</ele>
        <time>2019-08-09T09:32:58.241Z</time>
      </trkpt>
      <trkpt lat="47.32417" lon="0.46717">
        <ele>42</ele>
        <time>2019-08-09T09:33:18.327Z</time>
      </trkpt>
      <trkpt lat="47.32459" lon="0.46748">
        <ele>41</ele>
        <time>2019-08-09T09:33:41.826Z</time>
      </trkpt>
      <trkpt lat="47.32492" lon="0.46784">
        <ele>41</ele>
        <time>2019-08-09T09:34:02.363Z</time>
      </trkpt>
      <trkpt lat="47.32518" lon="0.46831">
        <ele>41</ele>
        <time>2019-08-09T09:34:22.939Z</time>
      </trkpt>
      <trkpt lat="47.32529" lon="0.46855">
        <ele>42</ele>
        <time>2019-08-09T09:34:32.765Z</time>
      </trkpt>
      <trkpt lat="47.32557" lon="0.46896">
        <ele>43</ele>
        <time>2019-08-09T09:34:52.505Z</time>
      </trkpt>
      <trkpt lat="47.32574" lon="0.46913">
        <ele>44</ele>
        <time>2019-08-09T09:35:02.781Z</time>
      </trkpt>
      <trkpt lat="47.32639" lon="0.47062">
        <ele>43</ele>
        <time>2019-08-09T09:36:02.879Z</time>
      </trkpt>
      <trkpt lat="47.32669" lon="0.47071">
        <ele>43</ele>
        <time>2019-08-09T09:36:18.198Z</time>
      </trkpt>
      <trkpt lat="47.32694" lon="0.4707">
        <ele>42</ele>
        <time>2019-08-09T09:36:30.712Z</time>
      </trkpt>
      <trkpt lat="47.32719" lon="0.47067">
        <ele>42</ele>
        <time>2019-08-09T09:36:43.263Z</time>
      </trkpt>
      <trkpt lat="47.32744" lon="0.47063">
        <ele>42</ele>
        <time>2019-08-09T09:36:55.846Z</time>
      </trkpt>
      <trkpt lat="47.32772" lon="0.47047">
        <ele>41</ele>
        <time>2019-08-09T09:37:10.871Z</time>
      </trkpt>
      <trkpt lat="47.32792" lon="0.47037">
        <ele>41</ele>
        <time>2019-08-09T09:37:21.438Z</time>
      </trkpt>
      <trkpt lat="47.32813" lon="0.47032">
        <ele>41</ele>
        <time>2019-08-09T09:37:32.082Z</time>
      </trkpt>
      <trkpt lat="47.32824" lon="0.47053">
        <ele>41</ele>
        <time>2019-08-09T09:37:41.083Z</time>
      </trkpt>
      <trkpt lat="47.32872" lon="0.47082">
        <ele>41</ele>
        <time>2019-08-09T09:38:07.037Z</time>
      </trkpt>
      <trkpt lat="47.32937" lon="0.47124">
        <ele>40</ele>
        <time>2019-08-09T09:38:42.544Z</time>
      </trkpt>
      <trkpt lat="47.32926" lon="0.4707">
        <ele>40</ele>
        <time>2019-08-09T09:39:01.667Z</time>
      </trkpt>
      <trkpt lat="47.32944" lon="0.4703">
        <ele>40</ele>
        <time>2019-08-09T09:39:17.951Z</time>
      </trkpt>
      <trkpt lat="47.33146" lon="0.46935">
        <ele>40</ele>
        <time>2019-08-09T09:41:04.038Z</time>
      </trkpt>
    </trkseg>
  </trk>
  <trk>
    <name><![CDATA[Bréhémont]]></name>
    <trkseg>
      <trkpt lat="47.33147" lon="0.46908">
        <ele>41</ele>
        <time>2019-08-09T07:26:08.000Z</time>
      </trkpt>
      <trkpt lat="47.33136" lon="0.46919">
        <ele>40</ele>
        <time>2019-08-09T07:26:14.765Z</time>
      </trkpt>
      <trkpt lat="47.32973" lon="0.47002">
        <ele>39</ele>
        <time>2019-08-09T07:27:41.345Z</time>
      </trkpt>
      <trkpt lat="47.32833" lon="0.46915">
        <ele>40</ele>
        <time>2019-08-09T07:28:57.161Z</time>
      </trkpt>
      <trkpt lat="47.329" lon="0.46683">
        <ele>40</ele>
        <time>2019-08-09T07:30:22.607Z</time>
      </trkpt>
      <trkpt lat="47.32754" lon="0.46533">
        <ele>38</ele>
        <time>2019-08-09T07:31:51.710Z</time>
      </trkpt>
      <trkpt lat="47.32719" lon="0.46439">
        <ele>39</ele>
        <time>2019-08-09T07:32:28.180Z</time>
      </trkpt>
      <trkpt lat="47.3279" lon="0.46374">
        <ele>39</ele>
        <time>2019-08-09T07:33:10.055Z</time>
      </trkpt>
      <trkpt lat="47.32696" lon="0.46255">
        <ele>38</ele>
        <time>2019-08-09T07:34:12.283Z</time>
      </trkpt>
      <trkpt lat="47.32358" lon="0.45782">
        <ele>44</ele>
        <time>2019-08-09T07:38:05.274Z</time>
      </trkpt>
      <trkpt lat="47.32265" lon="0.45507">
        <ele>45</ele>
        <time>2019-08-09T07:39:49.423Z</time>
      </trkpt>
      <trkpt lat="47.32184" lon="0.45241">
        <ele>40</ele>
        <time>2019-08-09T07:41:28.436Z</time>
      </trkpt>
      <trkpt lat="47.3207" lon="0.44812">
        <ele>38</ele>
        <time>2019-08-09T07:44:04.706Z</time>
      </trkpt>
      <trkpt lat="47.31879" lon="0.44892">
        <ele>38</ele>
        <time>2019-08-09T07:45:43.952Z</time>
      </trkpt>
      <trkpt lat="47.31781" lon="0.44513">
        <ele>39</ele>
        <time>2019-08-09T07:48:01.455Z</time>
      </trkpt>
      <trkpt lat="47.31785" lon="0.44479">
        <ele>39</ele>
        <time>2019-08-09T07:48:13.262Z</time>
      </trkpt>
      <trkpt lat="47.31745" lon="0.44294">
        <ele>39</ele>
        <time>2019-08-09T07:49:18.971Z</time>
      </trkpt>
      <trkpt lat="47.31708" lon="0.4414">
        <ele>39</ele>
        <time>2019-08-09T07:50:14.572Z</time>
      </trkpt>
      <trkpt lat="47.31639" lon="0.43812">
        <ele>38</ele>
        <time>2019-08-09T07:52:10.710Z</time>
      </trkpt>
      <trkpt lat="47.3162" lon="0.43752">
        <ele>38</ele>
        <time>2019-08-09T07:52:33.356Z</time>
      </trkpt>
      <trkpt lat="47.31586" lon="0.43645">
        <ele>38</ele>
        <time>2019-08-09T07:53:13.409Z</time>
      </trkpt>
      <trkpt lat="47.31586" lon="0.436">
        <ele>38</ele>
        <time>2019-08-09T07:53:28.714Z</time>
      </trkpt>
      <trkpt lat="47.31618" lon="0.43518">
        <ele>37</ele>
        <time>2019-08-09T07:54:00.866Z</time>
      </trkpt>
      <trkpt lat="47.31607" lon="0.43436">
        <ele>37</ele>
        <time>2019-08-09T07:54:29.492Z</time>
      </trkpt>
      <trkpt lat="47.31556" lon="0.43387">
        <ele>37</ele>
        <time>2019-08-09T07:54:59.482Z</time>
      </trkpt>
      <trkpt lat="47.31538" lon="0.43367">
        <ele>37</ele>
        <time>2019-08-09T07:55:11.201Z</time>
      </trkpt>
      <trkpt lat="47.31482" lon="0.43224">
        <ele>38</ele>
        <time>2019-08-09T07:56:06.961Z</time>
      </trkpt>
      <trkpt lat="47.3142" lon="0.42941">
        <ele>38</ele>
        <time>2019-08-09T07:57:47.996Z</time>
      </trkpt>
      <trkpt lat="47.31402" lon="0.42952">
        <ele>38</ele>
        <time>2019-08-09T07:57:57.800Z</time>
      </trkpt>
      <trkpt lat="47.31315" lon="0.42815">
        <ele>39</ele>
        <time>2019-08-09T07:59:01.418Z</time>
      </trkpt>
      <trkpt lat="47.31308" lon="0.42764">
        <ele>39</ele>
        <time>2019-08-09T07:59:18.892Z</time>
      </trkpt>
      <trkpt lat="47.31299" lon="0.42724">
        <ele>39</ele>
        <time>2019-08-09T07:59:33.062Z</time>
      </trkpt>
      <trkpt lat="47.31274" lon="0.42687">
        <ele>39</ele>
        <time>2019-08-09T07:59:51.069Z</time>
      </trkpt>
      <trkpt lat="47.31234" lon="0.42589">
        <ele>38</ele>
        <time>2019-08-09T08:00:29.760Z</time>
      </trkpt>
      <trkpt lat="47.3125" lon="0.42567">
        <ele>38</ele>
        <time>2019-08-09T08:00:41.078Z</time>
      </trkpt>
      <trkpt lat="47.31234" lon="0.42531">
        <ele>38</ele>
        <time>2019-08-09T08:00:55.709Z</time>
      </trkpt>
      <trkpt lat="47.31202" lon="0.42506">
        <ele>38</ele>
        <time>2019-08-09T08:01:13.957Z</time>
      </trkpt>
      <trkpt lat="47.31174" lon="0.42494">
        <ele>37</ele>
        <time>2019-08-09T08:01:28.384Z</time>
      </trkpt>
      <trkpt lat="47.31137" lon="0.42457">
        <ele>38</ele>
        <time>2019-08-09T08:01:50.699Z</time>
      </trkpt>
      <trkpt lat="47.31111" lon="0.42414">
        <ele>39</ele>
        <time>2019-08-09T08:02:10.287Z</time>
      </trkpt>
      <trkpt lat="47.30985" lon="0.42311">
        <ele>38</ele>
        <time>2019-08-09T08:03:21.978Z</time>
      </trkpt>
      <trkpt lat="47.30843" lon="0.42171">
        <ele>38</ele>
        <time>2019-08-09T08:04:47.790Z</time>
      </trkpt>
      <trkpt lat="47.30792" lon="0.42109">
        <ele>39</ele>
        <time>2019-08-09T08:05:20.965Z</time>
      </trkpt>
      <trkpt lat="47.30716" lon="0.42051">
        <ele>38</ele>
        <time>2019-08-09T08:06:03.635Z</time>
      </trkpt>
      <trkpt lat="47.30694" lon="0.42014">
        <ele>38</ele>
        <time>2019-08-09T08:06:20.138Z</time>
      </trkpt>
      <trkpt lat="47.3067" lon="0.41913">
        <ele>37</ele>
        <time>2019-08-09T08:06:56.503Z</time>
      </trkpt>
      <trkpt lat="47.30624" lon="0.41806">
        <ele>37</ele>
        <time>2019-08-09T08:07:39.336Z</time>
      </trkpt>
      <trkpt lat="47.30559" lon="0.41724">
        <ele>37</ele>
        <time>2019-08-09T08:08:22.240Z</time>
      </trkpt>
      <trkpt lat="47.3047" lon="0.41549">
        <ele>37</ele>
        <time>2019-08-09T08:09:36.647Z</time>
      </trkpt>
      <trkpt lat="47.30422" lon="0.41503">
        <ele>39</ele>
        <time>2019-08-09T08:10:05.126Z</time>
      </trkpt>
      <trkpt lat="47.30374" lon="0.41458">
        <ele>40</ele>
        <time>2019-08-09T08:10:33.587Z</time>
      </trkpt>
      <trkpt lat="47.3028" lon="0.40332">
        <ele>40</ele>
        <time>2019-08-09T08:16:58.680Z</time>
      </trkpt>
      <trkpt lat="47.30209" lon="0.40137">
        <ele>40</ele>
        <time>2019-08-09T08:18:13.901Z</time>
      </trkpt>
      <trkpt lat="47.30129" lon="0.40004">
        <ele>39</ele>
        <time>2019-08-09T08:19:14.285Z</time>
      </trkpt>
      <trkpt lat="47.30103" lon="0.39982">
        <ele>39</ele>
        <time>2019-08-09T08:19:29.272Z</time>
      </trkpt>
      <trkpt lat="47.30042" lon="0.3992">
        <ele>39</ele>
        <time>2019-08-09T08:20:06.423Z</time>
      </trkpt>
      <trkpt lat="47.30026" lon="0.39774">
        <ele>37</ele>
        <time>2019-08-09T08:20:56.554Z</time>
      </trkpt>
      <trkpt lat="47.30041" lon="0.3957">
        <ele>37</ele>
        <time>2019-08-09T08:22:06.079Z</time>
      </trkpt>
      <trkpt lat="47.30003" lon="0.39465">
        <ele>38</ele>
        <time>2019-08-09T08:22:46.448Z</time>
      </trkpt>
      <trkpt lat="47.29977" lon="0.39353">
        <ele>38</ele>
        <time>2019-08-09T08:23:26.507Z</time>
      </trkpt>
      <trkpt lat="47.29983" lon="0.39138">
        <ele>37</ele>
        <time>2019-08-09T08:24:39.573Z</time>
      </trkpt>
      <trkpt lat="47.29962" lon="0.39027">
        <ele>37</ele>
        <time>2019-08-09T08:25:18.955Z</time>
      </trkpt>
      <trkpt lat="47.29985" lon="0.38963">
        <ele>37</ele>
        <time>2019-08-09T08:25:43.425Z</time>
      </trkpt>
      <trkpt lat="47.29943" lon="0.38975">
        <ele>38</ele>
        <time>2019-08-09T08:26:04.665Z</time>
      </trkpt>
      <trkpt lat="47.29897" lon="0.38768">
        <ele>38</ele>
        <time>2019-08-09T08:27:18.581Z</time>
      </trkpt>
      <trkpt lat="47.29877" lon="0.38748">
        <ele>38</ele>
        <time>2019-08-09T08:27:30.673Z</time>
      </trkpt>
      <trkpt lat="47.29665" lon="0.38713">
        <ele>39</ele>
        <time>2019-08-09T08:29:17.267Z</time>
      </trkpt>
      <trkpt lat="47.29582" lon="0.3863">
        <ele>37</ele>
        <time>2019-08-09T08:30:07.630Z</time>
      </trkpt>
      <trkpt lat="47.29548" lon="0.38548">
        <ele>37</ele>
        <time>2019-08-09T08:30:40.003Z</time>
      </trkpt>
      <trkpt lat="47.29488" lon="0.38475">
        <ele>38</ele>
        <time>2019-08-09T08:31:18.992Z</time>
      </trkpt>
      <trkpt lat="47.29422" lon="0.38195">
        <ele>38</ele>
        <time>2019-08-09T08:32:59.690Z</time>
      </trkpt>
      <trkpt lat="47.29372" lon="0.37918">
        <ele>37</ele>
        <time>2019-08-09T08:34:36.958Z</time>
      </trkpt>
      <trkpt lat="47.29329" lon="0.37879">
        <ele>37</ele>
        <time>2019-08-09T08:35:02.448Z</time>
      </trkpt>
      <trkpt lat="47.2926" lon="0.3786">
        <ele>38</ele>
        <time>2019-08-09T08:35:37.344Z</time>
      </trkpt>
      <trkpt lat="47.29214" lon="0.37791">
        <ele>39</ele>
        <time>2019-08-09T08:36:10.259Z</time>
      </trkpt>
      <trkpt lat="47.29102" lon="0.37504">
        <ele>39</ele>
        <time>2019-08-09T08:38:02.837Z</time>
      </trkpt>
      <trkpt lat="47.29094" lon="0.37388">
        <ele>38</ele>
        <time>2019-08-09T08:38:42.342Z</time>
      </trkpt>
      <trkpt lat="47.2911" lon="0.37197">
        <ele>37</ele>
        <time>2019-08-09T08:39:47.625Z</time>
      </trkpt>
      <trkpt lat="47.2916" lon="0.37053">
        <ele>35</ele>
        <time>2019-08-09T08:40:42.355Z</time>
      </trkpt>
      <trkpt lat="47.28936" lon="0.3627">
        <ele>36</ele>
        <time>2019-08-09T08:45:30.855Z</time>
      </trkpt>
      <trkpt lat="47.28917" lon="0.36045">
        <ele>37</ele>
        <time>2019-08-09T08:46:47.905Z</time>
      </trkpt>
      <trkpt lat="47.28911" lon="0.35903">
        <ele>37</ele>
        <time>2019-08-09T08:47:36.055Z</time>
      </trkpt>
      <trkpt lat="47.28917" lon="0.35805">
        <ele>38</ele>
        <time>2019-08-09T08:48:09.346Z</time>
      </trkpt>
      <trkpt lat="47.28946" lon="0.35742">
        <ele>38</ele>
        <time>2019-08-09T08:48:35.300Z</time>
      </trkpt>
      <trkpt lat="47.28949" lon="0.35718">
        <ele>38</ele>
        <time>2019-08-09T08:48:43.440Z</time>
      </trkpt>
      <trkpt lat="47.2877" lon="0.35508">
        <ele>36</ele>
        <time>2019-08-09T08:50:37.949Z</time>
      </trkpt>
      <trkpt lat="47.28738" lon="0.35455">
        <ele>38</ele>
        <time>2019-08-09T08:51:02.243Z</time>
      </trkpt>
      <trkpt lat="47.28757" lon="0.35399">
        <ele>36</ele>
        <time>2019-08-09T08:51:23.435Z</time>
      </trkpt>
      <trkpt lat="47.28796" lon="0.3533">
        <ele>36</ele>
        <time>2019-08-09T08:51:53.912Z</time>
      </trkpt>
      <trkpt lat="47.28792" lon="0.35289">
        <ele>36</ele>
        <time>2019-08-09T08:52:07.934Z</time>
      </trkpt>
      <trkpt lat="47.28742" lon="0.35212">
        <ele>36</ele>
        <time>2019-08-09T08:52:44.015Z</time>
      </trkpt>
      <trkpt lat="47.28723" lon="0.35135">
        <ele>35</ele>
        <time>2019-08-09T08:53:11.872Z</time>
      </trkpt>
      <trkpt lat="47.28646" lon="0.35006">
        <ele>36</ele>
        <time>2019-08-09T08:54:10.211Z</time>
      </trkpt>
      <trkpt lat="47.28582" lon="0.34822">
        <ele>36</ele>
        <time>2019-08-09T08:55:20.548Z</time>
      </trkpt>
      <trkpt lat="47.28506" lon="0.34575">
        <ele>35</ele>
        <time>2019-08-09T08:56:52.485Z</time>
      </trkpt>
      <trkpt lat="47.28415" lon="0.34281">
        <ele>36</ele>
        <time>2019-08-09T08:58:42.291Z</time>
      </trkpt>
      <trkpt lat="47.28307" lon="0.34092">
        <ele>36</ele>
        <time>2019-08-09T09:00:06.050Z</time>
      </trkpt>
      <trkpt lat="47.2824" lon="0.34006">
        <ele>37</ele>
        <time>2019-08-09T09:00:50.459Z</time>
      </trkpt>
      <trkpt lat="47.2802" lon="0.338">
        <ele>37</ele>
        <time>2019-08-09T09:03:00.790Z</time>
      </trkpt>
      <trkpt lat="47.27972" lon="0.33708">
        <ele>36</ele>
        <time>2019-08-09T09:03:40.242Z</time>
      </trkpt>
      <trkpt lat="47.27915" lon="0.33646">
        <ele>36</ele>
        <time>2019-08-09T09:04:15.669Z</time>
      </trkpt>
      <trkpt lat="47.27867" lon="0.33609">
        <ele>36</ele>
        <time>2019-08-09T09:04:42.679Z</time>
      </trkpt>
      <trkpt lat="47.27797" lon="0.33457">
        <ele>37</ele>
        <time>2019-08-09T09:05:45.129Z</time>
      </trkpt>
      <trkpt lat="47.27709" lon="0.33313">
        <ele>36</ele>
        <time>2019-08-09T09:06:51.140Z</time>
      </trkpt>
      <trkpt lat="47.27618" lon="0.33186">
        <ele>36</ele>
        <time>2019-08-09T09:07:53.500Z</time>
      </trkpt>
      <trkpt lat="47.27441" lon="0.33513">
        <ele>36</ele>
        <time>2019-08-09T09:10:15.491Z</time>
      </trkpt>
      <trkpt lat="47.2742" lon="0.33534">
        <ele>36</ele>
        <time>2019-08-09T09:10:28.020Z</time>
      </trkpt>
      <trkpt lat="47.27358" lon="0.33513">
        <ele>37</ele>
        <time>2019-08-09T09:11:00.175Z</time>
      </trkpt>
      <trkpt lat="47.27343" lon="0.33701">
        <ele>36</ele>
        <time>2019-08-09T09:12:04.683Z</time>
      </trkpt>
      <trkpt lat="47.27433" lon="0.33905">
        <ele>37</ele>
        <time>2019-08-09T09:13:27.322Z</time>
      </trkpt>
      <trkpt lat="47.27493" lon="0.33985">
        <ele>37</ele>
        <time>2019-08-09T09:14:07.559Z</time>
      </trkpt>
      <trkpt lat="47.27547" lon="0.33993">
        <ele>37</ele>
        <time>2019-08-09T09:14:34.683Z</time>
      </trkpt>
      <trkpt lat="47.27598" lon="0.34163">
        <ele>35</ele>
        <time>2019-08-09T09:15:37.642Z</time>
      </trkpt>
      <trkpt lat="47.27621" lon="0.34197">
        <ele>35</ele>
        <time>2019-08-09T09:15:54.120Z</time>
      </trkpt>
      <trkpt lat="47.27653" lon="0.34212">
        <ele>35</ele>
        <time>2019-08-09T09:16:10.970Z</time>
      </trkpt>
      <trkpt lat="47.27784" lon="0.34457">
        <ele>36</ele>
        <time>2019-08-09T09:17:56.762Z</time>
      </trkpt>
      <trkpt lat="47.27915" lon="0.34525">
        <ele>35</ele>
        <time>2019-08-09T09:19:06.337Z</time>
      </trkpt>
      <trkpt lat="47.28051" lon="0.34588">
        <ele>36</ele>
        <time>2019-08-09T09:20:17.302Z</time>
      </trkpt>
      <trkpt lat="47.28123" lon="0.34781">
        <ele>37</ele>
        <time>2019-08-09T09:21:32.293Z</time>
      </trkpt>
      <trkpt lat="47.28145" lon="0.34849">
        <ele>37</ele>
        <time>2019-08-09T09:21:58.039Z</time>
      </trkpt>
      <trkpt lat="47.28234" lon="0.34843">
        <ele>37</ele>
        <time>2019-08-09T09:22:42.526Z</time>
      </trkpt>
      <trkpt lat="47.28343" lon="0.34912">
        <ele>36</ele>
        <time>2019-08-09T09:23:41.922Z</time>
      </trkpt>
      <trkpt lat="47.28369" lon="0.3503">
        <ele>36</ele>
        <time>2019-08-09T09:24:24.067Z</time>
      </trkpt>
      <trkpt lat="47.28351" lon="0.35163">
        <ele>38</ele>
        <time>2019-08-09T09:25:10.226Z</time>
      </trkpt>
      <trkpt lat="47.28393" lon="0.35257">
        <ele>36</ele>
        <time>2019-08-09T09:25:48.601Z</time>
      </trkpt>
      <trkpt lat="47.28441" lon="0.35472">
        <ele>37</ele>
        <time>2019-08-09T09:27:05.302Z</time>
      </trkpt>
      <trkpt lat="47.28489" lon="0.3565">
        <ele>38</ele>
        <time>2019-08-09T09:28:10.352Z</time>
      </trkpt>
      <trkpt lat="47.28563" lon="0.35832">
        <ele>36</ele>
        <time>2019-08-09T09:29:22.569Z</time>
      </trkpt>
      <trkpt lat="47.28582" lon="0.36004">
        <ele>36</ele>
        <time>2019-08-09T09:30:21.577Z</time>
      </trkpt>
      <trkpt lat="47.28652" lon="0.36094">
        <ele>36</ele>
        <time>2019-08-09T09:31:08.060Z</time>
      </trkpt>
      <trkpt lat="47.2876" lon="0.36231">
        <ele>36</ele>
        <time>2019-08-09T09:32:19.306Z</time>
      </trkpt>
      <trkpt lat="47.28816" lon="0.36512">
        <ele>36</ele>
        <time>2019-08-09T09:33:58.844Z</time>
      </trkpt>
      <trkpt lat="47.28623" lon="0.3663">
        <ele>37</ele>
        <time>2019-08-09T09:35:43.624Z</time>
      </trkpt>
      <trkpt lat="47.28605" lon="0.36691">
        <ele>36</ele>
        <time>2019-08-09T09:36:05.823Z</time>
      </trkpt>
      <trkpt lat="47.28672" lon="0.36772">
        <ele>36</ele>
        <time>2019-08-09T09:36:49.288Z</time>
      </trkpt>
      <trkpt lat="47.28722" lon="0.36884">
        <ele>37</ele>
        <time>2019-08-09T09:37:34.519Z</time>
      </trkpt>
      <trkpt lat="47.28757" lon="0.37036">
        <ele>38</ele>
        <time>2019-08-09T09:38:29.098Z</time>
      </trkpt>
      <trkpt lat="47.28822" lon="0.37358">
        <ele>38</ele>
        <time>2019-08-09T09:40:23.165Z</time>
      </trkpt>
      <trkpt lat="47.28768" lon="0.37399">
        <ele>38</ele>
        <time>2019-08-09T09:40:53.483Z</time>
      </trkpt>
      <trkpt lat="47.28797" lon="0.37439">
        <ele>38</ele>
        <time>2019-08-09T09:41:13.554Z</time>
      </trkpt>
      <trkpt lat="47.28886" lon="0.37678">
        <ele>38</ele>
        <time>2019-08-09T09:42:45.807Z</time>
      </trkpt>
      <trkpt lat="47.28927" lon="0.3772">
        <ele>37</ele>
        <time>2019-08-09T09:43:10.883Z</time>
      </trkpt>
      <trkpt lat="47.2896" lon="0.37714">
        <ele>37</ele>
        <time>2019-08-09T09:43:27.736Z</time>
      </trkpt>
      <trkpt lat="47.29078" lon="0.37954">
        <ele>41</ele>
        <time>2019-08-09T09:45:08.394Z</time>
      </trkpt>
      <trkpt lat="47.29094" lon="0.38152">
        <ele>40</ele>
        <time>2019-08-09T09:46:15.867Z</time>
      </trkpt>
      <trkpt lat="47.29122" lon="0.38184">
        <ele>38</ele>
        <time>2019-08-09T09:46:33.518Z</time>
      </trkpt>
      <trkpt lat="47.29056" lon="0.38276">
        <ele>38</ele>
        <time>2019-08-09T09:47:18.856Z</time>
      </trkpt>
      <trkpt lat="47.29099" lon="0.38287">
        <ele>37</ele>
        <time>2019-08-09T09:47:40.485Z</time>
      </trkpt>
      <trkpt lat="47.29186" lon="0.38395">
        <ele>39</ele>
        <time>2019-08-09T09:48:37.394Z</time>
      </trkpt>
      <trkpt lat="47.29224" lon="0.38609">
        <ele>39</ele>
        <time>2019-08-09T09:49:52.470Z</time>
      </trkpt>
      <trkpt lat="47.29253" lon="0.38765">
        <ele>37</ele>
        <time>2019-08-09T09:50:47.367Z</time>
      </trkpt>
      <trkpt lat="47.29301" lon="0.3877">
        <ele>37</ele>
        <time>2019-08-09T09:51:11.445Z</time>
      </trkpt>
      <trkpt lat="47.29291" lon="0.38909">
        <ele>38</ele>
        <time>2019-08-09T09:51:58.884Z</time>
      </trkpt>
      <trkpt lat="47.29316" lon="0.38997">
        <ele>37</ele>
        <time>2019-08-09T09:52:31.263Z</time>
      </trkpt>
      <trkpt lat="47.29324" lon="0.39116">
        <ele>37</ele>
        <time>2019-08-09T09:53:11.847Z</time>
      </trkpt>
      <trkpt lat="47.29366" lon="0.39227">
        <ele>36</ele>
        <time>2019-08-09T09:53:54.984Z</time>
      </trkpt>
      <trkpt lat="47.29422" lon="0.39327">
        <ele>37</ele>
        <time>2019-08-09T09:54:38.995Z</time>
      </trkpt>
      <trkpt lat="47.29457" lon="0.39467">
        <ele>38</ele>
        <time>2019-08-09T09:55:29.632Z</time>
      </trkpt>
      <trkpt lat="47.2943" lon="0.39633">
        <ele>36</ele>
        <time>2019-08-09T09:56:27.565Z</time>
      </trkpt>
      <trkpt lat="47.29484" lon="0.39757">
        <ele>36</ele>
        <time>2019-08-09T09:57:17.572Z</time>
      </trkpt>
      <trkpt lat="47.29509" lon="0.39914">
        <ele>37</ele>
        <time>2019-08-09T09:58:12.345Z</time>
      </trkpt>
      <trkpt lat="47.29561" lon="0.39989">
        <ele>37</ele>
        <time>2019-08-09T09:58:48.769Z</time>
      </trkpt>
      <trkpt lat="47.29593" lon="0.40047">
        <ele>38</ele>
        <time>2019-08-09T09:59:14.149Z</time>
      </trkpt>
      <trkpt lat="47.2965" lon="0.40193">
        <ele>38</ele>
        <time>2019-08-09T10:00:11.301Z</time>
      </trkpt>
      <trkpt lat="47.29786" lon="0.40098">
        <ele>36</ele>
        <time>2019-08-09T10:01:26.137Z</time>
      </trkpt>
      <trkpt lat="47.29931" lon="0.4">
        <ele>40</ele>
        <time>2019-08-09T10:02:46.178Z</time>
      </trkpt>
      <trkpt lat="47.29997" lon="0.40044">
        <ele>38</ele>
        <time>2019-08-09T10:03:22.250Z</time>
      </trkpt>
      <trkpt lat="47.30131" lon="0.40907">
        <ele>39</ele>
        <time>2019-08-09T10:08:22.595Z</time>
      </trkpt>
      <trkpt lat="47.30132" lon="0.41049">
        <ele>39</ele>
        <time>2019-08-09T10:09:10.611Z</time>
      </trkpt>
      <trkpt lat="47.30048" lon="0.41085">
        <ele>38</ele>
        <time>2019-08-09T10:09:54.574Z</time>
      </trkpt>
      <trkpt lat="47.30041" lon="0.41287">
        <ele>38</ele>
        <time>2019-08-09T10:11:03.104Z</time>
      </trkpt>
      <trkpt lat="47.30065" lon="0.41372">
        <ele>38</ele>
        <time>2019-08-09T10:11:34.304Z</time>
      </trkpt>
      <trkpt lat="47.30098" lon="0.4138">
        <ele>38</ele>
        <time>2019-08-09T10:11:51.313Z</time>
      </trkpt>
      <trkpt lat="47.30127" lon="0.4139">
        <ele>38</ele>
        <time>2019-08-09T10:12:05.900Z</time>
      </trkpt>
      <trkpt lat="47.30178" lon="0.41427">
        <ele>39</ele>
        <time>2019-08-09T10:12:34.700Z</time>
      </trkpt>
      <trkpt lat="47.30269" lon="0.41559">
        <ele>39</ele>
        <time>2019-08-09T10:13:38.298Z</time>
      </trkpt>
      <trkpt lat="47.30346" lon="0.41797">
        <ele>38</ele>
        <time>2019-08-09T10:15:07.988Z</time>
      </trkpt>
      <trkpt lat="47.30421" lon="0.419">
        <ele>39</ele>
        <time>2019-08-09T10:15:59.270Z</time>
      </trkpt>
      <trkpt lat="47.30434" lon="0.41941">
        <ele>39</ele>
        <time>2019-08-09T10:16:14.545Z</time>
      </trkpt>
      <trkpt lat="47.30564" lon="0.42501">
        <ele>39</ele>
        <time>2019-08-09T10:19:35.430Z</time>
      </trkpt>
      <trkpt lat="47.30766" lon="0.42686">
        <ele>38</ele>
        <time>2019-08-09T10:21:34.236Z</time>
      </trkpt>
      <trkpt lat="47.30813" lon="0.42757">
        <ele>39</ele>
        <time>2019-08-09T10:22:07.738Z</time>
      </trkpt>
      <trkpt lat="47.30963" lon="0.43147">
        <ele>42</ele>
        <time>2019-08-09T10:24:39.985Z</time>
      </trkpt>
      <trkpt lat="47.30966" lon="0.43248">
        <ele>41</ele>
        <time>2019-08-09T10:25:14.215Z</time>
      </trkpt>
      <trkpt lat="47.30955" lon="0.43304">
        <ele>40</ele>
        <time>2019-08-09T10:25:33.822Z</time>
      </trkpt>
      <trkpt lat="47.30948" lon="0.43578">
        <ele>39</ele>
        <time>2019-08-09T10:27:07.092Z</time>
      </trkpt>
      <trkpt lat="47.31034" lon="0.43767">
        <ele>39</ele>
        <time>2019-08-09T10:28:24.231Z</time>
      </trkpt>
      <trkpt lat="47.31095" lon="0.43799">
        <ele>38</ele>
        <time>2019-08-09T10:28:56.697Z</time>
      </trkpt>
      <trkpt lat="47.31262" lon="0.43965">
        <ele>39</ele>
        <time>2019-08-09T10:30:37.439Z</time>
      </trkpt>
      <trkpt lat="47.31315" lon="0.44025">
        <ele>39</ele>
        <time>2019-08-09T10:31:10.614Z</time>
      </trkpt>
      <trkpt lat="47.31369" lon="0.44306">
        <ele>39</ele>
        <time>2019-08-09T10:32:49.718Z</time>
      </trkpt>
      <trkpt lat="47.31393" lon="0.44387">
        <ele>40</ele>
        <time>2019-08-09T10:33:20.003Z</time>
      </trkpt>
      <trkpt lat="47.31492" lon="0.44493">
        <ele>40</ele>
        <time>2019-08-09T10:34:21.017Z</time>
      </trkpt>
      <trkpt lat="47.31628" lon="0.44716">
        <ele>42</ele>
        <time>2019-08-09T10:36:02.562Z</time>
      </trkpt>
      <trkpt lat="47.31632" lon="0.44776">
        <ele>42</ele>
        <time>2019-08-09T10:36:23.068Z</time>
      </trkpt>
      <trkpt lat="47.31598" lon="0.45042">
        <ele>42</ele>
        <time>2019-08-09T10:37:54.881Z</time>
      </trkpt>
      <trkpt lat="47.3153" lon="0.45246">
        <ele>40</ele>
        <time>2019-08-09T10:39:12.025Z</time>
      </trkpt>
      <trkpt lat="47.31527" lon="0.45359">
        <ele>40</ele>
        <time>2019-08-09T10:39:50.657Z</time>
      </trkpt>
      <trkpt lat="47.3153" lon="0.45473">
        <ele>40</ele>
        <time>2019-08-09T10:40:29.256Z</time>
      </trkpt>
      <trkpt lat="47.31563" lon="0.45459">
        <ele>40</ele>
        <time>2019-08-09T10:40:46.188Z</time>
      </trkpt>
      <trkpt lat="47.31614" lon="0.45368">
        <ele>41</ele>
        <time>2019-08-09T10:41:26.581Z</time>
      </trkpt>
      <trkpt lat="47.31624" lon="0.45441">
        <ele>40</ele>
        <time>2019-08-09T10:41:51.812Z</time>
      </trkpt>
      <trkpt lat="47.31704" lon="0.45585">
        <ele>44</ele>
        <time>2019-08-09T10:42:55.015Z</time>
      </trkpt>
      <trkpt lat="47.3172" lon="0.45631">
        <ele>44</ele>
        <time>2019-08-09T10:43:12.493Z</time>
      </trkpt>
      <trkpt lat="47.31742" lon="0.45678">
        <ele>43</ele>
        <time>2019-08-09T10:43:31.841Z</time>
      </trkpt>
      <trkpt lat="47.31765" lon="0.45721">
        <ele>42</ele>
        <time>2019-08-09T10:43:50.240Z</time>
      </trkpt>
      <trkpt lat="47.31807" lon="0.4586">
        <ele>42</ele>
        <time>2019-08-09T10:44:42.141Z</time>
      </trkpt>
      <trkpt lat="47.31827" lon="0.4589">
        <ele>42</ele>
        <time>2019-08-09T10:44:56.293Z</time>
      </trkpt>
      <trkpt lat="47.31833" lon="0.45921">
        <ele>42</ele>
        <time>2019-08-09T10:45:07.099Z</time>
      </trkpt>
      <trkpt lat="47.31845" lon="0.45947">
        <ele>42</ele>
        <time>2019-08-09T10:45:17.713Z</time>
      </trkpt>
      <trkpt lat="47.31874" lon="0.46009">
        <ele>44</ele>
        <time>2019-08-09T10:45:43.404Z</time>
      </trkpt>
      <trkpt lat="47.31895" lon="0.46014">
        <ele>43</ele>
        <time>2019-08-09T10:45:54.053Z</time>
      </trkpt>
      <trkpt lat="47.31911" lon="0.46024">
        <ele>43</ele>
        <time>2019-08-09T10:46:02.689Z</time>
      </trkpt>
      <trkpt lat="47.31923" lon="0.46042">
        <ele>42</ele>
        <time>2019-08-09T10:46:10.991Z</time>
      </trkpt>
      <trkpt lat="47.31946" lon="0.46084">
        <ele>44</ele>
        <time>2019-08-09T10:46:29.427Z</time>
      </trkpt>
      <trkpt lat="47.3198" lon="0.46148">
        <ele>45</ele>
        <time>2019-08-09T10:46:57.150Z</time>
      </trkpt>
      <trkpt lat="47.31997" lon="0.46189">
        <ele>46</ele>
        <time>2019-08-09T10:47:13.404Z</time>
      </trkpt>
      <trkpt lat="47.32008" lon="0.46212">
        <ele>47</ele>
        <time>2019-08-09T10:47:22.926Z</time>
      </trkpt>
      <trkpt lat="47.32021" lon="0.4623">
        <ele>47</ele>
        <time>2019-08-09T10:47:31.857Z</time>
      </trkpt>
      <trkpt lat="47.32034" lon="0.46248">
        <ele>47</ele>
        <time>2019-08-09T10:47:40.752Z</time>
      </trkpt>
      <trkpt lat="47.32048" lon="0.46261">
        <ele>47</ele>
        <time>2019-08-09T10:47:48.982Z</time>
      </trkpt>
      <trkpt lat="47.32072" lon="0.46285">
        <ele>47</ele>
        <time>2019-08-09T10:48:03.582Z</time>
      </trkpt>
      <trkpt lat="47.32087" lon="0.46302">
        <ele>46</ele>
        <time>2019-08-09T10:48:13.314Z</time>
      </trkpt>
      <trkpt lat="47.32092" lon="0.46306">
        <ele>46</ele>
        <time>2019-08-09T10:48:16.084Z</time>
      </trkpt>
      <trkpt lat="47.32112" lon="0.46328">
        <ele>46</ele>
        <time>2019-08-09T10:48:28.368Z</time>
      </trkpt>
      <trkpt lat="47.32153" lon="0.46373">
        <ele>44</ele>
        <time>2019-08-09T10:48:53.899Z</time>
      </trkpt>
      <trkpt lat="47.32199" lon="0.46431">
        <ele>43</ele>
        <time>2019-08-09T10:49:24.178Z</time>
      </trkpt>
      <trkpt lat="47.3221" lon="0.46447">
        <ele>43</ele>
        <time>2019-08-09T10:49:32.041Z</time>
      </trkpt>
      <trkpt lat="47.32233" lon="0.46477">
        <ele>43</ele>
        <time>2019-08-09T10:49:47.171Z</time>
      </trkpt>
      <trkpt lat="47.32269" lon="0.46529">
        <ele>41</ele>
        <time>2019-08-09T10:50:12.383Z</time>
      </trkpt>
      <trkpt lat="47.32313" lon="0.46578">
        <ele>41</ele>
        <time>2019-08-09T10:50:40.189Z</time>
      </trkpt>
      <trkpt lat="47.3234" lon="0.46619">
        <ele>42</ele>
        <time>2019-08-09T10:50:59.512Z</time>
      </trkpt>
      <trkpt lat="47.32358" lon="0.46649">
        <ele>42</ele>
        <time>2019-08-09T10:51:13.193Z</time>
      </trkpt>
      <trkpt lat="47.32382" lon="0.46688">
        <ele>43</ele>
        <time>2019-08-09T10:51:31.068Z</time>
      </trkpt>
      <trkpt lat="47.32417" lon="0.46717">
        <ele>42</ele>
        <time>2019-08-09T10:51:51.017Z</time>
      </trkpt>
      <trkpt lat="47.32459" lon="0.46748">
        <ele>41</ele>
        <time>2019-08-09T10:52:14.399Z</time>
      </trkpt>
      <trkpt lat="47.32492" lon="0.46784">
        <ele>41</ele>
        <time>2019-08-09T10:52:35.016Z</time>
      </trkpt>
      <trkpt lat="47.32518" lon="0.46831">
        <ele>41</ele>
        <time>2019-08-09T10:52:55.615Z</time>
      </trkpt>
      <trkpt lat="47.32529" lon="0.46855">
        <ele>42</ele>
        <time>2019-08-09T10:53:05.418Z</time>
      </trkpt>
      <trkpt lat="47.32557" lon="0.46896">
        <ele>43</ele>
        <time>2019-08-09T10:53:25.504Z</time>
      </trkpt>
      <trkpt lat="47.32574" lon="0.46913">
        <ele>44</ele>
        <time>2019-08-09T10:53:35.456Z</time>
      </trkpt>
      <trkpt lat="47.32639" lon="0.47062">
        <ele>43</ele>
        <time>2019-08-09T10:54:35.634Z</time>
      </trkpt>
      <trkpt lat="47.32669" lon="0.47071">
        <ele>43</ele>
        <time>2019-08-09T10:54:50.596Z</time>
      </trkpt>
      <trkpt lat="47.32694" lon="0.4707">
        <ele>42</ele>
        <time>2019-08-09T10:55:03.258Z</time>
      </trkpt>
      <trkpt lat="47.32719" lon="0.47067">
        <ele>42</ele>
        <time>2019-08-09T10:55:16.061Z</time>
      </trkpt>
      <trkpt lat="47.32744" lon="0.47063">
        <ele>42</ele>
        <time>2019-08-09T10:55:28.371Z</time>
      </trkpt>
      <trkpt lat="47.32772" lon="0.47047">
        <ele>41</ele>
        <time>2019-08-09T10:55:43.610Z</time>
      </trkpt>
      <trkpt lat="47.32792" lon="0.47037">
        <ele>41</ele>
        <time>2019-08-09T10:55:53.970Z</time>
      </trkpt>
      <trkpt lat="47.32813" lon="0.47032">
        <ele>41</ele>
        <time>2019-08-09T10:56:04.718Z</time>
      </trkpt>
      <trkpt lat="47.32824" lon="0.47053">
        <ele>41</ele>
        <time>2019-08-09T10:56:13.662Z</time>
      </trkpt>
      <trkpt lat="47.32872" lon="0.47082">
        <ele>41</ele>
        <time>2019-08-09T10:56:39.503Z</time>
      </trkpt>
      <trkpt lat="47.32937" lon="0.47124">
        <ele>40</ele>
        <time>2019-08-09T10:57:15.180Z</time>
      </trkpt>
      <trkpt lat="47.32926" lon="0.4707">
        <ele>40</ele>
        <time>2019-08-09T10:57:34.549Z</time>
      </trkpt>
      <trkpt lat="47.32944" lon="0.4703">
        <ele>40</ele>
        <time>2019-08-09T10:57:50.582Z</time>
      </trkpt>
      <trkpt lat="47.33141" lon="0.46919">
        <ele>40</ele>
        <time>2019-08-09T10:59:36.051Z</time>
      </trkpt>
    </trkseg>
  </trk>
  <trk>
    <name><![CDATA[Le chateau de Villandry]]></name>
    <trkseg>
      <trkpt lat="47.33202" lon="0.46859">
        <ele>42</ele>
        <time>2019-08-09T07:46:37.000Z</time>
      </trkpt>
      <trkpt lat="47.33293" lon="0.47031">
        <ele>41</ele>
        <time>2019-08-09T07:47:50.645Z</time>
      </trkpt>
      <trkpt lat="47.33487" lon="0.47683">
        <ele>44</ele>
        <time>2019-08-09T07:51:52.375Z</time>
      </trkpt>
      <trkpt lat="47.33412" lon="0.47696">
        <ele>41</ele>
        <time>2019-08-09T07:52:30.456Z</time>
      </trkpt>
      <trkpt lat="47.33406" lon="0.47765">
        <ele>43</ele>
        <time>2019-08-09T07:52:53.933Z</time>
      </trkpt>
      <trkpt lat="47.33324" lon="0.47786">
        <ele>43</ele>
        <time>2019-08-09T07:53:35.354Z</time>
      </trkpt>
      <trkpt lat="47.33575" lon="0.48808">
        <ele>41</ele>
        <time>2019-08-09T07:59:43.656Z</time>
      </trkpt>
      <trkpt lat="47.33633" lon="0.48902">
        <ele>42</ele>
        <time>2019-08-09T08:00:26.898Z</time>
      </trkpt>
      <trkpt lat="47.33755" lon="0.48821">
        <ele>40</ele>
        <time>2019-08-09T08:01:34.000Z</time>
      </trkpt>
      <trkpt lat="47.33819" lon="0.48988">
        <ele>41</ele>
        <time>2019-08-09T08:02:39.174Z</time>
      </trkpt>
      <trkpt lat="47.33897" lon="0.4919">
        <ele>41</ele>
        <time>2019-08-09T08:03:58.045Z</time>
      </trkpt>
      <trkpt lat="47.33999" lon="0.49524">
        <ele>40</ele>
        <time>2019-08-09T08:06:02.443Z</time>
      </trkpt>
      <trkpt lat="47.34025" lon="0.49816">
        <ele>43</ele>
        <time>2019-08-09T08:07:42.251Z</time>
      </trkpt>
      <trkpt lat="47.34188" lon="0.50258">
        <ele>41</ele>
        <time>2019-08-09T08:10:32.859Z</time>
      </trkpt>
      <trkpt lat="47.34293" lon="0.5061">
        <ele>40</ele>
        <time>2019-08-09T08:12:43.170Z</time>
      </trkpt>
      <trkpt lat="47.34238" lon="0.51095">
        <ele>41</ele>
        <time>2019-08-09T08:15:29.893Z</time>
      </trkpt>
      <trkpt lat="47.34415" lon="0.51044">
        <ele>45</ele>
        <time>2019-08-09T08:17:00.361Z</time>
      </trkpt>
      <trkpt lat="47.34339" lon="0.51644">
        <ele>43</ele>
        <time>2019-08-09T08:20:27.548Z</time>
      </trkpt>
      <trkpt lat="47.34366" lon="0.51971">
        <ele>45</ele>
        <time>2019-08-09T08:22:18.922Z</time>
      </trkpt>
      <trkpt lat="47.34348" lon="0.52095">
        <ele>56</ele>
        <time>2019-08-09T08:23:02.000Z</time>
      </trkpt>
      <trkpt lat="47.34322" lon="0.52331">
        <ele>80</ele>
        <time>2019-08-09T08:24:23.110Z</time>
      </trkpt>
      <trkpt lat="47.34255" lon="0.52443">
        <ele>90</ele>
        <time>2019-08-09T08:25:13.631Z</time>
      </trkpt>
      <trkpt lat="47.34127" lon="0.5255">
        <ele>90</ele>
        <time>2019-08-09T08:26:27.274Z</time>
      </trkpt>
      <trkpt lat="47.34168" lon="0.52722">
        <ele>89</ele>
        <time>2019-08-09T08:27:28.951Z</time>
      </trkpt>
      <trkpt lat="47.34156" lon="0.53181">
        <ele>89</ele>
        <time>2019-08-09T08:30:04.759Z</time>
      </trkpt>
      <trkpt lat="47.3402" lon="0.53146">
        <ele>85</ele>
        <time>2019-08-09T08:31:14.142Z</time>
      </trkpt>
      <trkpt lat="47.33938" lon="0.53039">
        <ele>83</ele>
        <time>2019-08-09T08:32:08.756Z</time>
      </trkpt>
      <trkpt lat="47.33865" lon="0.52726">
        <ele>81</ele>
        <time>2019-08-09T08:34:01.047Z</time>
      </trkpt>
      <trkpt lat="47.33892" lon="0.5255">
        <ele>79</ele>
        <time>2019-08-09T08:35:02.149Z</time>
      </trkpt>
      <trkpt lat="47.33796" lon="0.52292">
        <ele>75</ele>
        <time>2019-08-09T08:36:41.806Z</time>
      </trkpt>
      <trkpt lat="47.33848" lon="0.52061">
        <ele>73</ele>
        <time>2019-08-09T08:38:04.633Z</time>
      </trkpt>
      <trkpt lat="47.3388" lon="0.51863">
        <ele>74</ele>
        <time>2019-08-09T08:39:13.446Z</time>
      </trkpt>
      <trkpt lat="47.33796" lon="0.51275">
        <ele>64</ele>
        <time>2019-08-09T08:42:37.210Z</time>
      </trkpt>
      <trkpt lat="47.33505" lon="0.51241">
        <ele>82</ele>
        <time>2019-08-09T08:45:03.187Z</time>
      </trkpt>
      <trkpt lat="47.33546" lon="0.51086">
        <ele>81</ele>
        <time>2019-08-09T08:45:59.398Z</time>
      </trkpt>
      <trkpt lat="47.3342" lon="0.50743">
        <ele>86</ele>
        <time>2019-08-09T08:48:11.577Z</time>
      </trkpt>
      <trkpt lat="47.33336" lon="0.50777">
        <ele>87</ele>
        <time>2019-08-09T08:48:55.333Z</time>
      </trkpt>
      <trkpt lat="47.33333" lon="0.50559">
        <ele>84</ele>
        <time>2019-08-09T08:50:09.547Z</time>
      </trkpt>
      <trkpt lat="47.33339" lon="0.50357">
        <ele>80</ele>
        <time>2019-08-09T08:51:18.009Z</time>
      </trkpt>
      <trkpt lat="47.33188" lon="0.49782">
        <ele>79</ele>
        <time>2019-08-09T08:54:47.219Z</time>
      </trkpt>
      <trkpt lat="47.33194" lon="0.49593">
        <ele>79</ele>
        <time>2019-08-09T08:55:51.315Z</time>
      </trkpt>
      <trkpt lat="47.33039" lon="0.49464">
        <ele>78</ele>
        <time>2019-08-09T08:57:19.979Z</time>
      </trkpt>
      <trkpt lat="47.32859" lon="0.49224">
        <ele>80</ele>
        <time>2019-08-09T08:59:21.556Z</time>
      </trkpt>
      <trkpt lat="47.32676" lon="0.48966">
        <ele>79</ele>
        <time>2019-08-09T09:01:28.203Z</time>
      </trkpt>
      <trkpt lat="47.32714" lon="0.48833">
        <ele>80</ele>
        <time>2019-08-09T09:02:17.117Z</time>
      </trkpt>
      <trkpt lat="47.32786" lon="0.48563">
        <ele>80</ele>
        <time>2019-08-09T09:03:55.685Z</time>
      </trkpt>
      <trkpt lat="47.32696" lon="0.48336">
        <ele>76</ele>
        <time>2019-08-09T09:05:24.894Z</time>
      </trkpt>
      <trkpt lat="47.32704" lon="0.48215">
        <ele>73</ele>
        <time>2019-08-09T09:06:05.862Z</time>
      </trkpt>
      <trkpt lat="47.32763" lon="0.48091">
        <ele>55</ele>
        <time>2019-08-09T09:06:57.327Z</time>
      </trkpt>
      <trkpt lat="47.32789" lon="0.48147">
        <ele>54</ele>
        <time>2019-08-09T09:07:20.349Z</time>
      </trkpt>
      <trkpt lat="47.32949" lon="0.47988">
        <ele>44</ele>
        <time>2019-08-09T09:08:56.797Z</time>
      </trkpt>
      <trkpt lat="47.32932" lon="0.47748">
        <ele>42</ele>
        <time>2019-08-09T09:10:18.758Z</time>
      </trkpt>
      <trkpt lat="47.329" lon="0.47314">
        <ele>43</ele>
        <time>2019-08-09T09:12:46.614Z</time>
      </trkpt>
      <trkpt lat="47.32984" lon="0.47254">
        <ele>41</ele>
        <time>2019-08-09T09:13:33.462Z</time>
      </trkpt>
      <trkpt lat="47.32929" lon="0.47078">
        <ele>40</ele>
        <time>2019-08-09T09:14:39.233Z</time>
      </trkpt>
      <trkpt lat="47.32958" lon="0.47005">
        <ele>39</ele>
        <time>2019-08-09T09:15:07.926Z</time>
      </trkpt>
      <trkpt lat="47.33071" lon="0.46967">
        <ele>38</ele>
        <time>2019-08-09T09:16:06.159Z</time>
      </trkpt>
      <trkpt lat="47.33138" lon="0.46915">
        <ele>40</ele>
        <time>2019-08-09T09:16:43.917Z</time>
      </trkpt>
    </trkseg>
  </trk>
  <trk>
    <name><![CDATA[Vallères]]></name>
    <trkseg>
      <trkpt lat="47.33197" lon="0.46868">
        <ele>42</ele>
        <time>2019-08-09T09:43:27.000Z</time>
      </trkpt>
      <trkpt lat="47.33251" lon="0.46971">
        <ele>41</ele>
        <time>2019-08-09T09:44:11.192Z</time>
      </trkpt>
      <trkpt lat="47.33294" lon="0.47035">
        <ele>41</ele>
        <time>2019-08-09T09:44:41.571Z</time>
      </trkpt>
      <trkpt lat="47.33489" lon="0.47688">
        <ele>44</ele>
        <time>2019-08-09T09:48:43.321Z</time>
      </trkpt>
      <trkpt lat="47.33419" lon="0.47703">
        <ele>43</ele>
        <time>2019-08-09T09:49:18.621Z</time>
      </trkpt>
      <trkpt lat="47.33406" lon="0.47773">
        <ele>43</ele>
        <time>2019-08-09T09:49:43.509Z</time>
      </trkpt>
      <trkpt lat="47.33371" lon="0.47793">
        <ele>43</ele>
        <time>2019-08-09T09:50:02.158Z</time>
      </trkpt>
      <trkpt lat="47.33307" lon="0.4828">
        <ele>46</ele>
        <time>2019-08-09T09:52:50.420Z</time>
      </trkpt>
      <trkpt lat="47.33354" lon="0.48509">
        <ele>42</ele>
        <time>2019-08-09T09:54:11.858Z</time>
      </trkpt>
      <trkpt lat="47.33337" lon="0.48623">
        <ele>44</ele>
        <time>2019-08-09T09:54:51.365Z</time>
      </trkpt>
      <trkpt lat="47.33361" lon="0.48705">
        <ele>43</ele>
        <time>2019-08-09T09:55:21.362Z</time>
      </trkpt>
      <trkpt lat="47.33275" lon="0.48773">
        <ele>46</ele>
        <time>2019-08-09T09:56:10.208Z</time>
      </trkpt>
      <trkpt lat="47.33244" lon="0.48743">
        <ele>46</ele>
        <time>2019-08-09T09:56:28.569Z</time>
      </trkpt>
      <trkpt lat="47.33185" lon="0.4822">
        <ele>45</ele>
        <time>2019-08-09T09:59:28.599Z</time>
      </trkpt>
      <trkpt lat="47.33113" lon="0.48014">
        <ele>45</ele>
        <time>2019-08-09T10:00:47.089Z</time>
      </trkpt>
      <trkpt lat="47.33026" lon="0.47864">
        <ele>46</ele>
        <time>2019-08-09T10:01:54.095Z</time>
      </trkpt>
      <trkpt lat="47.3302" lon="0.47434">
        <ele>42</ele>
        <time>2019-08-09T10:04:19.683Z</time>
      </trkpt>
      <trkpt lat="47.33017" lon="0.47316">
        <ele>41</ele>
        <time>2019-08-09T10:04:59.728Z</time>
      </trkpt>
      <trkpt lat="47.32982" lon="0.47222">
        <ele>41</ele>
        <time>2019-08-09T10:05:36.196Z</time>
      </trkpt>
      <trkpt lat="47.32968" lon="0.47291">
        <ele>41</ele>
        <time>2019-08-09T10:06:00.614Z</time>
      </trkpt>
      <trkpt lat="47.32905" lon="0.47325">
        <ele>43</ele>
        <time>2019-08-09T10:06:33.981Z</time>
      </trkpt>
      <trkpt lat="47.32932" lon="0.47735">
        <ele>42</ele>
        <time>2019-08-09T10:08:53.581Z</time>
      </trkpt>
      <trkpt lat="47.32923" lon="0.47825">
        <ele>44</ele>
        <time>2019-08-09T10:09:24.480Z</time>
      </trkpt>
      <trkpt lat="47.32942" lon="0.47997">
        <ele>43</ele>
        <time>2019-08-09T10:10:23.441Z</time>
      </trkpt>
      <trkpt lat="47.32808" lon="0.4814">
        <ele>52</ele>
        <time>2019-08-09T10:11:46.271Z</time>
      </trkpt>
      <trkpt lat="47.3278" lon="0.48115">
        <ele>54</ele>
        <time>2019-08-09T10:12:02.662Z</time>
      </trkpt>
      <trkpt lat="47.3269" lon="0.48256">
        <ele>75</ele>
        <time>2019-08-09T10:13:08.558Z</time>
      </trkpt>
      <trkpt lat="47.32701" lon="0.48359">
        <ele>77</ele>
        <time>2019-08-09T10:13:43.946Z</time>
      </trkpt>
      <trkpt lat="47.32674" lon="0.48306">
        <ele>75</ele>
        <time>2019-08-09T10:14:06.713Z</time>
      </trkpt>
      <trkpt lat="47.32632" lon="0.48301">
        <ele>76</ele>
        <time>2019-08-09T10:14:27.879Z</time>
      </trkpt>
      <trkpt lat="47.32485" lon="0.48391">
        <ele>79</ele>
        <time>2019-08-09T10:15:47.484Z</time>
      </trkpt>
      <trkpt lat="47.32411" lon="0.48632">
        <ele>80</ele>
        <time>2019-08-09T10:17:17.078Z</time>
      </trkpt>
      <trkpt lat="47.32271" lon="0.4855">
        <ele>80</ele>
        <time>2019-08-09T10:18:32.214Z</time>
      </trkpt>
      <trkpt lat="47.3223" lon="0.486">
        <ele>81</ele>
        <time>2019-08-09T10:18:58.625Z</time>
      </trkpt>
      <trkpt lat="47.32139" lon="0.48664">
        <ele>76</ele>
        <time>2019-08-09T10:19:49.534Z</time>
      </trkpt>
      <trkpt lat="47.32041" lon="0.48672">
        <ele>68</ele>
        <time>2019-08-09T10:20:38.256Z</time>
      </trkpt>
      <trkpt lat="47.3194" lon="0.48741">
        <ele>59</ele>
        <time>2019-08-09T10:21:34.272Z</time>
      </trkpt>
      <trkpt lat="47.31889" lon="0.48851">
        <ele>58</ele>
        <time>2019-08-09T10:22:19.281Z</time>
      </trkpt>
      <trkpt lat="47.31826" lon="0.49018">
        <ele>58</ele>
        <time>2019-08-09T10:23:24.108Z</time>
      </trkpt>
      <trkpt lat="47.31771" lon="0.49155">
        <ele>63</ele>
        <time>2019-08-09T10:24:18.283Z</time>
      </trkpt>
      <trkpt lat="47.31634" lon="0.49102">
        <ele>65</ele>
        <time>2019-08-09T10:25:29.108Z</time>
      </trkpt>
      <trkpt lat="47.31592" lon="0.49061">
        <ele>66</ele>
        <time>2019-08-09T10:25:54.314Z</time>
      </trkpt>
      <trkpt lat="47.3155" lon="0.49076">
        <ele>74</ele>
        <time>2019-08-09T10:26:16.034Z</time>
      </trkpt>
      <trkpt lat="47.31477" lon="0.48999">
        <ele>79</ele>
        <time>2019-08-09T10:27:00.899Z</time>
      </trkpt>
      <trkpt lat="47.31259" lon="0.49069">
        <ele>88</ele>
        <time>2019-08-09T10:28:52.692Z</time>
      </trkpt>
      <trkpt lat="47.31185" lon="0.49087">
        <ele>86</ele>
        <time>2019-08-09T10:29:30.276Z</time>
      </trkpt>
      <trkpt lat="47.31067" lon="0.49132">
        <ele>80</ele>
        <time>2019-08-09T10:30:31.165Z</time>
      </trkpt>
      <trkpt lat="47.30981" lon="0.49106">
        <ele>77</ele>
        <time>2019-08-09T10:31:15.023Z</time>
      </trkpt>
      <trkpt lat="47.30857" lon="0.4902">
        <ele>72</ele>
        <time>2019-08-09T10:32:23.378Z</time>
      </trkpt>
      <trkpt lat="47.30827" lon="0.4896">
        <ele>67</ele>
        <time>2019-08-09T10:32:48.878Z</time>
      </trkpt>
      <trkpt lat="47.30696" lon="0.48698">
        <ele>70</ele>
        <time>2019-08-09T10:34:39.241Z</time>
      </trkpt>
      <trkpt lat="47.30674" lon="0.48507">
        <ele>67</ele>
        <time>2019-08-09T10:35:44.966Z</time>
      </trkpt>
      <trkpt lat="47.30677" lon="0.4846">
        <ele>69</ele>
        <time>2019-08-09T10:36:01.046Z</time>
      </trkpt>
      <trkpt lat="47.30815" lon="0.48293">
        <ele>72</ele>
        <time>2019-08-09T10:37:30.571Z</time>
      </trkpt>
      <trkpt lat="47.30949" lon="0.481">
        <ele>76</ele>
        <time>2019-08-09T10:39:04.136Z</time>
      </trkpt>
      <trkpt lat="47.3109" lon="0.47936">
        <ele>75</ele>
        <time>2019-08-09T10:40:33.958Z</time>
      </trkpt>
      <trkpt lat="47.31139" lon="0.48048">
        <ele>74</ele>
        <time>2019-08-09T10:41:19.202Z</time>
      </trkpt>
      <trkpt lat="47.31193" lon="0.48168">
        <ele>74</ele>
        <time>2019-08-09T10:42:08.065Z</time>
      </trkpt>
      <trkpt lat="47.31238" lon="0.48331">
        <ele>74</ele>
        <time>2019-08-09T10:43:07.823Z</time>
      </trkpt>
      <trkpt lat="47.31333" lon="0.48258">
        <ele>71</ele>
        <time>2019-08-09T10:44:01.246Z</time>
      </trkpt>
      <trkpt lat="47.31314" lon="0.48132">
        <ele>70</ele>
        <time>2019-08-09T10:44:45.224Z</time>
      </trkpt>
      <trkpt lat="47.31506" lon="0.47988">
        <ele>79</ele>
        <time>2019-08-09T10:46:32.972Z</time>
      </trkpt>
      <trkpt lat="47.31483" lon="0.47851">
        <ele>80</ele>
        <time>2019-08-09T10:47:20.987Z</time>
      </trkpt>
      <trkpt lat="47.31512" lon="0.47728">
        <ele>79</ele>
        <time>2019-08-09T10:48:04.957Z</time>
      </trkpt>
      <trkpt lat="47.315" lon="0.47565">
        <ele>77</ele>
        <time>2019-08-09T10:49:00.590Z</time>
      </trkpt>
      <trkpt lat="47.31522" lon="0.47406">
        <ele>77</ele>
        <time>2019-08-09T10:49:55.525Z</time>
      </trkpt>
      <trkpt lat="47.31509" lon="0.47286">
        <ele>77</ele>
        <time>2019-08-09T10:50:36.768Z</time>
      </trkpt>
      <trkpt lat="47.31492" lon="0.47076">
        <ele>81</ele>
        <time>2019-08-09T10:51:48.639Z</time>
      </trkpt>
      <trkpt lat="47.31486" lon="0.46956">
        <ele>81</ele>
        <time>2019-08-09T10:52:29.519Z</time>
      </trkpt>
      <trkpt lat="47.31496" lon="0.46728">
        <ele>82</ele>
        <time>2019-08-09T10:53:46.828Z</time>
      </trkpt>
      <trkpt lat="47.31486" lon="0.46514">
        <ele>79</ele>
        <time>2019-08-09T10:54:59.804Z</time>
      </trkpt>
      <trkpt lat="47.31506" lon="0.46385">
        <ele>77</ele>
        <time>2019-08-09T10:55:44.663Z</time>
      </trkpt>
      <trkpt lat="47.31522" lon="0.46211">
        <ele>72</ele>
        <time>2019-08-09T10:56:44.164Z</time>
      </trkpt>
      <trkpt lat="47.31521" lon="0.46191">
        <ele>72</ele>
        <time>2019-08-09T10:56:51.065Z</time>
      </trkpt>
      <trkpt lat="47.31467" lon="0.46085">
        <ele>69</ele>
        <time>2019-08-09T10:57:36.066Z</time>
      </trkpt>
      <trkpt lat="47.31494" lon="0.45967">
        <ele>66</ele>
        <time>2019-08-09T10:58:18.188Z</time>
      </trkpt>
      <trkpt lat="47.31491" lon="0.45909">
        <ele>66</ele>
        <time>2019-08-09T10:58:37.884Z</time>
      </trkpt>
      <trkpt lat="47.31474" lon="0.45855">
        <ele>66</ele>
        <time>2019-08-09T10:58:57.926Z</time>
      </trkpt>
      <trkpt lat="47.31454" lon="0.45796">
        <ele>66</ele>
        <time>2019-08-09T10:59:20.237Z</time>
      </trkpt>
      <trkpt lat="47.3145" lon="0.4575">
        <ele>64</ele>
        <time>2019-08-09T10:59:36.023Z</time>
      </trkpt>
      <trkpt lat="47.31467" lon="0.457">
        <ele>62</ele>
        <time>2019-08-09T10:59:55.210Z</time>
      </trkpt>
      <trkpt lat="47.31435" lon="0.4559">
        <ele>56</ele>
        <time>2019-08-09T11:00:35.801Z</time>
      </trkpt>
      <trkpt lat="47.3143" lon="0.45528">
        <ele>47</ele>
        <time>2019-08-09T11:00:57.017Z</time>
      </trkpt>
      <trkpt lat="47.31416" lon="0.45445">
        <ele>46</ele>
        <time>2019-08-09T11:01:25.963Z</time>
      </trkpt>
      <trkpt lat="47.31465" lon="0.45452">
        <ele>41</ele>
        <time>2019-08-09T11:01:50.777Z</time>
      </trkpt>
      <trkpt lat="47.31497" lon="0.45503">
        <ele>41</ele>
        <time>2019-08-09T11:02:14.475Z</time>
      </trkpt>
      <trkpt lat="47.31529" lon="0.45485">
        <ele>40</ele>
        <time>2019-08-09T11:02:31.683Z</time>
      </trkpt>
      <trkpt lat="47.31595" lon="0.4543">
        <ele>40</ele>
        <time>2019-08-09T11:03:09.303Z</time>
      </trkpt>
      <trkpt lat="47.31619" lon="0.45369">
        <ele>40</ele>
        <time>2019-08-09T11:03:33.464Z</time>
      </trkpt>
      <trkpt lat="47.31622" lon="0.45435">
        <ele>40</ele>
        <time>2019-08-09T11:03:55.711Z</time>
      </trkpt>
      <trkpt lat="47.31655" lon="0.45505">
        <ele>42</ele>
        <time>2019-08-09T11:04:25.000Z</time>
      </trkpt>
      <trkpt lat="47.3171" lon="0.4559">
        <ele>44</ele>
        <time>2019-08-09T11:05:04.890Z</time>
      </trkpt>
      <trkpt lat="47.31728" lon="0.45645">
        <ele>44</ele>
        <time>2019-08-09T11:05:25.417Z</time>
      </trkpt>
      <trkpt lat="47.31777" lon="0.45736">
        <ele>42</ele>
        <time>2019-08-09T11:06:05.048Z</time>
      </trkpt>
      <trkpt lat="47.31809" lon="0.45868">
        <ele>42</ele>
        <time>2019-08-09T11:06:52.570Z</time>
      </trkpt>
      <trkpt lat="47.31827" lon="0.45892">
        <ele>42</ele>
        <time>2019-08-09T11:07:04.695Z</time>
      </trkpt>
      <trkpt lat="47.31855" lon="0.45969">
        <ele>42</ele>
        <time>2019-08-09T11:07:34.378Z</time>
      </trkpt>
      <trkpt lat="47.31877" lon="0.46007">
        <ele>43</ele>
        <time>2019-08-09T11:07:51.420Z</time>
      </trkpt>
      <trkpt lat="47.31916" lon="0.4604">
        <ele>43</ele>
        <time>2019-08-09T11:08:13.871Z</time>
      </trkpt>
      <trkpt lat="47.3197" lon="0.46132">
        <ele>44</ele>
        <time>2019-08-09T11:08:55.169Z</time>
      </trkpt>
      <trkpt lat="47.3204" lon="0.46248">
        <ele>47</ele>
        <time>2019-08-09T11:09:47.757Z</time>
      </trkpt>
      <trkpt lat="47.32344" lon="0.46623">
        <ele>42</ele>
        <time>2019-08-09T11:13:06.154Z</time>
      </trkpt>
      <trkpt lat="47.32418" lon="0.46731">
        <ele>42</ele>
        <time>2019-08-09T11:13:58.145Z</time>
      </trkpt>
      <trkpt lat="47.32485" lon="0.46771">
        <ele>41</ele>
        <time>2019-08-09T11:14:34.368Z</time>
      </trkpt>
      <trkpt lat="47.32518" lon="0.46851">
        <ele>42</ele>
        <time>2019-08-09T11:15:06.063Z</time>
      </trkpt>
      <trkpt lat="47.32581" lon="0.46902">
        <ele>44</ele>
        <time>2019-08-09T11:15:41.928Z</time>
      </trkpt>
      <trkpt lat="47.32619" lon="0.47042">
        <ele>44</ele>
        <time>2019-08-09T11:16:32.883Z</time>
      </trkpt>
      <trkpt lat="47.32673" lon="0.47065">
        <ele>42</ele>
        <time>2019-08-09T11:17:00.968Z</time>
      </trkpt>
      <trkpt lat="47.32761" lon="0.47061">
        <ele>41</ele>
        <time>2019-08-09T11:17:45.375Z</time>
      </trkpt>
      <trkpt lat="47.32824" lon="0.47031">
        <ele>41</ele>
        <time>2019-08-09T11:18:18.320Z</time>
      </trkpt>
      <trkpt lat="47.32939" lon="0.47115">
        <ele>40</ele>
        <time>2019-08-09T11:19:22.439Z</time>
      </trkpt>
      <trkpt lat="47.32937" lon="0.47044">
        <ele>40</ele>
        <time>2019-08-09T11:19:46.462Z</time>
      </trkpt>
      <trkpt lat="47.32971" lon="0.47012">
        <ele>39</ele>
        <time>2019-08-09T11:20:06.468Z</time>
      </trkpt>
      <trkpt lat="47.33166" lon="0.46889">
        <ele>41</ele>
        <time>2019-08-09T11:21:52.399Z</time>
      </trkpt>
    </trkseg>
  </trk>
</gpx>